<?xml version="1.0" encoding="UTF-8"?>
<gpx xmlns="http://www.topografix.com/GPX/1/1" xmlns:xsi="http://www.w3.org/2001/XMLSchema-instance" version="1.1" xsi:schemaLocation="http://www.topografix.com/GPX/1/1 http://www.topografix.com/GPX/1/1/gpx.xsd">
  <metadata>
    <name>XTERRA ATX Off-Road Triathlon</name>
  </metadata>
  <trk>
    <name>XTERRA ATX Off-Road Triathlon</name>
    <trkseg>
      <trkpt lat="30.455337" lon="-98.008618">
        <ele>208.672479</ele>
        <time>2025-04-26T08:18:00.000Z</time>
      </trkpt>
      <trkpt lat="30.455362" lon="-98.00864">
        <ele>208.672472</ele>
        <time>2025-04-26T08:18:00.000Z</time>
      </trkpt>
      <trkpt lat="30.455538" lon="-98.009004">
        <ele>208.672476</ele>
        <time>2025-04-26T08:18:04.000Z</time>
      </trkpt>
      <trkpt lat="30.45582" lon="-98.009558">
        <ele>208.702966</ele>
        <time>2025-04-26T08:18:10.000Z</time>
      </trkpt>
      <trkpt lat="30.455939" lon="-98.009695">
        <ele>208.830415</ele>
        <time>2025-04-26T08:18:12.000Z</time>
      </trkpt>
      <trkpt lat="30.456044" lon="-98.009759">
        <ele>208.917996</ele>
        <time>2025-04-26T08:18:13.000Z</time>
      </trkpt>
      <trkpt lat="30.456174" lon="-98.009797">
        <ele>209.013769</ele>
        <time>2025-04-26T08:18:14.000Z</time>
      </trkpt>
      <trkpt lat="30.456297" lon="-98.00976">
        <ele>209.102701</ele>
        <time>2025-04-26T08:18:15.000Z</time>
      </trkpt>
      <trkpt lat="30.456829" lon="-98.009458">
        <ele>209.547327</ele>
        <time>2025-04-26T08:18:22.000Z</time>
      </trkpt>
      <trkpt lat="30.457457" lon="-98.00907">
        <ele>209.999025</ele>
        <time>2025-04-26T08:18:30.000Z</time>
      </trkpt>
      <trkpt lat="30.457663" lon="-98.008983">
        <ele>209.954129</ele>
        <time>2025-04-26T08:18:32.000Z</time>
      </trkpt>
      <trkpt lat="30.457844" lon="-98.008919">
        <ele>209.914463</ele>
        <time>2025-04-26T08:18:34.000Z</time>
      </trkpt>
      <trkpt lat="30.458409" lon="-98.008885">
        <ele>209.804708</ele>
        <time>2025-04-26T08:18:40.000Z</time>
      </trkpt>
      <trkpt lat="30.458509" lon="-98.00896">
        <ele>209.781729</ele>
        <time>2025-04-26T08:18:41.000Z</time>
      </trkpt>
      <trkpt lat="30.458541" lon="-98.009029">
        <ele>209.767432</ele>
        <time>2025-04-26T08:18:42.000Z</time>
      </trkpt>
      <trkpt lat="30.458506" lon="-98.009187">
        <ele>209.739894</ele>
        <time>2025-04-26T08:18:44.000Z</time>
      </trkpt>
      <trkpt lat="30.458443" lon="-98.009284">
        <ele>209.718783</ele>
        <time>2025-04-26T08:18:45.000Z</time>
      </trkpt>
      <trkpt lat="30.458174" lon="-98.009602">
        <ele>209.896505</ele>
        <time>2025-04-26T08:18:49.000Z</time>
      </trkpt>
      <trkpt lat="30.458018" lon="-98.009803">
        <ele>210.659134</ele>
        <time>2025-04-26T08:18:52.000Z</time>
      </trkpt>
      <trkpt lat="30.458017" lon="-98.010101">
        <ele>211.464632</ele>
        <time>2025-04-26T08:18:55.000Z</time>
      </trkpt>
      <trkpt lat="30.458047" lon="-98.010334">
        <ele>212.110102</ele>
        <time>2025-04-26T08:18:57.000Z</time>
      </trkpt>
      <trkpt lat="30.458081" lon="-98.010401">
        <ele>212.327196</ele>
        <time>2025-04-26T08:18:58.000Z</time>
      </trkpt>
      <trkpt lat="30.458586" lon="-98.010709">
        <ele>214.079339</ele>
        <time>2025-04-26T08:19:04.000Z</time>
      </trkpt>
      <trkpt lat="30.458733" lon="-98.010849">
        <ele>214.677881</ele>
        <time>2025-04-26T08:19:06.000Z</time>
      </trkpt>
      <trkpt lat="30.458799" lon="-98.01097">
        <ele>215.098289</ele>
        <time>2025-04-26T08:19:07.000Z</time>
      </trkpt>
      <trkpt lat="30.458746" lon="-98.01101">
        <ele>215.330296</ele>
        <time>2025-04-26T08:19:08.000Z</time>
      </trkpt>
      <trkpt lat="30.458776" lon="-98.011175">
        <ele>215.909038</ele>
        <time>2025-04-26T08:19:10.000Z</time>
      </trkpt>
      <trkpt lat="30.458687" lon="-98.011483">
        <ele>216.938212</ele>
        <time>2025-04-26T08:19:13.000Z</time>
      </trkpt>
      <trkpt lat="30.458612" lon="-98.011681">
        <ele>217.639315</ele>
        <time>2025-04-26T08:19:15.000Z</time>
      </trkpt>
      <trkpt lat="30.458509" lon="-98.011796">
        <ele>218.194302</ele>
        <time>2025-04-26T08:19:17.000Z</time>
      </trkpt>
      <trkpt lat="30.458418" lon="-98.011925">
        <ele>218.705914</ele>
        <time>2025-04-26T08:19:19.000Z</time>
      </trkpt>
      <trkpt lat="30.4584" lon="-98.012096">
        <ele>219.272207</ele>
        <time>2025-04-26T08:19:21.000Z</time>
      </trkpt>
      <trkpt lat="30.458354" lon="-98.012229">
        <ele>219.765105</ele>
        <time>2025-04-26T08:19:22.000Z</time>
      </trkpt>
      <trkpt lat="30.458221" lon="-98.012419">
        <ele>220.571678</ele>
        <time>2025-04-26T08:19:24.000Z</time>
      </trkpt>
      <trkpt lat="30.458251" lon="-98.01255">
        <ele>220.997103</ele>
        <time>2025-04-26T08:19:25.000Z</time>
      </trkpt>
      <trkpt lat="30.458499" lon="-98.012553">
        <ele>221.939757</ele>
        <time>2025-04-26T08:19:28.000Z</time>
      </trkpt>
      <trkpt lat="30.458747" lon="-98.01252">
        <ele>222.513161</ele>
        <time>2025-04-26T08:19:31.000Z</time>
      </trkpt>
      <trkpt lat="30.458837" lon="-98.012618">
        <ele>222.725451</ele>
        <time>2025-04-26T08:19:32.000Z</time>
      </trkpt>
      <trkpt lat="30.458833" lon="-98.012738">
        <ele>222.945595</ele>
        <time>2025-04-26T08:19:33.000Z</time>
      </trkpt>
      <trkpt lat="30.458755" lon="-98.012927">
        <ele>223.283871</ele>
        <time>2025-04-26T08:19:35.000Z</time>
      </trkpt>
      <trkpt lat="30.458773" lon="-98.013171">
        <ele>223.650036</ele>
        <time>2025-04-26T08:19:37.000Z</time>
      </trkpt>
      <trkpt lat="30.45882" lon="-98.013232">
        <ele>223.787269</ele>
        <time>2025-04-26T08:19:38.000Z</time>
      </trkpt>
      <trkpt lat="30.458897" lon="-98.013251">
        <ele>223.954633</ele>
        <time>2025-04-26T08:19:39.000Z</time>
      </trkpt>
      <trkpt lat="30.458976" lon="-98.013304">
        <ele>224.113879</ele>
        <time>2025-04-26T08:19:40.000Z</time>
      </trkpt>
      <trkpt lat="30.458971" lon="-98.013319">
        <ele>224.128503</ele>
        <time>2025-04-26T08:19:40.000Z</time>
      </trkpt>
      <trkpt lat="30.458951" lon="-98.013416">
        <ele>224.281733</ele>
        <time>2025-04-26T08:19:41.000Z</time>
      </trkpt>
      <trkpt lat="30.458784" lon="-98.013556">
        <ele>224.673051</ele>
        <time>2025-04-26T08:19:43.000Z</time>
      </trkpt>
      <trkpt lat="30.458754" lon="-98.013626">
        <ele>224.805044</ele>
        <time>2025-04-26T08:19:44.000Z</time>
      </trkpt>
      <trkpt lat="30.45877" lon="-98.013744">
        <ele>224.985857</ele>
        <time>2025-04-26T08:19:45.000Z</time>
      </trkpt>
      <trkpt lat="30.458706" lon="-98.013901">
        <ele>225.283432</ele>
        <time>2025-04-26T08:19:47.000Z</time>
      </trkpt>
      <trkpt lat="30.459024" lon="-98.014217">
        <ele>225.436649</ele>
        <time>2025-04-26T08:19:52.000Z</time>
      </trkpt>
      <trkpt lat="30.459031" lon="-98.014347">
        <ele>225.404099</ele>
        <time>2025-04-26T08:19:53.000Z</time>
      </trkpt>
      <trkpt lat="30.459075" lon="-98.01442">
        <ele>225.382847</ele>
        <time>2025-04-26T08:19:54.000Z</time>
      </trkpt>
      <trkpt lat="30.459424" lon="-98.014153">
        <ele>225.258513</ele>
        <time>2025-04-26T08:19:59.000Z</time>
      </trkpt>
      <trkpt lat="30.459072" lon="-98.01441">
        <ele>225.134166</ele>
        <time>2025-04-26T08:20:04.000Z</time>
      </trkpt>
      <trkpt lat="30.458091" lon="-98.015063">
        <ele>224.405543</ele>
        <time>2025-04-26T08:20:17.000Z</time>
      </trkpt>
      <trkpt lat="30.458023" lon="-98.015073">
        <ele>224.331058</ele>
        <time>2025-04-26T08:20:18.000Z</time>
      </trkpt>
      <trkpt lat="30.457468" lon="-98.014864">
        <ele>223.803647</ele>
        <time>2025-04-26T08:20:24.000Z</time>
      </trkpt>
      <trkpt lat="30.457228" lon="-98.014854">
        <ele>223.585399</ele>
        <time>2025-04-26T08:20:27.000Z</time>
      </trkpt>
      <trkpt lat="30.457226" lon="-98.014855">
        <ele>223.585404</ele>
        <time>2025-04-26T08:20:27.000Z</time>
      </trkpt>
      <trkpt lat="30.456921" lon="-98.014771">
        <ele>223.349633</ele>
        <time>2025-04-26T08:20:30.000Z</time>
      </trkpt>
      <trkpt lat="30.456933" lon="-98.014713">
        <ele>223.352921</ele>
        <time>2025-04-26T08:20:31.000Z</time>
      </trkpt>
      <trkpt lat="30.456762" lon="-98.014715">
        <ele>223.364229</ele>
        <time>2025-04-26T08:20:33.000Z</time>
      </trkpt>
      <trkpt lat="30.456466" lon="-98.014855">
        <ele>223.38637</ele>
        <time>2025-04-26T08:20:37.000Z</time>
      </trkpt>
      <trkpt lat="30.456372" lon="-98.014968">
        <ele>223.396438</ele>
        <time>2025-04-26T08:20:39.000Z</time>
      </trkpt>
      <trkpt lat="30.456278" lon="-98.014974">
        <ele>223.402299</ele>
        <time>2025-04-26T08:20:40.000Z</time>
      </trkpt>
      <trkpt lat="30.456209" lon="-98.015013">
        <ele>223.40743</ele>
        <time>2025-04-26T08:20:41.000Z</time>
      </trkpt>
      <trkpt lat="30.45616" lon="-98.015217">
        <ele>223.419298</ele>
        <time>2025-04-26T08:20:43.000Z</time>
      </trkpt>
      <trkpt lat="30.456118" lon="-98.015274">
        <ele>223.424148</ele>
        <time>2025-04-26T08:20:44.000Z</time>
      </trkpt>
      <trkpt lat="30.456118" lon="-98.015597">
        <ele>223.443478</ele>
        <time>2025-04-26T08:20:47.000Z</time>
      </trkpt>
      <trkpt lat="30.456044" lon="-98.015752">
        <ele>223.453027</ele>
        <time>2025-04-26T08:20:49.000Z</time>
      </trkpt>
      <trkpt lat="30.456032" lon="-98.015992">
        <ele>223.46798</ele>
        <time>2025-04-26T08:20:51.000Z</time>
      </trkpt>
      <trkpt lat="30.455993" lon="-98.016056">
        <ele>223.45078</ele>
        <time>2025-04-26T08:20:52.000Z</time>
      </trkpt>
      <trkpt lat="30.455703" lon="-98.016177">
        <ele>223.34503</ele>
        <time>2025-04-26T08:20:55.000Z</time>
      </trkpt>
      <trkpt lat="30.455705" lon="-98.016193">
        <ele>223.343395</ele>
        <time>2025-04-26T08:20:55.000Z</time>
      </trkpt>
      <trkpt lat="30.455535" lon="-98.016317">
        <ele>223.279401</ele>
        <time>2025-04-26T08:20:57.000Z</time>
      </trkpt>
      <trkpt lat="30.455411" lon="-98.016642">
        <ele>223.173825</ele>
        <time>2025-04-26T08:21:00.000Z</time>
      </trkpt>
      <trkpt lat="30.455371" lon="-98.016781">
        <ele>223.126204</ele>
        <time>2025-04-26T08:21:01.000Z</time>
      </trkpt>
      <trkpt lat="30.455396" lon="-98.016851">
        <ele>223.105083</ele>
        <time>2025-04-26T08:21:02.000Z</time>
      </trkpt>
      <trkpt lat="30.455457" lon="-98.017303">
        <ele>222.969876</ele>
        <time>2025-04-26T08:21:06.000Z</time>
      </trkpt>
      <trkpt lat="30.455437" lon="-98.017359">
        <ele>222.952063</ele>
        <time>2025-04-26T08:21:07.000Z</time>
      </trkpt>
      <trkpt lat="30.455398" lon="-98.017403">
        <ele>222.934829</ele>
        <time>2025-04-26T08:21:08.000Z</time>
      </trkpt>
      <trkpt lat="30.455219" lon="-98.017478">
        <ele>222.870125</ele>
        <time>2025-04-26T08:21:10.000Z</time>
      </trkpt>
      <trkpt lat="30.455052" lon="-98.017663">
        <ele>223.059676</ele>
        <time>2025-04-26T08:21:13.000Z</time>
      </trkpt>
      <trkpt lat="30.454975" lon="-98.01797">
        <ele>223.369374</ele>
        <time>2025-04-26T08:21:16.000Z</time>
      </trkpt>
      <trkpt lat="30.455051" lon="-98.018324">
        <ele>223.697622</ele>
        <time>2025-04-26T08:21:19.000Z</time>
      </trkpt>
      <trkpt lat="30.455565" lon="-98.019817">
        <ele>226.063621</ele>
        <time>2025-04-26T08:21:34.000Z</time>
      </trkpt>
      <trkpt lat="30.45563" lon="-98.020149">
        <ele>227.051465</ele>
        <time>2025-04-26T08:21:37.000Z</time>
      </trkpt>
      <trkpt lat="30.455884" lon="-98.020689">
        <ele>228.824322</ele>
        <time>2025-04-26T08:21:43.000Z</time>
      </trkpt>
      <trkpt lat="30.455906" lon="-98.020962">
        <ele>229.588058</ele>
        <time>2025-04-26T08:21:46.000Z</time>
      </trkpt>
      <trkpt lat="30.455911" lon="-98.021369">
        <ele>230.803725</ele>
        <time>2025-04-26T08:21:50.000Z</time>
      </trkpt>
      <trkpt lat="30.455789" lon="-98.021547">
        <ele>231.375171</ele>
        <time>2025-04-26T08:21:52.000Z</time>
      </trkpt>
      <trkpt lat="30.455658" lon="-98.021632">
        <ele>231.908002</ele>
        <time>2025-04-26T08:21:54.000Z</time>
      </trkpt>
      <trkpt lat="30.455495" lon="-98.021653">
        <ele>232.380459</ele>
        <time>2025-04-26T08:21:56.000Z</time>
      </trkpt>
      <trkpt lat="30.45539" lon="-98.021624">
        <ele>232.73987</ele>
        <time>2025-04-26T08:21:57.000Z</time>
      </trkpt>
      <trkpt lat="30.45519" lon="-98.021481">
        <ele>233.475069</ele>
        <time>2025-04-26T08:22:00.000Z</time>
      </trkpt>
      <trkpt lat="30.455108" lon="-98.021457">
        <ele>233.740275</ele>
        <time>2025-04-26T08:22:01.000Z</time>
      </trkpt>
      <trkpt lat="30.454785" lon="-98.021319">
        <ele>234.883305</ele>
        <time>2025-04-26T08:22:05.000Z</time>
      </trkpt>
      <trkpt lat="30.454667" lon="-98.021222">
        <ele>235.2821</ele>
        <time>2025-04-26T08:22:07.000Z</time>
      </trkpt>
      <trkpt lat="30.45457" lon="-98.021237">
        <ele>235.603899</ele>
        <time>2025-04-26T08:22:08.000Z</time>
      </trkpt>
      <trkpt lat="30.454506" lon="-98.021289">
        <ele>235.88218</ele>
        <time>2025-04-26T08:22:09.000Z</time>
      </trkpt>
      <trkpt lat="30.454233" lon="-98.021197">
        <ele>236.51865</ele>
        <time>2025-04-26T08:22:12.000Z</time>
      </trkpt>
      <trkpt lat="30.454041" lon="-98.021154">
        <ele>236.427932</ele>
        <time>2025-04-26T08:22:14.000Z</time>
      </trkpt>
      <trkpt lat="30.453789" lon="-98.020994">
        <ele>236.27828</ele>
        <time>2025-04-26T08:22:17.000Z</time>
      </trkpt>
      <trkpt lat="30.453503" lon="-98.020952">
        <ele>236.141153</ele>
        <time>2025-04-26T08:22:20.000Z</time>
      </trkpt>
      <trkpt lat="30.453473" lon="-98.020874">
        <ele>236.108464</ele>
        <time>2025-04-26T08:22:21.000Z</time>
      </trkpt>
      <trkpt lat="30.453506" lon="-98.020715">
        <ele>236.04059</ele>
        <time>2025-04-26T08:22:23.000Z</time>
      </trkpt>
      <trkpt lat="30.453551" lon="-98.020616">
        <ele>235.991702</ele>
        <time>2025-04-26T08:22:24.000Z</time>
      </trkpt>
      <trkpt lat="30.453626" lon="-98.020639">
        <ele>235.953886</ele>
        <time>2025-04-26T08:22:25.000Z</time>
      </trkpt>
      <trkpt lat="30.453694" lon="-98.020724">
        <ele>235.907242</ele>
        <time>2025-04-26T08:22:26.000Z</time>
      </trkpt>
      <trkpt lat="30.453921" lon="-98.020836">
        <ele>235.78543</ele>
        <time>2025-04-26T08:22:29.000Z</time>
      </trkpt>
      <trkpt lat="30.45434" lon="-98.021004">
        <ele>235.348958</ele>
        <time>2025-04-26T08:22:34.000Z</time>
      </trkpt>
      <trkpt lat="30.454574" lon="-98.021025">
        <ele>234.974002</ele>
        <time>2025-04-26T08:22:37.000Z</time>
      </trkpt>
      <trkpt lat="30.454691" lon="-98.021083">
        <ele>234.780573</ele>
        <time>2025-04-26T08:22:38.000Z</time>
      </trkpt>
      <trkpt lat="30.454818" lon="-98.021104">
        <ele>234.570882</ele>
        <time>2025-04-26T08:22:39.000Z</time>
      </trkpt>
      <trkpt lat="30.454915" lon="-98.021069">
        <ele>234.399173</ele>
        <time>2025-04-26T08:22:40.000Z</time>
      </trkpt>
      <trkpt lat="30.454935" lon="-98.02098">
        <ele>234.280372</ele>
        <time>2025-04-26T08:22:41.000Z</time>
      </trkpt>
      <trkpt lat="30.454868" lon="-98.020933">
        <ele>234.163285</ele>
        <time>2025-04-26T08:22:42.000Z</time>
      </trkpt>
      <trkpt lat="30.454855" lon="-98.020937">
        <ele>234.156929</ele>
        <time>2025-04-26T08:22:42.000Z</time>
      </trkpt>
      <trkpt lat="30.454754" lon="-98.020907">
        <ele>233.98494</ele>
        <time>2025-04-26T08:22:43.000Z</time>
      </trkpt>
      <trkpt lat="30.454677" lon="-98.020841">
        <ele>233.824259</ele>
        <time>2025-04-26T08:22:44.000Z</time>
      </trkpt>
      <trkpt lat="30.454568" lon="-98.020649">
        <ele>233.508728</ele>
        <time>2025-04-26T08:22:46.000Z</time>
      </trkpt>
      <trkpt lat="30.454503" lon="-98.020591">
        <ele>233.392776</ele>
        <time>2025-04-26T08:22:47.000Z</time>
      </trkpt>
      <trkpt lat="30.454572" lon="-98.020647">
        <ele>233.276834</ele>
        <time>2025-04-26T08:22:48.000Z</time>
      </trkpt>
      <trkpt lat="30.454666" lon="-98.020844">
        <ele>232.961311</ele>
        <time>2025-04-26T08:22:50.000Z</time>
      </trkpt>
      <trkpt lat="30.454753" lon="-98.020901">
        <ele>232.79777</ele>
        <time>2025-04-26T08:22:51.000Z</time>
      </trkpt>
      <trkpt lat="30.454853" lon="-98.020922">
        <ele>232.563487</ele>
        <time>2025-04-26T08:22:52.000Z</time>
      </trkpt>
      <trkpt lat="30.454872" lon="-98.020927">
        <ele>232.554822</ele>
        <time>2025-04-26T08:22:52.000Z</time>
      </trkpt>
      <trkpt lat="30.454923" lon="-98.020978">
        <ele>232.395354</ele>
        <time>2025-04-26T08:22:53.000Z</time>
      </trkpt>
      <trkpt lat="30.455106" lon="-98.020861">
        <ele>231.951847</ele>
        <time>2025-04-26T08:22:55.000Z</time>
      </trkpt>
      <trkpt lat="30.455335" lon="-98.021181">
        <ele>231.187325</ele>
        <time>2025-04-26T08:22:59.000Z</time>
      </trkpt>
      <trkpt lat="30.455509" lon="-98.021372">
        <ele>230.675815</ele>
        <time>2025-04-26T08:23:02.000Z</time>
      </trkpt>
      <trkpt lat="30.455562" lon="-98.021212">
        <ele>230.340663</ele>
        <time>2025-04-26T08:23:04.000Z</time>
      </trkpt>
      <trkpt lat="30.455416" lon="-98.021109">
        <ele>229.937664</ele>
        <time>2025-04-26T08:23:06.000Z</time>
      </trkpt>
      <trkpt lat="30.455338" lon="-98.020866">
        <ele>229.439558</ele>
        <time>2025-04-26T08:23:08.000Z</time>
      </trkpt>
      <trkpt lat="30.455265" lon="-98.020756">
        <ele>229.196428</ele>
        <time>2025-04-26T08:23:09.000Z</time>
      </trkpt>
      <trkpt lat="30.455169" lon="-98.020601">
        <ele>228.910727</ele>
        <time>2025-04-26T08:23:11.000Z</time>
      </trkpt>
      <trkpt lat="30.455336" lon="-98.02028">
        <ele>228.904949</ele>
        <time>2025-04-26T08:23:15.000Z</time>
      </trkpt>
      <trkpt lat="30.455321" lon="-98.020166">
        <ele>228.903253</ele>
        <time>2025-04-26T08:23:16.000Z</time>
      </trkpt>
      <trkpt lat="30.455209" lon="-98.020139">
        <ele>228.901252</ele>
        <time>2025-04-26T08:23:17.000Z</time>
      </trkpt>
      <trkpt lat="30.455117" lon="-98.020154">
        <ele>228.899635</ele>
        <time>2025-04-26T08:23:18.000Z</time>
      </trkpt>
      <trkpt lat="30.455029" lon="-98.020079">
        <ele>228.897384</ele>
        <time>2025-04-26T08:23:19.000Z</time>
      </trkpt>
      <trkpt lat="30.454923" lon="-98.019945">
        <ele>228.894852</ele>
        <time>2025-04-26T08:23:21.000Z</time>
      </trkpt>
      <trkpt lat="30.454852" lon="-98.019909">
        <ele>228.893293</ele>
        <time>2025-04-26T08:23:22.000Z</time>
      </trkpt>
      <trkpt lat="30.454761" lon="-98.019956">
        <ele>228.891612</ele>
        <time>2025-04-26T08:23:23.000Z</time>
      </trkpt>
      <trkpt lat="30.454791" lon="-98.020067">
        <ele>228.889851</ele>
        <time>2025-04-26T08:23:24.000Z</time>
      </trkpt>
      <trkpt lat="30.454709" lon="-98.020163">
        <ele>228.887618</ele>
        <time>2025-04-26T08:23:25.000Z</time>
      </trkpt>
      <trkpt lat="30.454609" lon="-98.020135">
        <ele>228.885986</ele>
        <time>2025-04-26T08:23:26.000Z</time>
      </trkpt>
      <trkpt lat="30.454543" lon="-98.020035">
        <ele>228.883999</ele>
        <time>2025-04-26T08:23:27.000Z</time>
      </trkpt>
      <trkpt lat="30.454559" lon="-98.019923">
        <ele>228.882313</ele>
        <time>2025-04-26T08:23:28.000Z</time>
      </trkpt>
      <trkpt lat="30.454445" lon="-98.019859">
        <ele>228.880259</ele>
        <time>2025-04-26T08:23:29.000Z</time>
      </trkpt>
      <trkpt lat="30.454409" lon="-98.019968">
        <ele>228.969457</ele>
        <time>2025-04-26T08:23:30.000Z</time>
      </trkpt>
      <trkpt lat="30.454334" lon="-98.020053">
        <ele>229.132209</ele>
        <time>2025-04-26T08:23:31.000Z</time>
      </trkpt>
      <trkpt lat="30.454302" lon="-98.020164">
        <ele>229.280225</ele>
        <time>2025-04-26T08:23:32.000Z</time>
      </trkpt>
      <trkpt lat="30.454112" lon="-98.020235">
        <ele>229.575925</ele>
        <time>2025-04-26T08:23:34.000Z</time>
      </trkpt>
      <trkpt lat="30.454146" lon="-98.020218">
        <ele>229.604032</ele>
        <time>2025-04-26T08:23:34.000Z</time>
      </trkpt>
      <trkpt lat="30.454119" lon="-98.020185">
        <ele>229.66142</ele>
        <time>2025-04-26T08:23:34.000Z</time>
      </trkpt>
      <trkpt lat="30.45412" lon="-98.020004">
        <ele>229.899153</ele>
        <time>2025-04-26T08:23:36.000Z</time>
      </trkpt>
      <trkpt lat="30.454072" lon="-98.0198">
        <ele>230.17351</ele>
        <time>2025-04-26T08:23:38.000Z</time>
      </trkpt>
      <trkpt lat="30.453999" lon="-98.019773">
        <ele>230.306053</ele>
        <time>2025-04-26T08:23:39.000Z</time>
      </trkpt>
      <trkpt lat="30.453814" lon="-98.01975">
        <ele>230.59612</ele>
        <time>2025-04-26T08:23:41.000Z</time>
      </trkpt>
      <trkpt lat="30.453615" lon="-98.019476">
        <ele>231.094537</ele>
        <time>2025-04-26T08:23:44.000Z</time>
      </trkpt>
      <trkpt lat="30.453602" lon="-98.019466">
        <ele>231.111842</ele>
        <time>2025-04-26T08:23:44.000Z</time>
      </trkpt>
      <trkpt lat="30.453377" lon="-98.019494">
        <ele>231.485177</ele>
        <time>2025-04-26T08:23:47.000Z</time>
      </trkpt>
      <trkpt lat="30.453258" lon="-98.01945">
        <ele>231.659521</ele>
        <time>2025-04-26T08:23:48.000Z</time>
      </trkpt>
      <trkpt lat="30.453158" lon="-98.019467">
        <ele>231.670211</ele>
        <time>2025-04-26T08:23:49.000Z</time>
      </trkpt>
      <trkpt lat="30.45312" lon="-98.019517">
        <ele>231.664383</ele>
        <time>2025-04-26T08:23:50.000Z</time>
      </trkpt>
      <trkpt lat="30.453148" lon="-98.019572">
        <ele>231.659293</ele>
        <time>2025-04-26T08:23:51.000Z</time>
      </trkpt>
      <trkpt lat="30.45331" lon="-98.019745">
        <ele>231.633074</ele>
        <time>2025-04-26T08:23:53.000Z</time>
      </trkpt>
      <trkpt lat="30.453316" lon="-98.019937">
        <ele>231.614535</ele>
        <time>2025-04-26T08:23:55.000Z</time>
      </trkpt>
      <trkpt lat="30.453467" lon="-98.020074">
        <ele>231.593758</ele>
        <time>2025-04-26T08:23:57.000Z</time>
      </trkpt>
      <trkpt lat="30.453493" lon="-98.020141">
        <ele>231.586541</ele>
        <time>2025-04-26T08:23:58.000Z</time>
      </trkpt>
      <trkpt lat="30.453453" lon="-98.020182">
        <ele>231.581155</ele>
        <time>2025-04-26T08:23:59.000Z</time>
      </trkpt>
      <trkpt lat="30.453373" lon="-98.020195">
        <ele>231.570008</ele>
        <time>2025-04-26T08:24:00.000Z</time>
      </trkpt>
      <trkpt lat="30.453252" lon="-98.020068">
        <ele>231.552207</ele>
        <time>2025-04-26T08:24:02.000Z</time>
      </trkpt>
      <trkpt lat="30.453166" lon="-98.019982">
        <ele>231.539115</ele>
        <time>2025-04-26T08:24:03.000Z</time>
      </trkpt>
      <trkpt lat="30.452784" lon="-98.01992">
        <ele>231.496041</ele>
        <time>2025-04-26T08:24:07.000Z</time>
      </trkpt>
      <trkpt lat="30.452627" lon="-98.019835">
        <ele>231.461206</ele>
        <time>2025-04-26T08:24:09.000Z</time>
      </trkpt>
      <trkpt lat="30.452626" lon="-98.019735">
        <ele>231.239931</ele>
        <time>2025-04-26T08:24:10.000Z</time>
      </trkpt>
      <trkpt lat="30.452692" lon="-98.019589">
        <ele>230.883728</ele>
        <time>2025-04-26T08:24:12.000Z</time>
      </trkpt>
      <trkpt lat="30.452655" lon="-98.019423">
        <ele>230.499609</ele>
        <time>2025-04-26T08:24:14.000Z</time>
      </trkpt>
      <trkpt lat="30.452761" lon="-98.019275">
        <ele>230.058725</ele>
        <time>2025-04-26T08:24:16.000Z</time>
      </trkpt>
      <trkpt lat="30.452984" lon="-98.019166">
        <ele>229.441707</ele>
        <time>2025-04-26T08:24:19.000Z</time>
      </trkpt>
      <trkpt lat="30.453087" lon="-98.019053">
        <ele>229.012652</ele>
        <time>2025-04-26T08:24:21.000Z</time>
      </trkpt>
      <trkpt lat="30.453497" lon="-98.019312">
        <ele>227.803981</ele>
        <time>2025-04-26T08:24:26.000Z</time>
      </trkpt>
      <trkpt lat="30.453573" lon="-98.019351">
        <ele>227.557988</ele>
        <time>2025-04-26T08:24:27.000Z</time>
      </trkpt>
      <trkpt lat="30.453804" lon="-98.019366">
        <ele>226.952758</ele>
        <time>2025-04-26T08:24:30.000Z</time>
      </trkpt>
      <trkpt lat="30.453984" lon="-98.019453">
        <ele>226.492647</ele>
        <time>2025-04-26T08:24:32.000Z</time>
      </trkpt>
      <trkpt lat="30.454071" lon="-98.019424">
        <ele>226.298273</ele>
        <time>2025-04-26T08:24:33.000Z</time>
      </trkpt>
      <trkpt lat="30.454073" lon="-98.019412">
        <ele>226.283287</ele>
        <time>2025-04-26T08:24:33.000Z</time>
      </trkpt>
      <trkpt lat="30.454223" lon="-98.019494">
        <ele>225.905413</ele>
        <time>2025-04-26T08:24:35.000Z</time>
      </trkpt>
      <trkpt lat="30.454289" lon="-98.019409">
        <ele>225.687489</ele>
        <time>2025-04-26T08:24:36.000Z</time>
      </trkpt>
      <trkpt lat="30.454376" lon="-98.019326">
        <ele>225.464831</ele>
        <time>2025-04-26T08:24:37.000Z</time>
      </trkpt>
      <trkpt lat="30.454481" lon="-98.019362">
        <ele>225.208689</ele>
        <time>2025-04-26T08:24:38.000Z</time>
      </trkpt>
      <trkpt lat="30.454589" lon="-98.019367">
        <ele>224.986484</ele>
        <time>2025-04-26T08:24:39.000Z</time>
      </trkpt>
      <trkpt lat="30.454661" lon="-98.019322">
        <ele>224.784559</ele>
        <time>2025-04-26T08:24:40.000Z</time>
      </trkpt>
      <trkpt lat="30.454774" lon="-98.019288">
        <ele>224.528422</ele>
        <time>2025-04-26T08:24:41.000Z</time>
      </trkpt>
      <trkpt lat="30.454813" lon="-98.019177">
        <ele>224.30699</ele>
        <time>2025-04-26T08:24:42.000Z</time>
      </trkpt>
      <trkpt lat="30.454837" lon="-98.019037">
        <ele>224.035181</ele>
        <time>2025-04-26T08:24:43.000Z</time>
      </trkpt>
      <trkpt lat="30.454825" lon="-98.018936">
        <ele>223.823302</ele>
        <time>2025-04-26T08:24:44.000Z</time>
      </trkpt>
      <trkpt lat="30.454795" lon="-98.018804">
        <ele>223.576876</ele>
        <time>2025-04-26T08:24:45.000Z</time>
      </trkpt>
      <trkpt lat="30.454806" lon="-98.018689">
        <ele>223.326878</ele>
        <time>2025-04-26T08:24:46.000Z</time>
      </trkpt>
      <trkpt lat="30.454805" lon="-98.018548">
        <ele>223.077881</ele>
        <time>2025-04-26T08:24:47.000Z</time>
      </trkpt>
      <trkpt lat="30.454721" lon="-98.018615">
        <ele>222.85521</ele>
        <time>2025-04-26T08:24:48.000Z</time>
      </trkpt>
      <trkpt lat="30.454667" lon="-98.018767">
        <ele>222.795671</ele>
        <time>2025-04-26T08:24:50.000Z</time>
      </trkpt>
      <trkpt lat="30.454391" lon="-98.018831">
        <ele>223.061676</ele>
        <time>2025-04-26T08:24:53.000Z</time>
      </trkpt>
      <trkpt lat="30.454274" lon="-98.018873">
        <ele>223.185053</ele>
        <time>2025-04-26T08:24:54.000Z</time>
      </trkpt>
      <trkpt lat="30.454085" lon="-98.018911">
        <ele>223.3802</ele>
        <time>2025-04-26T08:24:56.000Z</time>
      </trkpt>
      <trkpt lat="30.453975" lon="-98.019162">
        <ele>223.621795</ele>
        <time>2025-04-26T08:24:59.000Z</time>
      </trkpt>
      <trkpt lat="30.453975" lon="-98.019165">
        <ele>223.631402</ele>
        <time>2025-04-26T08:24:59.000Z</time>
      </trkpt>
      <trkpt lat="30.453794" lon="-98.019088">
        <ele>223.819149</ele>
        <time>2025-04-26T08:25:01.000Z</time>
      </trkpt>
      <trkpt lat="30.45357" lon="-98.0191">
        <ele>224.036982</ele>
        <time>2025-04-26T08:25:03.000Z</time>
      </trkpt>
      <trkpt lat="30.453451" lon="-98.01908">
        <ele>224.146243</ele>
        <time>2025-04-26T08:25:04.000Z</time>
      </trkpt>
      <trkpt lat="30.453135" lon="-98.018734">
        <ele>224.325448</ele>
        <time>2025-04-26T08:25:09.000Z</time>
      </trkpt>
      <trkpt lat="30.452999" lon="-98.018656">
        <ele>224.145519</ele>
        <time>2025-04-26T08:25:11.000Z</time>
      </trkpt>
      <trkpt lat="30.452557" lon="-98.018317">
        <ele>223.541938</ele>
        <time>2025-04-26T08:25:17.000Z</time>
      </trkpt>
      <trkpt lat="30.452181" lon="-98.01809">
        <ele>223.052308</ele>
        <time>2025-04-26T08:25:22.000Z</time>
      </trkpt>
      <trkpt lat="30.451992" lon="-98.018031">
        <ele>222.829544</ele>
        <time>2025-04-26T08:25:24.000Z</time>
      </trkpt>
      <trkpt lat="30.45191" lon="-98.018057">
        <ele>222.740276</ele>
        <time>2025-04-26T08:25:25.000Z</time>
      </trkpt>
      <trkpt lat="30.451871" lon="-98.01811">
        <ele>222.664122</ele>
        <time>2025-04-26T08:25:26.000Z</time>
      </trkpt>
      <trkpt lat="30.45187" lon="-98.018212">
        <ele>222.560081</ele>
        <time>2025-04-26T08:25:27.000Z</time>
      </trkpt>
      <trkpt lat="30.451831" lon="-98.018309">
        <ele>222.447203</ele>
        <time>2025-04-26T08:25:28.000Z</time>
      </trkpt>
      <trkpt lat="30.451473" lon="-98.018637">
        <ele>222.578806</ele>
        <time>2025-04-26T08:25:33.000Z</time>
      </trkpt>
      <trkpt lat="30.451426" lon="-98.018759">
        <ele>222.642901</ele>
        <time>2025-04-26T08:25:34.000Z</time>
      </trkpt>
      <trkpt lat="30.45129" lon="-98.018887">
        <ele>222.727532</ele>
        <time>2025-04-26T08:25:36.000Z</time>
      </trkpt>
      <trkpt lat="30.451444" lon="-98.019042">
        <ele>222.833652</ele>
        <time>2025-04-26T08:25:38.000Z</time>
      </trkpt>
      <trkpt lat="30.451535" lon="-98.019035">
        <ele>222.877391</ele>
        <time>2025-04-26T08:25:39.000Z</time>
      </trkpt>
      <trkpt lat="30.45156" lon="-98.019178">
        <ele>222.938802</ele>
        <time>2025-04-26T08:25:40.000Z</time>
      </trkpt>
      <trkpt lat="30.451668" lon="-98.019255">
        <ele>222.998759</ele>
        <time>2025-04-26T08:25:41.000Z</time>
      </trkpt>
      <trkpt lat="30.451729" lon="-98.019239">
        <ele>223.032755</ele>
        <time>2025-04-26T08:25:42.000Z</time>
      </trkpt>
      <trkpt lat="30.451753" lon="-98.01922">
        <ele>223.047201</ele>
        <time>2025-04-26T08:25:42.000Z</time>
      </trkpt>
      <trkpt lat="30.45175" lon="-98.018899">
        <ele>223.183202</ele>
        <time>2025-04-26T08:25:45.000Z</time>
      </trkpt>
      <trkpt lat="30.451827" lon="-98.018509">
        <ele>223.481723</ele>
        <time>2025-04-26T08:25:49.000Z</time>
      </trkpt>
      <trkpt lat="30.451852" lon="-98.018451">
        <ele>223.570206</ele>
        <time>2025-04-26T08:25:50.000Z</time>
      </trkpt>
      <trkpt lat="30.451862" lon="-98.018365">
        <ele>223.687071</ele>
        <time>2025-04-26T08:25:51.000Z</time>
      </trkpt>
      <trkpt lat="30.451913" lon="-98.018286">
        <ele>223.794212</ele>
        <time>2025-04-26T08:25:52.000Z</time>
      </trkpt>
      <trkpt lat="30.452026" lon="-98.018264">
        <ele>223.963757</ele>
        <time>2025-04-26T08:25:53.000Z</time>
      </trkpt>
      <trkpt lat="30.452065" lon="-98.018264">
        <ele>224.025156</ele>
        <time>2025-04-26T08:25:53.000Z</time>
      </trkpt>
      <trkpt lat="30.45209" lon="-98.018326">
        <ele>224.109355</ele>
        <time>2025-04-26T08:25:54.000Z</time>
      </trkpt>
      <trkpt lat="30.45199" lon="-98.018533">
        <ele>224.40358</ele>
        <time>2025-04-26T08:25:56.000Z</time>
      </trkpt>
      <trkpt lat="30.451937" lon="-98.018763">
        <ele>224.705256</ele>
        <time>2025-04-26T08:25:58.000Z</time>
      </trkpt>
      <trkpt lat="30.45195" lon="-98.018799">
        <ele>224.751285</ele>
        <time>2025-04-26T08:25:58.000Z</time>
      </trkpt>
      <trkpt lat="30.452112" lon="-98.01902">
        <ele>225.10141</ele>
        <time>2025-04-26T08:26:01.000Z</time>
      </trkpt>
      <trkpt lat="30.45205" lon="-98.019145">
        <ele>225.265263</ele>
        <time>2025-04-26T08:26:02.000Z</time>
      </trkpt>
      <trkpt lat="30.452044" lon="-98.019271">
        <ele>225.428422</ele>
        <time>2025-04-26T08:26:03.000Z</time>
      </trkpt>
      <trkpt lat="30.452235" lon="-98.019626">
        <ele>225.866061</ele>
        <time>2025-04-26T08:26:07.000Z</time>
      </trkpt>
      <trkpt lat="30.452187" lon="-98.019821">
        <ele>225.908808</ele>
        <time>2025-04-26T08:26:09.000Z</time>
      </trkpt>
      <trkpt lat="30.452197" lon="-98.019928">
        <ele>225.926967</ele>
        <time>2025-04-26T08:26:10.000Z</time>
      </trkpt>
      <trkpt lat="30.452159" lon="-98.019962">
        <ele>225.938302</ele>
        <time>2025-04-26T08:26:11.000Z</time>
      </trkpt>
      <trkpt lat="30.451994" lon="-98.019998">
        <ele>225.974527</ele>
        <time>2025-04-26T08:26:13.000Z</time>
      </trkpt>
      <trkpt lat="30.45193" lon="-98.01979">
        <ele>226.014743</ele>
        <time>2025-04-26T08:26:15.000Z</time>
      </trkpt>
      <trkpt lat="30.451896" lon="-98.019696">
        <ele>226.037018</ele>
        <time>2025-04-26T08:26:16.000Z</time>
      </trkpt>
      <trkpt lat="30.451801" lon="-98.019684">
        <ele>226.056557</ele>
        <time>2025-04-26T08:26:17.000Z</time>
      </trkpt>
      <trkpt lat="30.451696" lon="-98.01963">
        <ele>226.083886</ele>
        <time>2025-04-26T08:26:18.000Z</time>
      </trkpt>
      <trkpt lat="30.451464" lon="-98.019625">
        <ele>226.135642</ele>
        <time>2025-04-26T08:26:21.000Z</time>
      </trkpt>
      <trkpt lat="30.451416" lon="-98.019768">
        <ele>226.164735</ele>
        <time>2025-04-26T08:26:22.000Z</time>
      </trkpt>
      <trkpt lat="30.451422" lon="-98.019803">
        <ele>226.174591</ele>
        <time>2025-04-26T08:26:22.000Z</time>
      </trkpt>
      <trkpt lat="30.451467" lon="-98.019839">
        <ele>226.187117</ele>
        <time>2025-04-26T08:26:23.000Z</time>
      </trkpt>
      <trkpt lat="30.451721" lon="-98.019922">
        <ele>226.245214</ele>
        <time>2025-04-26T08:26:26.000Z</time>
      </trkpt>
      <trkpt lat="30.451745" lon="-98.019979">
        <ele>226.288761</ele>
        <time>2025-04-26T08:26:27.000Z</time>
      </trkpt>
      <trkpt lat="30.451814" lon="-98.020285">
        <ele>227.098895</ele>
        <time>2025-04-26T08:26:30.000Z</time>
      </trkpt>
      <trkpt lat="30.451823" lon="-98.020326">
        <ele>227.238286</ele>
        <time>2025-04-26T08:26:30.000Z</time>
      </trkpt>
      <trkpt lat="30.451895" lon="-98.020285">
        <ele>227.450766</ele>
        <time>2025-04-26T08:26:31.000Z</time>
      </trkpt>
      <trkpt lat="30.45191" lon="-98.020231">
        <ele>227.607559</ele>
        <time>2025-04-26T08:26:32.000Z</time>
      </trkpt>
      <trkpt lat="30.451954" lon="-98.020222">
        <ele>227.733383</ele>
        <time>2025-04-26T08:26:32.000Z</time>
      </trkpt>
      <trkpt lat="30.451975" lon="-98.020264">
        <ele>227.883887</ele>
        <time>2025-04-26T08:26:32.000Z</time>
      </trkpt>
      <trkpt lat="30.452025" lon="-98.02041">
        <ele>228.269653</ele>
        <time>2025-04-26T08:26:34.000Z</time>
      </trkpt>
      <trkpt lat="30.451997" lon="-98.020453">
        <ele>228.390732</ele>
        <time>2025-04-26T08:26:35.000Z</time>
      </trkpt>
      <trkpt lat="30.452028" lon="-98.020579">
        <ele>228.732109</ele>
        <time>2025-04-26T08:26:36.000Z</time>
      </trkpt>
      <trkpt lat="30.452025" lon="-98.020836">
        <ele>229.433169</ele>
        <time>2025-04-26T08:26:38.000Z</time>
      </trkpt>
      <trkpt lat="30.45212" lon="-98.021208">
        <ele>230.481</ele>
        <time>2025-04-26T08:26:42.000Z</time>
      </trkpt>
      <trkpt lat="30.452193" lon="-98.021373">
        <ele>230.93601</ele>
        <time>2025-04-26T08:26:44.000Z</time>
      </trkpt>
      <trkpt lat="30.452171" lon="-98.02154">
        <ele>231.425091</ele>
        <time>2025-04-26T08:26:46.000Z</time>
      </trkpt>
      <trkpt lat="30.45221" lon="-98.0217">
        <ele>231.860101</ele>
        <time>2025-04-26T08:26:48.000Z</time>
      </trkpt>
      <trkpt lat="30.45221" lon="-98.021894">
        <ele>232.349094</ele>
        <time>2025-04-26T08:26:50.000Z</time>
      </trkpt>
      <trkpt lat="30.452105" lon="-98.022139">
        <ele>233.098787</ele>
        <time>2025-04-26T08:26:53.000Z</time>
      </trkpt>
      <trkpt lat="30.45211" lon="-98.022184">
        <ele>233.184189</ele>
        <time>2025-04-26T08:26:53.000Z</time>
      </trkpt>
      <trkpt lat="30.452273" lon="-98.022266">
        <ele>233.78333</ele>
        <time>2025-04-26T08:26:55.000Z</time>
      </trkpt>
      <trkpt lat="30.452295" lon="-98.022295">
        <ele>233.885939</ele>
        <time>2025-04-26T08:26:55.000Z</time>
      </trkpt>
      <trkpt lat="30.452265" lon="-98.02235">
        <ele>234.036525</ele>
        <time>2025-04-26T08:26:56.000Z</time>
      </trkpt>
      <trkpt lat="30.452137" lon="-98.022424">
        <ele>234.462181</ele>
        <time>2025-04-26T08:26:58.000Z</time>
      </trkpt>
      <trkpt lat="30.452115" lon="-98.02258">
        <ele>234.880985</ele>
        <time>2025-04-26T08:27:00.000Z</time>
      </trkpt>
      <trkpt lat="30.452133" lon="-98.022741">
        <ele>235.322053</ele>
        <time>2025-04-26T08:27:02.000Z</time>
      </trkpt>
      <trkpt lat="30.452165" lon="-98.022842">
        <ele>235.584752</ele>
        <time>2025-04-26T08:27:03.000Z</time>
      </trkpt>
      <trkpt lat="30.452169" lon="-98.022956">
        <ele>235.904505</ele>
        <time>2025-04-26T08:27:04.000Z</time>
      </trkpt>
      <trkpt lat="30.452072" lon="-98.023175">
        <ele>236.569261</ele>
        <time>2025-04-26T08:27:06.000Z</time>
      </trkpt>
      <trkpt lat="30.452057" lon="-98.023211">
        <ele>236.675916</ele>
        <time>2025-04-26T08:27:06.000Z</time>
      </trkpt>
      <trkpt lat="30.451922" lon="-98.023212">
        <ele>237.049699</ele>
        <time>2025-04-26T08:27:08.000Z</time>
      </trkpt>
      <trkpt lat="30.451778" lon="-98.023079">
        <ele>237.15201</ele>
        <time>2025-04-26T08:27:10.000Z</time>
      </trkpt>
      <trkpt lat="30.451702" lon="-98.022903">
        <ele>236.945793</ele>
        <time>2025-04-26T08:27:12.000Z</time>
      </trkpt>
      <trkpt lat="30.451759" lon="-98.022695">
        <ele>236.731398</ele>
        <time>2025-04-26T08:27:14.000Z</time>
      </trkpt>
      <trkpt lat="30.451667" lon="-98.022542">
        <ele>236.556738</ele>
        <time>2025-04-26T08:27:16.000Z</time>
      </trkpt>
      <trkpt lat="30.451573" lon="-98.022463">
        <ele>236.408445</ele>
        <time>2025-04-26T08:27:17.000Z</time>
      </trkpt>
      <trkpt lat="30.451329" lon="-98.022359">
        <ele>236.107774</ele>
        <time>2025-04-26T08:27:20.000Z</time>
      </trkpt>
      <trkpt lat="30.451099" lon="-98.022338">
        <ele>235.824705</ele>
        <time>2025-04-26T08:27:23.000Z</time>
      </trkpt>
      <trkpt lat="30.451035" lon="-98.02225">
        <ele>235.72161</ele>
        <time>2025-04-26T08:27:24.000Z</time>
      </trkpt>
      <trkpt lat="30.450985" lon="-98.022087">
        <ele>235.543714</ele>
        <time>2025-04-26T08:27:26.000Z</time>
      </trkpt>
      <trkpt lat="30.45101" lon="-98.02196">
        <ele>235.416707</ele>
        <time>2025-04-26T08:27:27.000Z</time>
      </trkpt>
      <trkpt lat="30.451262" lon="-98.021946">
        <ele>235.045429</ele>
        <time>2025-04-26T08:27:30.000Z</time>
      </trkpt>
      <trkpt lat="30.451403" lon="-98.021902">
        <ele>234.656032</ele>
        <time>2025-04-26T08:27:32.000Z</time>
      </trkpt>
      <trkpt lat="30.451417" lon="-98.021888">
        <ele>234.619717</ele>
        <time>2025-04-26T08:27:32.000Z</time>
      </trkpt>
      <trkpt lat="30.451415" lon="-98.02185">
        <ele>234.536941</ele>
        <time>2025-04-26T08:27:32.000Z</time>
      </trkpt>
      <trkpt lat="30.451265" lon="-98.021751">
        <ele>234.024781</ele>
        <time>2025-04-26T08:27:34.000Z</time>
      </trkpt>
      <trkpt lat="30.451232" lon="-98.021705">
        <ele>233.880109</ele>
        <time>2025-04-26T08:27:35.000Z</time>
      </trkpt>
      <trkpt lat="30.451243" lon="-98.021601">
        <ele>233.600319</ele>
        <time>2025-04-26T08:27:36.000Z</time>
      </trkpt>
      <trkpt lat="30.451446" lon="-98.021646">
        <ele>232.997096</ele>
        <time>2025-04-26T08:27:38.000Z</time>
      </trkpt>
      <trkpt lat="30.451625" lon="-98.021744">
        <ele>232.420692</ele>
        <time>2025-04-26T08:27:40.000Z</time>
      </trkpt>
      <trkpt lat="30.451741" lon="-98.021855">
        <ele>231.952072</ele>
        <time>2025-04-26T08:27:42.000Z</time>
      </trkpt>
      <trkpt lat="30.451785" lon="-98.021841">
        <ele>231.849848</ele>
        <time>2025-04-26T08:27:43.000Z</time>
      </trkpt>
      <trkpt lat="30.451825" lon="-98.021763">
        <ele>231.618982</ele>
        <time>2025-04-26T08:27:44.000Z</time>
      </trkpt>
      <trkpt lat="30.451814" lon="-98.021675">
        <ele>231.393484</ele>
        <time>2025-04-26T08:27:45.000Z</time>
      </trkpt>
      <trkpt lat="30.451764" lon="-98.021532">
        <ele>230.992567</ele>
        <time>2025-04-26T08:27:46.000Z</time>
      </trkpt>
      <trkpt lat="30.451726" lon="-98.021487">
        <ele>230.80259</ele>
        <time>2025-04-26T08:27:47.000Z</time>
      </trkpt>
      <trkpt lat="30.451659" lon="-98.021454">
        <ele>230.59179</ele>
        <time>2025-04-26T08:27:48.000Z</time>
      </trkpt>
      <trkpt lat="30.451601" lon="-98.021364">
        <ele>230.332986</ele>
        <time>2025-04-26T08:27:49.000Z</time>
      </trkpt>
      <trkpt lat="30.451593" lon="-98.021354">
        <ele>230.317716</ele>
        <time>2025-04-26T08:27:49.000Z</time>
      </trkpt>
      <trkpt lat="30.451574" lon="-98.021177">
        <ele>229.919797</ele>
        <time>2025-04-26T08:27:51.000Z</time>
      </trkpt>
      <trkpt lat="30.451639" lon="-98.02101">
        <ele>229.806708</ele>
        <time>2025-04-26T08:27:53.000Z</time>
      </trkpt>
      <trkpt lat="30.451793" lon="-98.020811">
        <ele>229.63106</ele>
        <time>2025-04-26T08:27:56.000Z</time>
      </trkpt>
      <trkpt lat="30.451797" lon="-98.02077">
        <ele>229.605347</ele>
        <time>2025-04-26T08:27:56.000Z</time>
      </trkpt>
      <trkpt lat="30.451737" lon="-98.020703">
        <ele>229.544115</ele>
        <time>2025-04-26T08:27:57.000Z</time>
      </trkpt>
      <trkpt lat="30.451597" lon="-98.020638">
        <ele>229.439067</ele>
        <time>2025-04-26T08:27:59.000Z</time>
      </trkpt>
      <trkpt lat="30.451492" lon="-98.020654">
        <ele>229.350531</ele>
        <time>2025-04-26T08:28:00.000Z</time>
      </trkpt>
      <trkpt lat="30.45146" lon="-98.020739">
        <ele>229.288769</ele>
        <time>2025-04-26T08:28:01.000Z</time>
      </trkpt>
      <trkpt lat="30.451404" lon="-98.020809">
        <ele>229.228653</ele>
        <time>2025-04-26T08:28:02.000Z</time>
      </trkpt>
      <trkpt lat="30.451039" lon="-98.020855">
        <ele>228.96255</ele>
        <time>2025-04-26T08:28:06.000Z</time>
      </trkpt>
      <trkpt lat="30.450778" lon="-98.020961">
        <ele>228.758265</ele>
        <time>2025-04-26T08:28:09.000Z</time>
      </trkpt>
      <trkpt lat="30.450539" lon="-98.021162">
        <ele>228.588655</ele>
        <time>2025-04-26T08:28:12.000Z</time>
      </trkpt>
      <trkpt lat="30.450431" lon="-98.021195">
        <ele>228.56401</ele>
        <time>2025-04-26T08:28:13.000Z</time>
      </trkpt>
      <trkpt lat="30.450375" lon="-98.021245">
        <ele>228.549295</ele>
        <time>2025-04-26T08:28:14.000Z</time>
      </trkpt>
      <trkpt lat="30.450299" lon="-98.021266">
        <ele>228.534425</ele>
        <time>2025-04-26T08:28:15.000Z</time>
      </trkpt>
      <trkpt lat="30.449998" lon="-98.021008">
        <ele>228.459367</ele>
        <time>2025-04-26T08:28:19.000Z</time>
      </trkpt>
      <trkpt lat="30.449858" lon="-98.021061">
        <ele>228.42941</ele>
        <time>2025-04-26T08:28:21.000Z</time>
      </trkpt>
      <trkpt lat="30.449665" lon="-98.021187">
        <ele>228.38182</ele>
        <time>2025-04-26T08:28:23.000Z</time>
      </trkpt>
      <trkpt lat="30.449513" lon="-98.021188">
        <ele>228.354015</ele>
        <time>2025-04-26T08:28:25.000Z</time>
      </trkpt>
      <trkpt lat="30.449427" lon="-98.021128">
        <ele>228.330877</ele>
        <time>2025-04-26T08:28:26.000Z</time>
      </trkpt>
      <trkpt lat="30.449325" lon="-98.020977">
        <ele>228.298658</ele>
        <time>2025-04-26T08:28:28.000Z</time>
      </trkpt>
      <trkpt lat="30.449253" lon="-98.020775">
        <ele>228.258319</ele>
        <time>2025-04-26T08:28:30.000Z</time>
      </trkpt>
      <trkpt lat="30.449236" lon="-98.020652">
        <ele>228.221176</ele>
        <time>2025-04-26T08:28:31.000Z</time>
      </trkpt>
      <trkpt lat="30.449384" lon="-98.020166">
        <ele>227.718676</ele>
        <time>2025-04-26T08:28:36.000Z</time>
      </trkpt>
      <trkpt lat="30.449362" lon="-98.020071">
        <ele>227.628505</ele>
        <time>2025-04-26T08:28:37.000Z</time>
      </trkpt>
      <trkpt lat="30.449115" lon="-98.019834">
        <ele>227.259224</ele>
        <time>2025-04-26T08:28:41.000Z</time>
      </trkpt>
      <trkpt lat="30.449075" lon="-98.019823">
        <ele>227.212484</ele>
        <time>2025-04-26T08:28:41.000Z</time>
      </trkpt>
      <trkpt lat="30.449003" lon="-98.02006">
        <ele>226.967325</ele>
        <time>2025-04-26T08:28:43.000Z</time>
      </trkpt>
      <trkpt lat="30.448864" lon="-98.020217">
        <ele>226.747133</ele>
        <time>2025-04-26T08:28:45.000Z</time>
      </trkpt>
      <trkpt lat="30.448751" lon="-98.020479">
        <ele>226.487888</ele>
        <time>2025-04-26T08:28:48.000Z</time>
      </trkpt>
      <trkpt lat="30.4485" lon="-98.020635">
        <ele>226.142536</ele>
        <time>2025-04-26T08:28:51.000Z</time>
      </trkpt>
      <trkpt lat="30.448468" lon="-98.020675">
        <ele>226.06551</ele>
        <time>2025-04-26T08:28:52.000Z</time>
      </trkpt>
      <trkpt lat="30.448305" lon="-98.020823">
        <ele>225.757684</ele>
        <time>2025-04-26T08:28:54.000Z</time>
      </trkpt>
      <trkpt lat="30.448334" lon="-98.020876">
        <ele>225.664825</ele>
        <time>2025-04-26T08:28:55.000Z</time>
      </trkpt>
      <trkpt lat="30.448338" lon="-98.020952">
        <ele>225.560818</ele>
        <time>2025-04-26T08:28:56.000Z</time>
      </trkpt>
      <trkpt lat="30.448211" lon="-98.021072">
        <ele>225.327261</ele>
        <time>2025-04-26T08:28:58.000Z</time>
      </trkpt>
      <trkpt lat="30.44816" lon="-98.020993">
        <ele>225.204292</ele>
        <time>2025-04-26T08:28:59.000Z</time>
      </trkpt>
      <trkpt lat="30.448186" lon="-98.020928">
        <ele>225.121398</ele>
        <time>2025-04-26T08:29:00.000Z</time>
      </trkpt>
      <trkpt lat="30.448118" lon="-98.02065">
        <ele>224.755311</ele>
        <time>2025-04-26T08:29:03.000Z</time>
      </trkpt>
      <trkpt lat="30.44802" lon="-98.020601">
        <ele>224.608643</ele>
        <time>2025-04-26T08:29:04.000Z</time>
      </trkpt>
      <trkpt lat="30.447927" lon="-98.020603">
        <ele>224.467882</ele>
        <time>2025-04-26T08:29:05.000Z</time>
      </trkpt>
      <trkpt lat="30.447666" lon="-98.020707">
        <ele>224.079848</ele>
        <time>2025-04-26T08:29:08.000Z</time>
      </trkpt>
      <trkpt lat="30.44731" lon="-98.020703">
        <ele>223.637179</ele>
        <time>2025-04-26T08:29:12.000Z</time>
      </trkpt>
      <trkpt lat="30.447089" lon="-98.020809">
        <ele>223.653254</ele>
        <time>2025-04-26T08:29:15.000Z</time>
      </trkpt>
      <trkpt lat="30.44679" lon="-98.020885">
        <ele>223.67379</ele>
        <time>2025-04-26T08:29:18.000Z</time>
      </trkpt>
      <trkpt lat="30.446671" lon="-98.020971">
        <ele>223.68306</ele>
        <time>2025-04-26T08:29:20.000Z</time>
      </trkpt>
      <trkpt lat="30.446607" lon="-98.021053">
        <ele>223.689937</ele>
        <time>2025-04-26T08:29:21.000Z</time>
      </trkpt>
      <trkpt lat="30.446583" lon="-98.02123">
        <ele>223.699947</ele>
        <time>2025-04-26T08:29:23.000Z</time>
      </trkpt>
      <trkpt lat="30.446677" lon="-98.021404">
        <ele>223.711454</ele>
        <time>2025-04-26T08:29:25.000Z</time>
      </trkpt>
      <trkpt lat="30.446805" lon="-98.02152">
        <ele>223.722481</ele>
        <time>2025-04-26T08:29:27.000Z</time>
      </trkpt>
      <trkpt lat="30.446852" lon="-98.021728">
        <ele>223.73451</ele>
        <time>2025-04-26T08:29:29.000Z</time>
      </trkpt>
      <trkpt lat="30.446978" lon="-98.021925">
        <ele>223.74833</ele>
        <time>2025-04-26T08:29:31.000Z</time>
      </trkpt>
      <trkpt lat="30.447149" lon="-98.022096">
        <ele>223.922248</ele>
        <time>2025-04-26T08:29:34.000Z</time>
      </trkpt>
      <trkpt lat="30.447203" lon="-98.022328">
        <ele>224.155256</ele>
        <time>2025-04-26T08:29:36.000Z</time>
      </trkpt>
      <trkpt lat="30.447265" lon="-98.022394">
        <ele>224.233051</ele>
        <time>2025-04-26T08:29:37.000Z</time>
      </trkpt>
      <trkpt lat="30.447384" lon="-98.022424">
        <ele>224.384032</ele>
        <time>2025-04-26T08:29:38.000Z</time>
      </trkpt>
      <trkpt lat="30.447461" lon="-98.022393">
        <ele>224.460139</ele>
        <time>2025-04-26T08:29:39.000Z</time>
      </trkpt>
      <trkpt lat="30.447486" lon="-98.022342">
        <ele>224.520222</ele>
        <time>2025-04-26T08:29:40.000Z</time>
      </trkpt>
      <trkpt lat="30.447492" lon="-98.022257">
        <ele>224.604614</ele>
        <time>2025-04-26T08:29:41.000Z</time>
      </trkpt>
      <trkpt lat="30.447458" lon="-98.022191">
        <ele>224.682013</ele>
        <time>2025-04-26T08:29:42.000Z</time>
      </trkpt>
      <trkpt lat="30.447465" lon="-98.022156">
        <ele>224.717969</ele>
        <time>2025-04-26T08:29:42.000Z</time>
      </trkpt>
      <trkpt lat="30.447604" lon="-98.022262">
        <ele>224.912279</ele>
        <time>2025-04-26T08:29:44.000Z</time>
      </trkpt>
      <trkpt lat="30.447748" lon="-98.022289">
        <ele>225.061667</ele>
        <time>2025-04-26T08:29:46.000Z</time>
      </trkpt>
      <trkpt lat="30.447803" lon="-98.022427">
        <ele>225.201133</ele>
        <time>2025-04-26T08:29:47.000Z</time>
      </trkpt>
      <trkpt lat="30.447863" lon="-98.022453">
        <ele>225.27159</ele>
        <time>2025-04-26T08:29:48.000Z</time>
      </trkpt>
      <trkpt lat="30.447929" lon="-98.022471">
        <ele>225.349514</ele>
        <time>2025-04-26T08:29:49.000Z</time>
      </trkpt>
      <trkpt lat="30.448123" lon="-98.022372">
        <ele>225.583511</ele>
        <time>2025-04-26T08:29:51.000Z</time>
      </trkpt>
      <trkpt lat="30.448195" lon="-98.022405">
        <ele>225.659988</ele>
        <time>2025-04-26T08:29:52.000Z</time>
      </trkpt>
      <trkpt lat="30.448265" lon="-98.022855">
        <ele>225.365733</ele>
        <time>2025-04-26T08:29:56.000Z</time>
      </trkpt>
      <trkpt lat="30.448326" lon="-98.023294">
        <ele>224.932379</ele>
        <time>2025-04-26T08:30:00.000Z</time>
      </trkpt>
      <trkpt lat="30.448327" lon="-98.023427">
        <ele>224.804001</ele>
        <time>2025-04-26T08:30:01.000Z</time>
      </trkpt>
      <trkpt lat="30.448223" lon="-98.023452">
        <ele>224.683244</ele>
        <time>2025-04-26T08:30:02.000Z</time>
      </trkpt>
      <trkpt lat="30.44813" lon="-98.023416">
        <ele>224.568875</ele>
        <time>2025-04-26T08:30:03.000Z</time>
      </trkpt>
      <trkpt lat="30.448058" lon="-98.023454">
        <ele>224.472035</ele>
        <time>2025-04-26T08:30:04.000Z</time>
      </trkpt>
      <trkpt lat="30.44774" lon="-98.023466">
        <ele>224.119667</ele>
        <time>2025-04-26T08:30:08.000Z</time>
      </trkpt>
      <trkpt lat="30.447561" lon="-98.023397">
        <ele>223.897017</ele>
        <time>2025-04-26T08:30:10.000Z</time>
      </trkpt>
      <trkpt lat="30.447459" lon="-98.023402">
        <ele>223.763206</ele>
        <time>2025-04-26T08:30:11.000Z</time>
      </trkpt>
      <trkpt lat="30.447432" lon="-98.023476">
        <ele>223.685793</ele>
        <time>2025-04-26T08:30:12.000Z</time>
      </trkpt>
      <trkpt lat="30.44747" lon="-98.02359">
        <ele>223.757658</ele>
        <time>2025-04-26T08:30:13.000Z</time>
      </trkpt>
      <trkpt lat="30.447532" lon="-98.02363">
        <ele>223.813767</ele>
        <time>2025-04-26T08:30:14.000Z</time>
      </trkpt>
      <trkpt lat="30.447553" lon="-98.023683">
        <ele>223.864799</ele>
        <time>2025-04-26T08:30:15.000Z</time>
      </trkpt>
      <trkpt lat="30.447573" lon="-98.023764">
        <ele>223.927067</ele>
        <time>2025-04-26T08:30:16.000Z</time>
      </trkpt>
      <trkpt lat="30.44751" lon="-98.023944">
        <ele>224.055721</ele>
        <time>2025-04-26T08:30:18.000Z</time>
      </trkpt>
      <trkpt lat="30.447256" lon="-98.024275">
        <ele>224.37521</ele>
        <time>2025-04-26T08:30:22.000Z</time>
      </trkpt>
      <trkpt lat="30.447139" lon="-98.024508">
        <ele>224.579662</ele>
        <time>2025-04-26T08:30:25.000Z</time>
      </trkpt>
      <trkpt lat="30.447101" lon="-98.024619">
        <ele>224.658</ele>
        <time>2025-04-26T08:30:26.000Z</time>
      </trkpt>
      <trkpt lat="30.447022" lon="-98.02479">
        <ele>224.800416</ele>
        <time>2025-04-26T08:30:28.000Z</time>
      </trkpt>
      <trkpt lat="30.446896" lon="-98.02496">
        <ele>224.961851</ele>
        <time>2025-04-26T08:30:30.000Z</time>
      </trkpt>
      <trkpt lat="30.446911" lon="-98.025212">
        <ele>225.148393</ele>
        <time>2025-04-26T08:30:32.000Z</time>
      </trkpt>
      <trkpt lat="30.446782" lon="-98.025677">
        <ele>226.045361</ele>
        <time>2025-04-26T08:30:37.000Z</time>
      </trkpt>
      <trkpt lat="30.44682" lon="-98.02578">
        <ele>226.265994</ele>
        <time>2025-04-26T08:30:38.000Z</time>
      </trkpt>
      <trkpt lat="30.447134" lon="-98.026273">
        <ele>227.498628</ele>
        <time>2025-04-26T08:30:44.000Z</time>
      </trkpt>
      <trkpt lat="30.447149" lon="-98.026439">
        <ele>227.824908</ele>
        <time>2025-04-26T08:30:46.000Z</time>
      </trkpt>
      <trkpt lat="30.447248" lon="-98.026614">
        <ele>228.236752</ele>
        <time>2025-04-26T08:30:48.000Z</time>
      </trkpt>
      <trkpt lat="30.447203" lon="-98.026782">
        <ele>228.593872</ele>
        <time>2025-04-26T08:30:50.000Z</time>
      </trkpt>
      <trkpt lat="30.447113" lon="-98.026911">
        <ele>228.929779</ele>
        <time>2025-04-26T08:30:52.000Z</time>
      </trkpt>
      <trkpt lat="30.447037" lon="-98.026899">
        <ele>229.1118</ele>
        <time>2025-04-26T08:30:53.000Z</time>
      </trkpt>
      <trkpt lat="30.44697" lon="-98.026869">
        <ele>229.27668</ele>
        <time>2025-04-26T08:30:54.000Z</time>
      </trkpt>
      <trkpt lat="30.446915" lon="-98.026754">
        <ele>229.466112</ele>
        <time>2025-04-26T08:30:55.000Z</time>
      </trkpt>
      <trkpt lat="30.44688" lon="-98.026838">
        <ele>229.593267</ele>
        <time>2025-04-26T08:30:56.000Z</time>
      </trkpt>
      <trkpt lat="30.446909" lon="-98.026899">
        <ele>229.697367</ele>
        <time>2025-04-26T08:30:57.000Z</time>
      </trkpt>
      <trkpt lat="30.446889" lon="-98.027017">
        <ele>229.866591</ele>
        <time>2025-04-26T08:30:58.000Z</time>
      </trkpt>
      <trkpt lat="30.446828" lon="-98.027054">
        <ele>230.010039</ele>
        <time>2025-04-26T08:30:59.000Z</time>
      </trkpt>
      <trkpt lat="30.446753" lon="-98.027054">
        <ele>230.132277</ele>
        <time>2025-04-26T08:31:00.000Z</time>
      </trkpt>
      <trkpt lat="30.446684" lon="-98.026978">
        <ele>230.293491</ele>
        <time>2025-04-26T08:31:01.000Z</time>
      </trkpt>
      <trkpt lat="30.446503" lon="-98.026912">
        <ele>230.610563</ele>
        <time>2025-04-26T08:31:03.000Z</time>
      </trkpt>
      <trkpt lat="30.446375" lon="-98.026821">
        <ele>230.860193</ele>
        <time>2025-04-26T08:31:05.000Z</time>
      </trkpt>
      <trkpt lat="30.446241" lon="-98.026778">
        <ele>231.112276</ele>
        <time>2025-04-26T08:31:07.000Z</time>
      </trkpt>
      <trkpt lat="30.446158" lon="-98.026797">
        <ele>231.257722</ele>
        <time>2025-04-26T08:31:08.000Z</time>
      </trkpt>
      <trkpt lat="30.446005" lon="-98.026735">
        <ele>231.510806</ele>
        <time>2025-04-26T08:31:10.000Z</time>
      </trkpt>
      <trkpt lat="30.445915" lon="-98.026662">
        <ele>231.715302</ele>
        <time>2025-04-26T08:31:11.000Z</time>
      </trkpt>
      <trkpt lat="30.445863" lon="-98.026566">
        <ele>231.87067</ele>
        <time>2025-04-26T08:31:12.000Z</time>
      </trkpt>
      <trkpt lat="30.44567" lon="-98.026341">
        <ele>232.340757</ele>
        <time>2025-04-26T08:31:15.000Z</time>
      </trkpt>
      <trkpt lat="30.445527" lon="-98.02622">
        <ele>232.469273</ele>
        <time>2025-04-26T08:31:17.000Z</time>
      </trkpt>
      <trkpt lat="30.445431" lon="-98.026087">
        <ele>232.562611</ele>
        <time>2025-04-26T08:31:19.000Z</time>
      </trkpt>
      <trkpt lat="30.445293" lon="-98.026038">
        <ele>232.659596</ele>
        <time>2025-04-26T08:31:21.000Z</time>
      </trkpt>
      <trkpt lat="30.44516" lon="-98.026027">
        <ele>232.74065</ele>
        <time>2025-04-26T08:31:22.000Z</time>
      </trkpt>
      <trkpt lat="30.444834" lon="-98.026251">
        <ele>232.967104</ele>
        <time>2025-04-26T08:31:26.000Z</time>
      </trkpt>
      <trkpt lat="30.444532" lon="-98.026543">
        <ele>233.221237</ele>
        <time>2025-04-26T08:31:30.000Z</time>
      </trkpt>
      <trkpt lat="30.44422" lon="-98.026766">
        <ele>233.449588</ele>
        <time>2025-04-26T08:31:34.000Z</time>
      </trkpt>
      <trkpt lat="30.444145" lon="-98.026855">
        <ele>233.512244</ele>
        <time>2025-04-26T08:31:35.000Z</time>
      </trkpt>
      <trkpt lat="30.444075" lon="-98.026978">
        <ele>233.588333</ele>
        <time>2025-04-26T08:31:36.000Z</time>
      </trkpt>
      <trkpt lat="30.443875" lon="-98.027183">
        <ele>233.741232</ele>
        <time>2025-04-26T08:31:39.000Z</time>
      </trkpt>
      <trkpt lat="30.443686" lon="-98.027228">
        <ele>233.853969</ele>
        <time>2025-04-26T08:31:41.000Z</time>
      </trkpt>
      <trkpt lat="30.443461" lon="-98.027219">
        <ele>233.987253</ele>
        <time>2025-04-26T08:31:44.000Z</time>
      </trkpt>
      <trkpt lat="30.442843" lon="-98.02727">
        <ele>234.355125</ele>
        <time>2025-04-26T08:31:51.000Z</time>
      </trkpt>
      <trkpt lat="30.442739" lon="-98.027335">
        <ele>234.417568</ele>
        <time>2025-04-26T08:31:52.000Z</time>
      </trkpt>
      <trkpt lat="30.442629" lon="-98.027568">
        <ele>234.516728</ele>
        <time>2025-04-26T08:31:55.000Z</time>
      </trkpt>
      <trkpt lat="30.442588" lon="-98.027833">
        <ele>233.642047</ele>
        <time>2025-04-26T08:31:58.000Z</time>
      </trkpt>
      <trkpt lat="30.44267" lon="-98.028261">
        <ele>232.179688</ele>
        <time>2025-04-26T08:32:02.000Z</time>
      </trkpt>
      <trkpt lat="30.442811" lon="-98.028543">
        <ele>231.103162</ele>
        <time>2025-04-26T08:32:05.000Z</time>
      </trkpt>
      <trkpt lat="30.442824" lon="-98.028563">
        <ele>231.052641</ele>
        <time>2025-04-26T08:32:05.000Z</time>
      </trkpt>
      <trkpt lat="30.442804" lon="-98.028574">
        <ele>230.982702</ele>
        <time>2025-04-26T08:32:05.000Z</time>
      </trkpt>
      <trkpt lat="30.442711" lon="-98.028424">
        <ele>230.4067</ele>
        <time>2025-04-26T08:32:07.000Z</time>
      </trkpt>
      <trkpt lat="30.442504" lon="-98.028537">
        <ele>229.538219</ele>
        <time>2025-04-26T08:32:10.000Z</time>
      </trkpt>
      <trkpt lat="30.442419" lon="-98.028499">
        <ele>229.179966</ele>
        <time>2025-04-26T08:32:11.000Z</time>
      </trkpt>
      <trkpt lat="30.441999" lon="-98.028498">
        <ele>227.522408</ele>
        <time>2025-04-26T08:32:16.000Z</time>
      </trkpt>
      <trkpt lat="30.441872" lon="-98.028459">
        <ele>227.048769</ele>
        <time>2025-04-26T08:32:17.000Z</time>
      </trkpt>
      <trkpt lat="30.441789" lon="-98.028467">
        <ele>226.629609</ele>
        <time>2025-04-26T08:32:18.000Z</time>
      </trkpt>
      <trkpt lat="30.441698" lon="-98.028523">
        <ele>226.194511</ele>
        <time>2025-04-26T08:32:19.000Z</time>
      </trkpt>
      <trkpt lat="30.441458" lon="-98.028968">
        <ele>224.304081</ele>
        <time>2025-04-26T08:32:24.000Z</time>
      </trkpt>
      <trkpt lat="30.441503" lon="-98.029095">
        <ele>223.822452</ele>
        <time>2025-04-26T08:32:25.000Z</time>
      </trkpt>
      <trkpt lat="30.441657" lon="-98.029238">
        <ele>223.015478</ele>
        <time>2025-04-26T08:32:27.000Z</time>
      </trkpt>
      <trkpt lat="30.441725" lon="-98.029344">
        <ele>222.521416</ele>
        <time>2025-04-26T08:32:28.000Z</time>
      </trkpt>
      <trkpt lat="30.441846" lon="-98.029335">
        <ele>222.058938</ele>
        <time>2025-04-26T08:32:29.000Z</time>
      </trkpt>
      <trkpt lat="30.441947" lon="-98.029398">
        <ele>221.549439</ele>
        <time>2025-04-26T08:32:30.000Z</time>
      </trkpt>
      <trkpt lat="30.441976" lon="-98.029514">
        <ele>221.063122</ele>
        <time>2025-04-26T08:32:31.000Z</time>
      </trkpt>
      <trkpt lat="30.441989" lon="-98.029622">
        <ele>220.66343</ele>
        <time>2025-04-26T08:32:32.000Z</time>
      </trkpt>
      <trkpt lat="30.442059" lon="-98.029766">
        <ele>220.122239</ele>
        <time>2025-04-26T08:32:34.000Z</time>
      </trkpt>
      <trkpt lat="30.442217" lon="-98.029955">
        <ele>220.083241</ele>
        <time>2025-04-26T08:32:37.000Z</time>
      </trkpt>
      <trkpt lat="30.442215" lon="-98.030087">
        <ele>220.064157</ele>
        <time>2025-04-26T08:32:38.000Z</time>
      </trkpt>
      <trkpt lat="30.442261" lon="-98.030216">
        <ele>220.041906</ele>
        <time>2025-04-26T08:32:39.000Z</time>
      </trkpt>
      <trkpt lat="30.442336" lon="-98.030356">
        <ele>220.018131</ele>
        <time>2025-04-26T08:32:41.000Z</time>
      </trkpt>
      <trkpt lat="30.442491" lon="-98.03055">
        <ele>219.980307</ele>
        <time>2025-04-26T08:32:44.000Z</time>
      </trkpt>
      <trkpt lat="30.442597" lon="-98.030646">
        <ele>219.957831</ele>
        <time>2025-04-26T08:32:45.000Z</time>
      </trkpt>
      <trkpt lat="30.442751" lon="-98.030955">
        <ele>219.906038</ele>
        <time>2025-04-26T08:32:48.000Z</time>
      </trkpt>
      <trkpt lat="30.442925" lon="-98.031092">
        <ele>219.869124</ele>
        <time>2025-04-26T08:32:50.000Z</time>
      </trkpt>
      <trkpt lat="30.443061" lon="-98.031098">
        <ele>219.846927</ele>
        <time>2025-04-26T08:32:52.000Z</time>
      </trkpt>
      <trkpt lat="30.44316" lon="-98.031042">
        <ele>219.828393</ele>
        <time>2025-04-26T08:32:53.000Z</time>
      </trkpt>
      <trkpt lat="30.443287" lon="-98.031048">
        <ele>219.842372</ele>
        <time>2025-04-26T08:32:54.000Z</time>
      </trkpt>
      <trkpt lat="30.443687" lon="-98.031217">
        <ele>220.021305</ele>
        <time>2025-04-26T08:32:59.000Z</time>
      </trkpt>
      <trkpt lat="30.443793" lon="-98.031229">
        <ele>220.069047</ele>
        <time>2025-04-26T08:33:00.000Z</time>
      </trkpt>
      <trkpt lat="30.443912" lon="-98.031477">
        <ele>220.181126</ele>
        <time>2025-04-26T08:33:03.000Z</time>
      </trkpt>
      <trkpt lat="30.444131" lon="-98.031533">
        <ele>220.278097</ele>
        <time>2025-04-26T08:33:05.000Z</time>
      </trkpt>
      <trkpt lat="30.444224" lon="-98.031619">
        <ele>220.329506</ele>
        <time>2025-04-26T08:33:06.000Z</time>
      </trkpt>
      <trkpt lat="30.444221" lon="-98.031816">
        <ele>220.400362</ele>
        <time>2025-04-26T08:33:08.000Z</time>
      </trkpt>
      <trkpt lat="30.444186" lon="-98.031915">
        <ele>220.441466</ele>
        <time>2025-04-26T08:33:09.000Z</time>
      </trkpt>
      <trkpt lat="30.444064" lon="-98.032082">
        <ele>220.529039</ele>
        <time>2025-04-26T08:33:11.000Z</time>
      </trkpt>
      <trkpt lat="30.444019" lon="-98.032248">
        <ele>220.592495</ele>
        <time>2025-04-26T08:33:13.000Z</time>
      </trkpt>
      <trkpt lat="30.443996" lon="-98.032371">
        <ele>220.727188</ele>
        <time>2025-04-26T08:33:14.000Z</time>
      </trkpt>
      <trkpt lat="30.443957" lon="-98.032521">
        <ele>220.912382</ele>
        <time>2025-04-26T08:33:16.000Z</time>
      </trkpt>
      <trkpt lat="30.443859" lon="-98.032573">
        <ele>221.062752</ele>
        <time>2025-04-26T08:33:17.000Z</time>
      </trkpt>
      <trkpt lat="30.443751" lon="-98.032608">
        <ele>221.185138</ele>
        <time>2025-04-26T08:33:18.000Z</time>
      </trkpt>
      <trkpt lat="30.443678" lon="-98.032695">
        <ele>221.333995</ele>
        <time>2025-04-26T08:33:19.000Z</time>
      </trkpt>
      <trkpt lat="30.443698" lon="-98.032826">
        <ele>221.484277</ele>
        <time>2025-04-26T08:33:20.000Z</time>
      </trkpt>
      <trkpt lat="30.444022" lon="-98.032962">
        <ele>221.966153</ele>
        <time>2025-04-26T08:33:24.000Z</time>
      </trkpt>
      <trkpt lat="30.44411" lon="-98.03304">
        <ele>222.107228</ele>
        <time>2025-04-26T08:33:25.000Z</time>
      </trkpt>
      <trkpt lat="30.444081" lon="-98.033209">
        <ele>222.307022</ele>
        <time>2025-04-26T08:33:27.000Z</time>
      </trkpt>
      <trkpt lat="30.444016" lon="-98.033303">
        <ele>222.455344</ele>
        <time>2025-04-26T08:33:28.000Z</time>
      </trkpt>
      <trkpt lat="30.443481" lon="-98.033509">
        <ele>223.344843</ele>
        <time>2025-04-26T08:33:34.000Z</time>
      </trkpt>
      <trkpt lat="30.443418" lon="-98.033615">
        <ele>223.632183</ele>
        <time>2025-04-26T08:33:35.000Z</time>
      </trkpt>
      <trkpt lat="30.443332" lon="-98.033728">
        <ele>223.920154</ele>
        <time>2025-04-26T08:33:36.000Z</time>
      </trkpt>
      <trkpt lat="30.443247" lon="-98.033798">
        <ele>224.205504</ele>
        <time>2025-04-26T08:33:37.000Z</time>
      </trkpt>
      <trkpt lat="30.443116" lon="-98.033817">
        <ele>224.505403</ele>
        <time>2025-04-26T08:33:38.000Z</time>
      </trkpt>
      <trkpt lat="30.443018" lon="-98.03382">
        <ele>224.774143</ele>
        <time>2025-04-26T08:33:39.000Z</time>
      </trkpt>
      <trkpt lat="30.442892" lon="-98.033892">
        <ele>225.091338</ele>
        <time>2025-04-26T08:33:41.000Z</time>
      </trkpt>
      <trkpt lat="30.442713" lon="-98.034083">
        <ele>225.67197</ele>
        <time>2025-04-26T08:33:44.000Z</time>
      </trkpt>
      <trkpt lat="30.442698" lon="-98.034191">
        <ele>225.929403</ele>
        <time>2025-04-26T08:33:45.000Z</time>
      </trkpt>
      <trkpt lat="30.442738" lon="-98.034307">
        <ele>226.180841</ele>
        <time>2025-04-26T08:33:46.000Z</time>
      </trkpt>
      <trkpt lat="30.442755" lon="-98.034475">
        <ele>226.521386</ele>
        <time>2025-04-26T08:33:48.000Z</time>
      </trkpt>
      <trkpt lat="30.442761" lon="-98.034608">
        <ele>226.795189</ele>
        <time>2025-04-26T08:33:49.000Z</time>
      </trkpt>
      <trkpt lat="30.442731" lon="-98.034708">
        <ele>227.038209</ele>
        <time>2025-04-26T08:33:50.000Z</time>
      </trkpt>
      <trkpt lat="30.442649" lon="-98.034803">
        <ele>227.310472</ele>
        <time>2025-04-26T08:33:51.000Z</time>
      </trkpt>
      <trkpt lat="30.442534" lon="-98.03487">
        <ele>227.639475</ele>
        <time>2025-04-26T08:33:52.000Z</time>
      </trkpt>
      <trkpt lat="30.442447" lon="-98.034858">
        <ele>227.91202</ele>
        <time>2025-04-26T08:33:53.000Z</time>
      </trkpt>
      <trkpt lat="30.442347" lon="-98.034845">
        <ele>228.180618</ele>
        <time>2025-04-26T08:33:54.000Z</time>
      </trkpt>
      <trkpt lat="30.442238" lon="-98.034983">
        <ele>228.584051</ele>
        <time>2025-04-26T08:33:56.000Z</time>
      </trkpt>
      <trkpt lat="30.442153" lon="-98.035046">
        <ele>228.875097</ele>
        <time>2025-04-26T08:33:57.000Z</time>
      </trkpt>
      <trkpt lat="30.442099" lon="-98.035143">
        <ele>229.157222</ele>
        <time>2025-04-26T08:33:58.000Z</time>
      </trkpt>
      <trkpt lat="30.441898" lon="-98.035241">
        <ele>229.708475</ele>
        <time>2025-04-26T08:34:00.000Z</time>
      </trkpt>
      <trkpt lat="30.441778" lon="-98.035228">
        <ele>230.031601</ele>
        <time>2025-04-26T08:34:01.000Z</time>
      </trkpt>
      <trkpt lat="30.441572" lon="-98.035327">
        <ele>230.607805</ele>
        <time>2025-04-26T08:34:03.000Z</time>
      </trkpt>
      <trkpt lat="30.441479" lon="-98.035307">
        <ele>230.877395</ele>
        <time>2025-04-26T08:34:04.000Z</time>
      </trkpt>
      <trkpt lat="30.441399" lon="-98.035241">
        <ele>231.133282</ele>
        <time>2025-04-26T08:34:05.000Z</time>
      </trkpt>
      <trkpt lat="30.441338" lon="-98.035169">
        <ele>231.413969</ele>
        <time>2025-04-26T08:34:06.000Z</time>
      </trkpt>
      <trkpt lat="30.441353" lon="-98.035041">
        <ele>231.681118</ele>
        <time>2025-04-26T08:34:07.000Z</time>
      </trkpt>
      <trkpt lat="30.441455" lon="-98.03498">
        <ele>231.994836</ele>
        <time>2025-04-26T08:34:08.000Z</time>
      </trkpt>
      <trkpt lat="30.441514" lon="-98.034902">
        <ele>232.223623</ele>
        <time>2025-04-26T08:34:09.000Z</time>
      </trkpt>
      <trkpt lat="30.441552" lon="-98.034765">
        <ele>232.642094</ele>
        <time>2025-04-26T08:34:10.000Z</time>
      </trkpt>
      <trkpt lat="30.441505" lon="-98.034683">
        <ele>232.924678</ele>
        <time>2025-04-26T08:34:11.000Z</time>
      </trkpt>
      <trkpt lat="30.441405" lon="-98.034644">
        <ele>233.25168</ele>
        <time>2025-04-26T08:34:12.000Z</time>
      </trkpt>
      <trkpt lat="30.441175" lon="-98.034628">
        <ele>233.933856</ele>
        <time>2025-04-26T08:34:15.000Z</time>
      </trkpt>
      <trkpt lat="30.441094" lon="-98.034661">
        <ele>234.242345</ele>
        <time>2025-04-26T08:34:16.000Z</time>
      </trkpt>
      <trkpt lat="30.441039" lon="-98.034761">
        <ele>234.550441</ele>
        <time>2025-04-26T08:34:17.000Z</time>
      </trkpt>
      <trkpt lat="30.440851" lon="-98.035052">
        <ele>235.481308</ele>
        <time>2025-04-26T08:34:20.000Z</time>
      </trkpt>
      <trkpt lat="30.440821" lon="-98.035167">
        <ele>235.788801</ele>
        <time>2025-04-26T08:34:21.000Z</time>
      </trkpt>
      <trkpt lat="30.440878" lon="-98.035263">
        <ele>236.096909</ele>
        <time>2025-04-26T08:34:22.000Z</time>
      </trkpt>
      <trkpt lat="30.440896" lon="-98.035493">
        <ele>236.713018</ele>
        <time>2025-04-26T08:34:24.000Z</time>
      </trkpt>
      <trkpt lat="30.440978" lon="-98.035582">
        <ele>237.056317</ele>
        <time>2025-04-26T08:34:25.000Z</time>
      </trkpt>
      <trkpt lat="30.441114" lon="-98.035735">
        <ele>237.645483</ele>
        <time>2025-04-26T08:34:27.000Z</time>
      </trkpt>
      <trkpt lat="30.441128" lon="-98.035866">
        <ele>237.7611</ele>
        <time>2025-04-26T08:34:28.000Z</time>
      </trkpt>
      <trkpt lat="30.441102" lon="-98.036136">
        <ele>237.679944</ele>
        <time>2025-04-26T08:34:31.000Z</time>
      </trkpt>
      <trkpt lat="30.441031" lon="-98.036406">
        <ele>237.593049</ele>
        <time>2025-04-26T08:34:34.000Z</time>
      </trkpt>
      <trkpt lat="30.440925" lon="-98.036496">
        <ele>237.548167</ele>
        <time>2025-04-26T08:34:35.000Z</time>
      </trkpt>
      <trkpt lat="30.440797" lon="-98.03651">
        <ele>237.506256</ele>
        <time>2025-04-26T08:34:36.000Z</time>
      </trkpt>
      <trkpt lat="30.440703" lon="-98.036435">
        <ele>237.465867</ele>
        <time>2025-04-26T08:34:37.000Z</time>
      </trkpt>
      <trkpt lat="30.440609" lon="-98.036209">
        <ele>237.389081</ele>
        <time>2025-04-26T08:34:39.000Z</time>
      </trkpt>
      <trkpt lat="30.440496" lon="-98.036141">
        <ele>237.348716</ele>
        <time>2025-04-26T08:34:40.000Z</time>
      </trkpt>
      <trkpt lat="30.440163" lon="-98.036115">
        <ele>237.231011</ele>
        <time>2025-04-26T08:34:44.000Z</time>
      </trkpt>
      <trkpt lat="30.439966" lon="-98.036134">
        <ele>237.165059</ele>
        <time>2025-04-26T08:34:46.000Z</time>
      </trkpt>
      <trkpt lat="30.440065" lon="-98.036495">
        <ele>237.196104</ele>
        <time>2025-04-26T08:34:50.000Z</time>
      </trkpt>
      <trkpt lat="30.440146" lon="-98.03667">
        <ele>237.2168</ele>
        <time>2025-04-26T08:34:52.000Z</time>
      </trkpt>
      <trkpt lat="30.440307" lon="-98.036853">
        <ele>237.244084</ele>
        <time>2025-04-26T08:34:55.000Z</time>
      </trkpt>
      <trkpt lat="30.440322" lon="-98.036842">
        <ele>237.247423</ele>
        <time>2025-04-26T08:34:55.000Z</time>
      </trkpt>
      <trkpt lat="30.441024" lon="-98.036898">
        <ele>237.33019</ele>
        <time>2025-04-26T08:35:03.000Z</time>
      </trkpt>
      <trkpt lat="30.441297" lon="-98.036821">
        <ele>237.364965</ele>
        <time>2025-04-26T08:35:06.000Z</time>
      </trkpt>
      <trkpt lat="30.44174" lon="-98.036815">
        <ele>237.049636</ele>
        <time>2025-04-26T08:35:11.000Z</time>
      </trkpt>
      <trkpt lat="30.442336" lon="-98.036955">
        <ele>236.503486</ele>
        <time>2025-04-26T08:35:18.000Z</time>
      </trkpt>
      <trkpt lat="30.442695" lon="-98.037103">
        <ele>236.166866</ele>
        <time>2025-04-26T08:35:22.000Z</time>
      </trkpt>
      <trkpt lat="30.442955" lon="-98.037009">
        <ele>235.927172</ele>
        <time>2025-04-26T08:35:25.000Z</time>
      </trkpt>
      <trkpt lat="30.443072" lon="-98.036698">
        <ele>235.467287</ele>
        <time>2025-04-26T08:35:28.000Z</time>
      </trkpt>
      <trkpt lat="30.443092" lon="-98.036378">
        <ele>234.807537</ele>
        <time>2025-04-26T08:35:31.000Z</time>
      </trkpt>
      <trkpt lat="30.443028" lon="-98.036177">
        <ele>234.359636</ele>
        <time>2025-04-26T08:35:33.000Z</time>
      </trkpt>
      <trkpt lat="30.442871" lon="-98.036026">
        <ele>233.845548</ele>
        <time>2025-04-26T08:35:35.000Z</time>
      </trkpt>
      <trkpt lat="30.442908" lon="-98.035892">
        <ele>233.530597</ele>
        <time>2025-04-26T08:35:36.000Z</time>
      </trkpt>
      <trkpt lat="30.443073" lon="-98.035702">
        <ele>232.974718</ele>
        <time>2025-04-26T08:35:39.000Z</time>
      </trkpt>
      <trkpt lat="30.443245" lon="-98.035442">
        <ele>232.271729</ele>
        <time>2025-04-26T08:35:42.000Z</time>
      </trkpt>
      <trkpt lat="30.443506" lon="-98.035319">
        <ele>231.600049</ele>
        <time>2025-04-26T08:35:45.000Z</time>
      </trkpt>
      <trkpt lat="30.443698" lon="-98.03521">
        <ele>231.065772</ele>
        <time>2025-04-26T08:35:47.000Z</time>
      </trkpt>
      <trkpt lat="30.443803" lon="-98.035092">
        <ele>230.694277</ele>
        <time>2025-04-26T08:35:49.000Z</time>
      </trkpt>
      <trkpt lat="30.443907" lon="-98.034974">
        <ele>230.30099</ele>
        <time>2025-04-26T08:35:51.000Z</time>
      </trkpt>
      <trkpt lat="30.443924" lon="-98.034601">
        <ele>229.463384</ele>
        <time>2025-04-26T08:35:55.000Z</time>
      </trkpt>
      <trkpt lat="30.444055" lon="-98.034319">
        <ele>228.756273</ele>
        <time>2025-04-26T08:35:58.000Z</time>
      </trkpt>
      <trkpt lat="30.444351" lon="-98.033959">
        <ele>227.663138</ele>
        <time>2025-04-26T08:36:03.000Z</time>
      </trkpt>
      <trkpt lat="30.444533" lon="-98.033844">
        <ele>227.097888</ele>
        <time>2025-04-26T08:36:05.000Z</time>
      </trkpt>
      <trkpt lat="30.444753" lon="-98.033629">
        <ele>226.656895</ele>
        <time>2025-04-26T08:36:08.000Z</time>
      </trkpt>
      <trkpt lat="30.444948" lon="-98.033346">
        <ele>226.561655</ele>
        <time>2025-04-26T08:36:11.000Z</time>
      </trkpt>
      <trkpt lat="30.445076" lon="-98.033254">
        <ele>226.515865</ele>
        <time>2025-04-26T08:36:13.000Z</time>
      </trkpt>
      <trkpt lat="30.44511" lon="-98.033056">
        <ele>226.464025</ele>
        <time>2025-04-26T08:36:15.000Z</time>
      </trkpt>
      <trkpt lat="30.445039" lon="-98.032596">
        <ele>226.342694</ele>
        <time>2025-04-26T08:36:19.000Z</time>
      </trkpt>
      <trkpt lat="30.445052" lon="-98.032328">
        <ele>226.268232</ele>
        <time>2025-04-26T08:36:22.000Z</time>
      </trkpt>
      <trkpt lat="30.445154" lon="-98.032003">
        <ele>226.179846</ele>
        <time>2025-04-26T08:36:25.000Z</time>
      </trkpt>
      <trkpt lat="30.44543" lon="-98.031693">
        <ele>227.12718</ele>
        <time>2025-04-26T08:36:29.000Z</time>
      </trkpt>
      <trkpt lat="30.445665" lon="-98.031747">
        <ele>228.012785</ele>
        <time>2025-04-26T08:36:32.000Z</time>
      </trkpt>
      <trkpt lat="30.445661" lon="-98.031651">
        <ele>228.313109</ele>
        <time>2025-04-26T08:36:33.000Z</time>
      </trkpt>
      <trkpt lat="30.445681" lon="-98.031547">
        <ele>228.631501</ele>
        <time>2025-04-26T08:36:34.000Z</time>
      </trkpt>
      <trkpt lat="30.445744" lon="-98.031414">
        <ele>229.066818</ele>
        <time>2025-04-26T08:36:35.000Z</time>
      </trkpt>
      <trkpt lat="30.445774" lon="-98.031322">
        <ele>229.387111</ele>
        <time>2025-04-26T08:36:36.000Z</time>
      </trkpt>
      <trkpt lat="30.445905" lon="-98.031083">
        <ele>230.236482</ele>
        <time>2025-04-26T08:36:39.000Z</time>
      </trkpt>
      <trkpt lat="30.445884" lon="-98.030914">
        <ele>230.74582</ele>
        <time>2025-04-26T08:36:41.000Z</time>
      </trkpt>
      <trkpt lat="30.445774" lon="-98.030371">
        <ele>232.392107</ele>
        <time>2025-04-26T08:36:46.000Z</time>
      </trkpt>
      <trkpt lat="30.445721" lon="-98.030259">
        <ele>232.903003</ele>
        <time>2025-04-26T08:36:47.000Z</time>
      </trkpt>
      <trkpt lat="30.445769" lon="-98.030064">
        <ele>233.74063</ele>
        <time>2025-04-26T08:36:49.000Z</time>
      </trkpt>
      <trkpt lat="30.445758" lon="-98.029933">
        <ele>234.225963</ele>
        <time>2025-04-26T08:36:50.000Z</time>
      </trkpt>
      <trkpt lat="30.445846" lon="-98.02986">
        <ele>234.76867</ele>
        <time>2025-04-26T08:36:51.000Z</time>
      </trkpt>
      <trkpt lat="30.445905" lon="-98.029768">
        <ele>235.211549</ele>
        <time>2025-04-26T08:36:52.000Z</time>
      </trkpt>
      <trkpt lat="30.446091" lon="-98.029729">
        <ele>236.144806</ele>
        <time>2025-04-26T08:36:54.000Z</time>
      </trkpt>
      <trkpt lat="30.446151" lon="-98.029635">
        <ele>236.553018</ele>
        <time>2025-04-26T08:36:55.000Z</time>
      </trkpt>
      <trkpt lat="30.446104" lon="-98.02944">
        <ele>237.389631</ele>
        <time>2025-04-26T08:36:57.000Z</time>
      </trkpt>
      <trkpt lat="30.446144" lon="-98.0292">
        <ele>238.336588</ele>
        <time>2025-04-26T08:36:59.000Z</time>
      </trkpt>
      <trkpt lat="30.446298" lon="-98.029245">
        <ele>239.068803</ele>
        <time>2025-04-26T08:37:01.000Z</time>
      </trkpt>
      <trkpt lat="30.446658" lon="-98.028882">
        <ele>240.785396</ele>
        <time>2025-04-26T08:37:06.000Z</time>
      </trkpt>
      <trkpt lat="30.446773" lon="-98.028803">
        <ele>240.935073</ele>
        <time>2025-04-26T08:37:07.000Z</time>
      </trkpt>
      <trkpt lat="30.446909" lon="-98.028778">
        <ele>241.080916</ele>
        <time>2025-04-26T08:37:09.000Z</time>
      </trkpt>
      <trkpt lat="30.446983" lon="-98.028807">
        <ele>241.170143</ele>
        <time>2025-04-26T08:37:10.000Z</time>
      </trkpt>
      <trkpt lat="30.447022" lon="-98.028911">
        <ele>241.280568</ele>
        <time>2025-04-26T08:37:11.000Z</time>
      </trkpt>
      <trkpt lat="30.44708" lon="-98.028929">
        <ele>241.348046</ele>
        <time>2025-04-26T08:37:12.000Z</time>
      </trkpt>
      <trkpt lat="30.447241" lon="-98.028957">
        <ele>241.518821</ele>
        <time>2025-04-26T08:37:14.000Z</time>
      </trkpt>
      <trkpt lat="30.447557" lon="-98.029068">
        <ele>241.889598</ele>
        <time>2025-04-26T08:37:18.000Z</time>
      </trkpt>
      <trkpt lat="30.447675" lon="-98.029091">
        <ele>242.025318</ele>
        <time>2025-04-26T08:37:19.000Z</time>
      </trkpt>
      <trkpt lat="30.447817" lon="-98.029094">
        <ele>242.187976</ele>
        <time>2025-04-26T08:37:21.000Z</time>
      </trkpt>
      <trkpt lat="30.448054" lon="-98.028918">
        <ele>242.501989</ele>
        <time>2025-04-26T08:37:24.000Z</time>
      </trkpt>
      <trkpt lat="30.44842" lon="-98.028752">
        <ele>242.898772</ele>
        <time>2025-04-26T08:37:28.000Z</time>
      </trkpt>
      <trkpt lat="30.448592" lon="-98.028574">
        <ele>243.133776</ele>
        <time>2025-04-26T08:37:31.000Z</time>
      </trkpt>
      <trkpt lat="30.44869" lon="-98.028555">
        <ele>243.226374</ele>
        <time>2025-04-26T08:37:32.000Z</time>
      </trkpt>
      <trkpt lat="30.448773" lon="-98.028608">
        <ele>243.320835</ele>
        <time>2025-04-26T08:37:33.000Z</time>
      </trkpt>
      <trkpt lat="30.44899" lon="-98.02861">
        <ele>243.545177</ele>
        <time>2025-04-26T08:37:35.000Z</time>
      </trkpt>
      <trkpt lat="30.449219" lon="-98.028642">
        <ele>243.762023</ele>
        <time>2025-04-26T08:37:38.000Z</time>
      </trkpt>
      <trkpt lat="30.449288" lon="-98.028583">
        <ele>243.856099</ele>
        <time>2025-04-26T08:37:39.000Z</time>
      </trkpt>
      <trkpt lat="30.44936" lon="-98.028496">
        <ele>243.9614</ele>
        <time>2025-04-26T08:37:40.000Z</time>
      </trkpt>
      <trkpt lat="30.449381" lon="-98.028201">
        <ele>244.204522</ele>
        <time>2025-04-26T08:37:43.000Z</time>
      </trkpt>
      <trkpt lat="30.449533" lon="-98.028282">
        <ele>244.373366</ele>
        <time>2025-04-26T08:37:45.000Z</time>
      </trkpt>
      <trkpt lat="30.449712" lon="-98.028066">
        <ele>244.858791</ele>
        <time>2025-04-26T08:37:48.000Z</time>
      </trkpt>
      <trkpt lat="30.449766" lon="-98.028042">
        <ele>244.995166</ele>
        <time>2025-04-26T08:37:49.000Z</time>
      </trkpt>
      <trkpt lat="30.449852" lon="-98.028187">
        <ele>245.272848</ele>
        <time>2025-04-26T08:37:51.000Z</time>
      </trkpt>
      <trkpt lat="30.449985" lon="-98.028537">
        <ele>245.915455</ele>
        <time>2025-04-26T08:37:55.000Z</time>
      </trkpt>
      <trkpt lat="30.45014" lon="-98.028597">
        <ele>246.251345</ele>
        <time>2025-04-26T08:37:57.000Z</time>
      </trkpt>
      <trkpt lat="30.450204" lon="-98.0286">
        <ele>246.381382</ele>
        <time>2025-04-26T08:37:58.000Z</time>
      </trkpt>
      <trkpt lat="30.450263" lon="-98.028526">
        <ele>246.569915</ele>
        <time>2025-04-26T08:37:59.000Z</time>
      </trkpt>
      <trkpt lat="30.450393" lon="-98.028058">
        <ele>247.402408</ele>
        <time>2025-04-26T08:38:04.000Z</time>
      </trkpt>
      <trkpt lat="30.450583" lon="-98.027884">
        <ele>247.886467</ele>
        <time>2025-04-26T08:38:07.000Z</time>
      </trkpt>
      <trkpt lat="30.450733" lon="-98.02762">
        <ele>248.268063</ele>
        <time>2025-04-26T08:38:10.000Z</time>
      </trkpt>
      <trkpt lat="30.450805" lon="-98.027339">
        <ele>248.611714</ele>
        <time>2025-04-26T08:38:13.000Z</time>
      </trkpt>
      <trkpt lat="30.450798" lon="-98.027055">
        <ele>248.948155</ele>
        <time>2025-04-26T08:38:16.000Z</time>
      </trkpt>
      <trkpt lat="30.450864" lon="-98.027031">
        <ele>249.054242</ele>
        <time>2025-04-26T08:38:17.000Z</time>
      </trkpt>
      <trkpt lat="30.45103" lon="-98.026907">
        <ele>249.322977</ele>
        <time>2025-04-26T08:38:19.000Z</time>
      </trkpt>
      <trkpt lat="30.451203" lon="-98.026865">
        <ele>249.553258</ele>
        <time>2025-04-26T08:38:21.000Z</time>
      </trkpt>
      <trkpt lat="30.451239" lon="-98.026834">
        <ele>249.613717</ele>
        <time>2025-04-26T08:38:21.000Z</time>
      </trkpt>
      <trkpt lat="30.451292" lon="-98.026747">
        <ele>249.737972</ele>
        <time>2025-04-26T08:38:22.000Z</time>
      </trkpt>
      <trkpt lat="30.451407" lon="-98.026602">
        <ele>249.972297</ele>
        <time>2025-04-26T08:38:24.000Z</time>
      </trkpt>
      <trkpt lat="30.451413" lon="-98.026509">
        <ele>250.071788</ele>
        <time>2025-04-26T08:38:25.000Z</time>
      </trkpt>
      <trkpt lat="30.451364" lon="-98.026421">
        <ele>250.1847</ele>
        <time>2025-04-26T08:38:26.000Z</time>
      </trkpt>
      <trkpt lat="30.451397" lon="-98.026336">
        <ele>250.29023</ele>
        <time>2025-04-26T08:38:27.000Z</time>
      </trkpt>
      <trkpt lat="30.451749" lon="-98.026313">
        <ele>251.350731</ele>
        <time>2025-04-26T08:38:31.000Z</time>
      </trkpt>
      <trkpt lat="30.45182" lon="-98.026256">
        <ele>251.650208</ele>
        <time>2025-04-26T08:38:32.000Z</time>
      </trkpt>
      <trkpt lat="30.451926" lon="-98.026206">
        <ele>252.023958</ele>
        <time>2025-04-26T08:38:33.000Z</time>
      </trkpt>
      <trkpt lat="30.452024" lon="-98.026267">
        <ele>252.38903</ele>
        <time>2025-04-26T08:38:34.000Z</time>
      </trkpt>
      <trkpt lat="30.452068" lon="-98.026346">
        <ele>252.694988</ele>
        <time>2025-04-26T08:38:35.000Z</time>
      </trkpt>
      <trkpt lat="30.452124" lon="-98.026347">
        <ele>252.853995</ele>
        <time>2025-04-26T08:38:36.000Z</time>
      </trkpt>
      <trkpt lat="30.452239" lon="-98.026332">
        <ele>253.296405</ele>
        <time>2025-04-26T08:38:37.000Z</time>
      </trkpt>
      <trkpt lat="30.452312" lon="-98.026369">
        <ele>253.551209</ele>
        <time>2025-04-26T08:38:38.000Z</time>
      </trkpt>
      <trkpt lat="30.45245" lon="-98.026355">
        <ele>253.995483</ele>
        <time>2025-04-26T08:38:40.000Z</time>
      </trkpt>
      <trkpt lat="30.45251" lon="-98.026395">
        <ele>254.273008</ele>
        <time>2025-04-26T08:38:41.000Z</time>
      </trkpt>
      <trkpt lat="30.452676" lon="-98.026369">
        <ele>254.853537</ele>
        <time>2025-04-26T08:38:43.000Z</time>
      </trkpt>
      <trkpt lat="30.452809" lon="-98.026279">
        <ele>255.391434</ele>
        <time>2025-04-26T08:38:45.000Z</time>
      </trkpt>
      <trkpt lat="30.452894" lon="-98.026152">
        <ele>255.841296</ele>
        <time>2025-04-26T08:38:47.000Z</time>
      </trkpt>
      <trkpt lat="30.452749" lon="-98.025968">
        <ele>256.579233</ele>
        <time>2025-04-26T08:38:49.000Z</time>
      </trkpt>
      <trkpt lat="30.452653" lon="-98.025907">
        <ele>256.396014</ele>
        <time>2025-04-26T08:38:50.000Z</time>
      </trkpt>
      <trkpt lat="30.452627" lon="-98.025838">
        <ele>256.265207</ele>
        <time>2025-04-26T08:38:51.000Z</time>
      </trkpt>
      <trkpt lat="30.452528" lon="-98.025733">
        <ele>256.073617</ele>
        <time>2025-04-26T08:38:52.000Z</time>
      </trkpt>
      <trkpt lat="30.452576" lon="-98.025559">
        <ele>255.80854</ele>
        <time>2025-04-26T08:38:54.000Z</time>
      </trkpt>
      <trkpt lat="30.452641" lon="-98.025167">
        <ele>255.219926</ele>
        <time>2025-04-26T08:38:58.000Z</time>
      </trkpt>
      <trkpt lat="30.452725" lon="-98.025041">
        <ele>254.981796</ele>
        <time>2025-04-26T08:39:00.000Z</time>
      </trkpt>
      <trkpt lat="30.453151" lon="-98.024558">
        <ele>254.002183</ele>
        <time>2025-04-26T08:39:07.000Z</time>
      </trkpt>
      <trkpt lat="30.453177" lon="-98.024362">
        <ele>253.689393</ele>
        <time>2025-04-26T08:39:09.000Z</time>
      </trkpt>
      <trkpt lat="30.453314" lon="-98.024159">
        <ele>253.918199</ele>
        <time>2025-04-26T08:39:11.000Z</time>
      </trkpt>
      <trkpt lat="30.453377" lon="-98.023958">
        <ele>254.356389</ele>
        <time>2025-04-26T08:39:13.000Z</time>
      </trkpt>
      <trkpt lat="30.453458" lon="-98.02383">
        <ele>254.678543</ele>
        <time>2025-04-26T08:39:15.000Z</time>
      </trkpt>
      <trkpt lat="30.453447" lon="-98.023841">
        <ele>254.686502</ele>
        <time>2025-04-26T08:39:15.000Z</time>
      </trkpt>
      <trkpt lat="30.453549" lon="-98.023414">
        <ele>255.593947</ele>
        <time>2025-04-26T08:39:19.000Z</time>
      </trkpt>
      <trkpt lat="30.453654" lon="-98.023211">
        <ele>256.09412</ele>
        <time>2025-04-26T08:39:21.000Z</time>
      </trkpt>
      <trkpt lat="30.453778" lon="-98.023043">
        <ele>256.564632</ele>
        <time>2025-04-26T08:39:23.000Z</time>
      </trkpt>
      <trkpt lat="30.453748" lon="-98.02314">
        <ele>256.782916</ele>
        <time>2025-04-26T08:39:24.000Z</time>
      </trkpt>
      <trkpt lat="30.45378" lon="-98.023229">
        <ele>256.990881</ele>
        <time>2025-04-26T08:39:25.000Z</time>
      </trkpt>
      <trkpt lat="30.45392" lon="-98.02331">
        <ele>257.378168</ele>
        <time>2025-04-26T08:39:27.000Z</time>
      </trkpt>
      <trkpt lat="30.454055" lon="-98.023508">
        <ele>257.889505</ele>
        <time>2025-04-26T08:39:29.000Z</time>
      </trkpt>
      <trkpt lat="30.454189" lon="-98.023551">
        <ele>258.311036</ele>
        <time>2025-04-26T08:39:31.000Z</time>
      </trkpt>
      <trkpt lat="30.454272" lon="-98.02369">
        <ele>258.745208</ele>
        <time>2025-04-26T08:39:33.000Z</time>
      </trkpt>
      <trkpt lat="30.454322" lon="-98.023829">
        <ele>259.108696</ele>
        <time>2025-04-26T08:39:34.000Z</time>
      </trkpt>
      <trkpt lat="30.454353" lon="-98.02429">
        <ele>260.264386</ele>
        <time>2025-04-26T08:39:38.000Z</time>
      </trkpt>
      <trkpt lat="30.454273" lon="-98.024559">
        <ele>260.99403</ele>
        <time>2025-04-26T08:39:41.000Z</time>
      </trkpt>
      <trkpt lat="30.454269" lon="-98.024819">
        <ele>261.635691</ele>
        <time>2025-04-26T08:39:43.000Z</time>
      </trkpt>
      <trkpt lat="30.454215" lon="-98.024881">
        <ele>261.847293</ele>
        <time>2025-04-26T08:39:44.000Z</time>
      </trkpt>
      <trkpt lat="30.454162" lon="-98.02491">
        <ele>262.00882</ele>
        <time>2025-04-26T08:39:45.000Z</time>
      </trkpt>
      <trkpt lat="30.453855" lon="-98.024927">
        <ele>262.917549</ele>
        <time>2025-04-26T08:39:48.000Z</time>
      </trkpt>
      <trkpt lat="30.453805" lon="-98.024959">
        <ele>263.049906</ele>
        <time>2025-04-26T08:39:49.000Z</time>
      </trkpt>
      <trkpt lat="30.45379" lon="-98.025066">
        <ele>263.192157</ele>
        <time>2025-04-26T08:39:50.000Z</time>
      </trkpt>
      <trkpt lat="30.453764" lon="-98.02508">
        <ele>263.174888</ele>
        <time>2025-04-26T08:39:50.000Z</time>
      </trkpt>
      <trkpt lat="30.453608" lon="-98.025073">
        <ele>263.10885</ele>
        <time>2025-04-26T08:39:52.000Z</time>
      </trkpt>
      <trkpt lat="30.453499" lon="-98.02517">
        <ele>263.053816</ele>
        <time>2025-04-26T08:39:54.000Z</time>
      </trkpt>
      <trkpt lat="30.453484" lon="-98.025179">
        <ele>263.050847</ele>
        <time>2025-04-26T08:39:54.000Z</time>
      </trkpt>
      <trkpt lat="30.453321" lon="-98.025436">
        <ele>262.93903</ele>
        <time>2025-04-26T08:39:57.000Z</time>
      </trkpt>
      <trkpt lat="30.453331" lon="-98.025496">
        <ele>262.91471</ele>
        <time>2025-04-26T08:39:58.000Z</time>
      </trkpt>
      <trkpt lat="30.453369" lon="-98.025601">
        <ele>262.875832</ele>
        <time>2025-04-26T08:39:59.000Z</time>
      </trkpt>
      <trkpt lat="30.453343" lon="-98.025654">
        <ele>262.857403</ele>
        <time>2025-04-26T08:40:00.000Z</time>
      </trkpt>
      <trkpt lat="30.4532" lon="-98.025727">
        <ele>262.787826</ele>
        <time>2025-04-26T08:40:02.000Z</time>
      </trkpt>
      <trkpt lat="30.453131" lon="-98.02578">
        <ele>262.755502</ele>
        <time>2025-04-26T08:40:03.000Z</time>
      </trkpt>
      <trkpt lat="30.453024" lon="-98.026069">
        <ele>262.644566</ele>
        <time>2025-04-26T08:40:06.000Z</time>
      </trkpt>
      <trkpt lat="30.452895" lon="-98.026151">
        <ele>262.584001</ele>
        <time>2025-04-26T08:40:08.000Z</time>
      </trkpt>
      <trkpt lat="30.452821" lon="-98.026268">
        <ele>262.53055</ele>
        <time>2025-04-26T08:40:09.000Z</time>
      </trkpt>
      <trkpt lat="30.452688" lon="-98.026369">
        <ele>262.477065</ele>
        <time>2025-04-26T08:40:11.000Z</time>
      </trkpt>
      <trkpt lat="30.452971" lon="-98.02645">
        <ele>262.589504</ele>
        <time>2025-04-26T08:40:14.000Z</time>
      </trkpt>
      <trkpt lat="30.453214" lon="-98.026413">
        <ele>262.685785</ele>
        <time>2025-04-26T08:40:17.000Z</time>
      </trkpt>
      <trkpt lat="30.453347" lon="-98.026216">
        <ele>262.76825</ele>
        <time>2025-04-26T08:40:19.000Z</time>
      </trkpt>
      <trkpt lat="30.453454" lon="-98.025994">
        <ele>262.854899</ele>
        <time>2025-04-26T08:40:21.000Z</time>
      </trkpt>
      <trkpt lat="30.453546" lon="-98.025754">
        <ele>262.941848</ele>
        <time>2025-04-26T08:40:24.000Z</time>
      </trkpt>
      <trkpt lat="30.453882" lon="-98.025393">
        <ele>263.118957</ele>
        <time>2025-04-26T08:40:29.000Z</time>
      </trkpt>
      <trkpt lat="30.45389" lon="-98.025378">
        <ele>263.119466</ele>
        <time>2025-04-26T08:40:29.000Z</time>
      </trkpt>
      <trkpt lat="30.454084" lon="-98.025234">
        <ele>262.894048</ele>
        <time>2025-04-26T08:40:32.000Z</time>
      </trkpt>
      <trkpt lat="30.454394" lon="-98.025078">
        <ele>262.042401</ele>
        <time>2025-04-26T08:40:36.000Z</time>
      </trkpt>
      <trkpt lat="30.454486" lon="-98.024975">
        <ele>261.763493</ele>
        <time>2025-04-26T08:40:37.000Z</time>
      </trkpt>
      <trkpt lat="30.454531" lon="-98.024877">
        <ele>261.516554</ele>
        <time>2025-04-26T08:40:38.000Z</time>
      </trkpt>
      <trkpt lat="30.454659" lon="-98.024756">
        <ele>261.099345</ele>
        <time>2025-04-26T08:40:40.000Z</time>
      </trkpt>
      <trkpt lat="30.454741" lon="-98.024684">
        <ele>260.897729</ele>
        <time>2025-04-26T08:40:41.000Z</time>
      </trkpt>
      <trkpt lat="30.454811" lon="-98.024666">
        <ele>260.715121</ele>
        <time>2025-04-26T08:40:42.000Z</time>
      </trkpt>
      <trkpt lat="30.454905" lon="-98.024649">
        <ele>260.470644</ele>
        <time>2025-04-26T08:40:43.000Z</time>
      </trkpt>
      <trkpt lat="30.454983" lon="-98.024718">
        <ele>260.224796</ele>
        <time>2025-04-26T08:40:44.000Z</time>
      </trkpt>
      <trkpt lat="30.455038" lon="-98.024868">
        <ele>259.889997</ele>
        <time>2025-04-26T08:40:46.000Z</time>
      </trkpt>
      <trkpt lat="30.455151" lon="-98.025055">
        <ele>259.442826</ele>
        <time>2025-04-26T08:40:48.000Z</time>
      </trkpt>
      <trkpt lat="30.455129" lon="-98.025131">
        <ele>259.260752</ele>
        <time>2025-04-26T08:40:49.000Z</time>
      </trkpt>
      <trkpt lat="30.455" lon="-98.025319">
        <ele>258.73708</ele>
        <time>2025-04-26T08:40:51.000Z</time>
      </trkpt>
      <trkpt lat="30.454834" lon="-98.025429">
        <ele>258.044577</ele>
        <time>2025-04-26T08:40:53.000Z</time>
      </trkpt>
      <trkpt lat="30.454609" lon="-98.025541">
        <ele>257.187355</ele>
        <time>2025-04-26T08:40:56.000Z</time>
      </trkpt>
      <trkpt lat="30.454542" lon="-98.025671">
        <ele>256.700475</ele>
        <time>2025-04-26T08:40:57.000Z</time>
      </trkpt>
      <trkpt lat="30.45453" lon="-98.025723">
        <ele>256.560196</ele>
        <time>2025-04-26T08:40:58.000Z</time>
      </trkpt>
      <trkpt lat="30.454571" lon="-98.025725">
        <ele>256.408172</ele>
        <time>2025-04-26T08:40:58.000Z</time>
      </trkpt>
      <trkpt lat="30.454868" lon="-98.025624">
        <ele>255.342948</ele>
        <time>2025-04-26T08:41:01.000Z</time>
      </trkpt>
      <trkpt lat="30.454911" lon="-98.025711">
        <ele>255.0398</ele>
        <time>2025-04-26T08:41:02.000Z</time>
      </trkpt>
      <trkpt lat="30.454892" lon="-98.025745">
        <ele>254.872704</ele>
        <time>2025-04-26T08:41:02.000Z</time>
      </trkpt>
      <trkpt lat="30.454744" lon="-98.025907">
        <ele>254.146283</ele>
        <time>2025-04-26T08:41:04.000Z</time>
      </trkpt>
      <trkpt lat="30.454626" lon="-98.026154">
        <ele>253.258534</ele>
        <time>2025-04-26T08:41:07.000Z</time>
      </trkpt>
      <trkpt lat="30.454505" lon="-98.026242">
        <ele>252.720711</ele>
        <time>2025-04-26T08:41:09.000Z</time>
      </trkpt>
      <trkpt lat="30.454373" lon="-98.026442">
        <ele>251.893182</ele>
        <time>2025-04-26T08:41:11.000Z</time>
      </trkpt>
      <trkpt lat="30.454426" lon="-98.026628">
        <ele>251.260285</ele>
        <time>2025-04-26T08:41:13.000Z</time>
      </trkpt>
      <trkpt lat="30.454402" lon="-98.026785">
        <ele>250.745093</ele>
        <time>2025-04-26T08:41:15.000Z</time>
      </trkpt>
      <trkpt lat="30.454523" lon="-98.026939">
        <ele>250.069793</ele>
        <time>2025-04-26T08:41:17.000Z</time>
      </trkpt>
      <trkpt lat="30.454763" lon="-98.026793">
        <ele>249.004342</ele>
        <time>2025-04-26T08:41:20.000Z</time>
      </trkpt>
      <trkpt lat="30.454887" lon="-98.0266">
        <ele>248.238831</ele>
        <time>2025-04-26T08:41:22.000Z</time>
      </trkpt>
      <trkpt lat="30.45484" lon="-98.026534">
        <ele>247.92251</ele>
        <time>2025-04-26T08:41:23.000Z</time>
      </trkpt>
      <trkpt lat="30.454747" lon="-98.026522">
        <ele>247.609112</ele>
        <time>2025-04-26T08:41:24.000Z</time>
      </trkpt>
      <trkpt lat="30.454672" lon="-98.026482">
        <ele>247.264263</ele>
        <time>2025-04-26T08:41:25.000Z</time>
      </trkpt>
      <trkpt lat="30.454666" lon="-98.026453">
        <ele>247.161429</ele>
        <time>2025-04-26T08:41:25.000Z</time>
      </trkpt>
      <trkpt lat="30.454739" lon="-98.026368">
        <ele>246.729161</ele>
        <time>2025-04-26T08:41:26.000Z</time>
      </trkpt>
      <trkpt lat="30.454919" lon="-98.026349">
        <ele>246.051275</ele>
        <time>2025-04-26T08:41:28.000Z</time>
      </trkpt>
      <trkpt lat="30.454991" lon="-98.026306">
        <ele>245.730565</ele>
        <time>2025-04-26T08:41:29.000Z</time>
      </trkpt>
      <trkpt lat="30.455261" lon="-98.026223">
        <ele>244.931994</ele>
        <time>2025-04-26T08:41:32.000Z</time>
      </trkpt>
      <trkpt lat="30.455557" lon="-98.02629">
        <ele>244.293454</ele>
        <time>2025-04-26T08:41:35.000Z</time>
      </trkpt>
      <trkpt lat="30.455785" lon="-98.026451">
        <ele>243.675678</ele>
        <time>2025-04-26T08:41:38.000Z</time>
      </trkpt>
      <trkpt lat="30.455899" lon="-98.026435">
        <ele>243.454772</ele>
        <time>2025-04-26T08:41:39.000Z</time>
      </trkpt>
      <trkpt lat="30.456135" lon="-98.026341">
        <ele>242.868445</ele>
        <time>2025-04-26T08:41:42.000Z</time>
      </trkpt>
      <trkpt lat="30.456377" lon="-98.026142">
        <ele>242.199752</ele>
        <time>2025-04-26T08:41:45.000Z</time>
      </trkpt>
      <trkpt lat="30.456544" lon="-98.026053">
        <ele>241.805571</ele>
        <time>2025-04-26T08:41:47.000Z</time>
      </trkpt>
      <trkpt lat="30.4567" lon="-98.026072">
        <ele>241.448914</ele>
        <time>2025-04-26T08:41:49.000Z</time>
      </trkpt>
      <trkpt lat="30.456738" lon="-98.025883">
        <ele>241.373366</ele>
        <time>2025-04-26T08:41:51.000Z</time>
      </trkpt>
      <trkpt lat="30.456684" lon="-98.025749">
        <ele>241.371421</ele>
        <time>2025-04-26T08:41:52.000Z</time>
      </trkpt>
      <trkpt lat="30.456696" lon="-98.02574">
        <ele>241.371057</ele>
        <time>2025-04-26T08:41:52.000Z</time>
      </trkpt>
      <trkpt lat="30.456815" lon="-98.02573">
        <ele>241.369334</ele>
        <time>2025-04-26T08:41:53.000Z</time>
      </trkpt>
      <trkpt lat="30.456894" lon="-98.025785">
        <ele>241.367948</ele>
        <time>2025-04-26T08:41:54.000Z</time>
      </trkpt>
      <trkpt lat="30.456895" lon="-98.025851">
        <ele>241.367222</ele>
        <time>2025-04-26T08:41:55.000Z</time>
      </trkpt>
      <trkpt lat="30.456939" lon="-98.025833">
        <ele>241.366558</ele>
        <time>2025-04-26T08:41:56.000Z</time>
      </trkpt>
      <trkpt lat="30.457036" lon="-98.025694">
        <ele>241.364256</ele>
        <time>2025-04-26T08:41:58.000Z</time>
      </trkpt>
      <trkpt lat="30.457192" lon="-98.025637">
        <ele>241.361938</ele>
        <time>2025-04-26T08:42:00.000Z</time>
      </trkpt>
      <trkpt lat="30.457394" lon="-98.025773">
        <ele>241.358491</ele>
        <time>2025-04-26T08:42:03.000Z</time>
      </trkpt>
      <trkpt lat="30.457521" lon="-98.025785">
        <ele>241.356678</ele>
        <time>2025-04-26T08:42:04.000Z</time>
      </trkpt>
      <trkpt lat="30.457593" lon="-98.025678">
        <ele>241.354849</ele>
        <time>2025-04-26T08:42:05.000Z</time>
      </trkpt>
      <trkpt lat="30.45774" lon="-98.025655">
        <ele>241.352671</ele>
        <time>2025-04-26T08:42:07.000Z</time>
      </trkpt>
      <trkpt lat="30.457961" lon="-98.025661">
        <ele>241.349375</ele>
        <time>2025-04-26T08:42:09.000Z</time>
      </trkpt>
      <trkpt lat="30.458081" lon="-98.025597">
        <ele>241.329466</ele>
        <time>2025-04-26T08:42:10.000Z</time>
      </trkpt>
      <trkpt lat="30.458162" lon="-98.025476">
        <ele>241.291404</ele>
        <time>2025-04-26T08:42:11.000Z</time>
      </trkpt>
      <trkpt lat="30.458166" lon="-98.025482">
        <ele>241.28967</ele>
        <time>2025-04-26T08:42:11.000Z</time>
      </trkpt>
      <trkpt lat="30.458299" lon="-98.025018">
        <ele>241.168652</ele>
        <time>2025-04-26T08:42:16.000Z</time>
      </trkpt>
      <trkpt lat="30.458292" lon="-98.024726">
        <ele>241.090849</ele>
        <time>2025-04-26T08:42:19.000Z</time>
      </trkpt>
      <trkpt lat="30.458342" lon="-98.024506">
        <ele>241.033537</ele>
        <time>2025-04-26T08:42:21.000Z</time>
      </trkpt>
      <trkpt lat="30.458383" lon="-98.024211">
        <ele>240.95742</ele>
        <time>2025-04-26T08:42:24.000Z</time>
      </trkpt>
      <trkpt lat="30.458373" lon="-98.024067">
        <ele>240.919002</ele>
        <time>2025-04-26T08:42:25.000Z</time>
      </trkpt>
      <trkpt lat="30.458298" lon="-98.024005">
        <ele>240.894719</ele>
        <time>2025-04-26T08:42:26.000Z</time>
      </trkpt>
      <trkpt lat="30.458217" lon="-98.02388">
        <ele>240.853954</ele>
        <time>2025-04-26T08:42:27.000Z</time>
      </trkpt>
      <trkpt lat="30.458209" lon="-98.02352">
        <ele>240.774744</ele>
        <time>2025-04-26T08:42:30.000Z</time>
      </trkpt>
      <trkpt lat="30.458289" lon="-98.023414">
        <ele>240.751092</ele>
        <time>2025-04-26T08:42:31.000Z</time>
      </trkpt>
      <trkpt lat="30.458513" lon="-98.023341">
        <ele>240.701506</ele>
        <time>2025-04-26T08:42:34.000Z</time>
      </trkpt>
      <trkpt lat="30.458564" lon="-98.023314">
        <ele>240.686277</ele>
        <time>2025-04-26T08:42:35.000Z</time>
      </trkpt>
      <trkpt lat="30.459022" lon="-98.022854">
        <ele>240.556915</ele>
        <time>2025-04-26T08:42:42.000Z</time>
      </trkpt>
      <trkpt lat="30.459182" lon="-98.022784">
        <ele>240.520057</ele>
        <time>2025-04-26T08:42:44.000Z</time>
      </trkpt>
      <trkpt lat="30.459727" lon="-98.022608">
        <ele>240.179388</ele>
        <time>2025-04-26T08:42:50.000Z</time>
      </trkpt>
      <trkpt lat="30.460148" lon="-98.022727">
        <ele>239.416507</ele>
        <time>2025-04-26T08:42:55.000Z</time>
      </trkpt>
      <trkpt lat="30.460261" lon="-98.022805">
        <ele>239.187995</ele>
        <time>2025-04-26T08:42:56.000Z</time>
      </trkpt>
      <trkpt lat="30.460293" lon="-98.022887">
        <ele>239.025577</ele>
        <time>2025-04-26T08:42:57.000Z</time>
      </trkpt>
      <trkpt lat="30.460226" lon="-98.023279">
        <ele>238.417792</ele>
        <time>2025-04-26T08:43:01.000Z</time>
      </trkpt>
      <trkpt lat="30.460261" lon="-98.023389">
        <ele>238.238802</ele>
        <time>2025-04-26T08:43:02.000Z</time>
      </trkpt>
      <trkpt lat="30.460309" lon="-98.023484">
        <ele>238.064318</ele>
        <time>2025-04-26T08:43:03.000Z</time>
      </trkpt>
      <trkpt lat="30.4604" lon="-98.023543">
        <ele>237.89198</ele>
        <time>2025-04-26T08:43:04.000Z</time>
      </trkpt>
      <trkpt lat="30.460526" lon="-98.023577">
        <ele>237.655718</ele>
        <time>2025-04-26T08:43:05.000Z</time>
      </trkpt>
      <trkpt lat="30.460765" lon="-98.023773">
        <ele>237.179357</ele>
        <time>2025-04-26T08:43:08.000Z</time>
      </trkpt>
      <trkpt lat="30.460877" lon="-98.023802">
        <ele>237.089014</ele>
        <time>2025-04-26T08:43:09.000Z</time>
      </trkpt>
      <trkpt lat="30.461018" lon="-98.023768">
        <ele>236.990549</ele>
        <time>2025-04-26T08:43:11.000Z</time>
      </trkpt>
      <trkpt lat="30.46136" lon="-98.023601">
        <ele>236.734556</ele>
        <time>2025-04-26T08:43:15.000Z</time>
      </trkpt>
      <trkpt lat="30.461467" lon="-98.023605">
        <ele>236.64797</ele>
        <time>2025-04-26T08:43:16.000Z</time>
      </trkpt>
      <trkpt lat="30.46182" lon="-98.02376">
        <ele>236.383893</ele>
        <time>2025-04-26T08:43:20.000Z</time>
      </trkpt>
      <trkpt lat="30.4624" lon="-98.024171">
        <ele>235.899836</ele>
        <time>2025-04-26T08:43:28.000Z</time>
      </trkpt>
      <trkpt lat="30.462564" lon="-98.024348">
        <ele>235.705126</ele>
        <time>2025-04-26T08:43:30.000Z</time>
      </trkpt>
      <trkpt lat="30.462804" lon="-98.024462">
        <ele>235.47407</ele>
        <time>2025-04-26T08:43:33.000Z</time>
      </trkpt>
      <trkpt lat="30.463083" lon="-98.024725">
        <ele>235.143319</ele>
        <time>2025-04-26T08:43:37.000Z</time>
      </trkpt>
      <trkpt lat="30.463334" lon="-98.024844">
        <ele>234.91091</ele>
        <time>2025-04-26T08:43:40.000Z</time>
      </trkpt>
      <trkpt lat="30.463554" lon="-98.025007">
        <ele>234.673128</ele>
        <time>2025-04-26T08:43:43.000Z</time>
      </trkpt>
      <trkpt lat="30.463736" lon="-98.025186">
        <ele>234.458767</ele>
        <time>2025-04-26T08:43:46.000Z</time>
      </trkpt>
      <trkpt lat="30.46386" lon="-98.025397">
        <ele>234.383298</ele>
        <time>2025-04-26T08:43:48.000Z</time>
      </trkpt>
      <trkpt lat="30.464012" lon="-98.025428">
        <ele>234.49374</ele>
        <time>2025-04-26T08:43:50.000Z</time>
      </trkpt>
      <trkpt lat="30.464126" lon="-98.02542">
        <ele>234.581174</ele>
        <time>2025-04-26T08:43:51.000Z</time>
      </trkpt>
      <trkpt lat="30.464254" lon="-98.025289">
        <ele>234.698978</ele>
        <time>2025-04-26T08:43:53.000Z</time>
      </trkpt>
      <trkpt lat="30.464369" lon="-98.025124">
        <ele>234.8269</ele>
        <time>2025-04-26T08:43:55.000Z</time>
      </trkpt>
      <trkpt lat="30.464341" lon="-98.024908">
        <ele>234.962926</ele>
        <time>2025-04-26T08:43:57.000Z</time>
      </trkpt>
      <trkpt lat="30.464362" lon="-98.024821">
        <ele>235.014255</ele>
        <time>2025-04-26T08:43:58.000Z</time>
      </trkpt>
      <trkpt lat="30.464521" lon="-98.02467">
        <ele>235.164175</ele>
        <time>2025-04-26T08:44:00.000Z</time>
      </trkpt>
      <trkpt lat="30.464575" lon="-98.024373">
        <ele>235.35155</ele>
        <time>2025-04-26T08:44:03.000Z</time>
      </trkpt>
      <trkpt lat="30.464526" lon="-98.024118">
        <ele>235.51062</ele>
        <time>2025-04-26T08:44:06.000Z</time>
      </trkpt>
      <trkpt lat="30.464683" lon="-98.023936">
        <ele>235.644379</ele>
        <time>2025-04-26T08:44:08.000Z</time>
      </trkpt>
      <trkpt lat="30.464853" lon="-98.02384">
        <ele>235.730974</ele>
        <time>2025-04-26T08:44:10.000Z</time>
      </trkpt>
      <trkpt lat="30.464868" lon="-98.023587">
        <ele>235.832521</ele>
        <time>2025-04-26T08:44:12.000Z</time>
      </trkpt>
      <trkpt lat="30.464859" lon="-98.02348">
        <ele>235.873725</ele>
        <time>2025-04-26T08:44:13.000Z</time>
      </trkpt>
      <trkpt lat="30.464698" lon="-98.023189">
        <ele>236.011269</ele>
        <time>2025-04-26T08:44:16.000Z</time>
      </trkpt>
      <trkpt lat="30.464523" lon="-98.023014">
        <ele>236.116525</ele>
        <time>2025-04-26T08:44:19.000Z</time>
      </trkpt>
      <trkpt lat="30.464445" lon="-98.022833">
        <ele>236.192993</ele>
        <time>2025-04-26T08:44:21.000Z</time>
      </trkpt>
      <trkpt lat="30.464441" lon="-98.022828">
        <ele>236.196772</ele>
        <time>2025-04-26T08:44:21.000Z</time>
      </trkpt>
      <trkpt lat="30.464286" lon="-98.022714">
        <ele>236.283202</ele>
        <time>2025-04-26T08:44:23.000Z</time>
      </trkpt>
      <trkpt lat="30.464131" lon="-98.022651">
        <ele>236.351747</ele>
        <time>2025-04-26T08:44:25.000Z</time>
      </trkpt>
      <trkpt lat="30.464104" lon="-98.022572">
        <ele>236.386406</ele>
        <time>2025-04-26T08:44:26.000Z</time>
      </trkpt>
      <trkpt lat="30.464069" lon="-98.022406">
        <ele>236.441538</ele>
        <time>2025-04-26T08:44:28.000Z</time>
      </trkpt>
      <trkpt lat="30.463968" lon="-98.022175">
        <ele>236.472476</ele>
        <time>2025-04-26T08:44:30.000Z</time>
      </trkpt>
      <trkpt lat="30.463923" lon="-98.021966">
        <ele>236.49739</ele>
        <time>2025-04-26T08:44:32.000Z</time>
      </trkpt>
      <trkpt lat="30.463783" lon="-98.021834">
        <ele>236.520571</ele>
        <time>2025-04-26T08:44:34.000Z</time>
      </trkpt>
      <trkpt lat="30.463752" lon="-98.021721">
        <ele>236.534961</ele>
        <time>2025-04-26T08:44:35.000Z</time>
      </trkpt>
      <trkpt lat="30.463766" lon="-98.021598">
        <ele>236.548416</ele>
        <time>2025-04-26T08:44:36.000Z</time>
      </trkpt>
      <trkpt lat="30.46361" lon="-98.021299">
        <ele>236.589301</ele>
        <time>2025-04-26T08:44:39.000Z</time>
      </trkpt>
      <trkpt lat="30.46343" lon="-98.021074">
        <ele>236.6248</ele>
        <time>2025-04-26T08:44:42.000Z</time>
      </trkpt>
      <trkpt lat="30.46324" lon="-98.020812">
        <ele>236.665273</ele>
        <time>2025-04-26T08:44:45.000Z</time>
      </trkpt>
      <trkpt lat="30.46324" lon="-98.020572">
        <ele>236.438694</ele>
        <time>2025-04-26T08:44:47.000Z</time>
      </trkpt>
      <trkpt lat="30.463402" lon="-98.020424">
        <ele>235.970592</ele>
        <time>2025-04-26T08:44:49.000Z</time>
      </trkpt>
      <trkpt lat="30.463545" lon="-98.020554">
        <ele>235.560361</ele>
        <time>2025-04-26T08:44:51.000Z</time>
      </trkpt>
      <trkpt lat="30.463652" lon="-98.020562">
        <ele>235.29891</ele>
        <time>2025-04-26T08:44:52.000Z</time>
      </trkpt>
      <trkpt lat="30.463779" lon="-98.020545">
        <ele>235.011269</ele>
        <time>2025-04-26T08:44:53.000Z</time>
      </trkpt>
      <trkpt lat="30.463905" lon="-98.020483">
        <ele>234.715114</ele>
        <time>2025-04-26T08:44:55.000Z</time>
      </trkpt>
      <trkpt lat="30.464013" lon="-98.020458">
        <ele>234.46228</ele>
        <time>2025-04-26T08:44:56.000Z</time>
      </trkpt>
      <trkpt lat="30.464267" lon="-98.020621">
        <ele>233.783531</ele>
        <time>2025-04-26T08:44:59.000Z</time>
      </trkpt>
      <trkpt lat="30.464269" lon="-98.020683">
        <ele>233.649423</ele>
        <time>2025-04-26T08:45:00.000Z</time>
      </trkpt>
      <trkpt lat="30.464358" lon="-98.020816">
        <ele>233.321862</ele>
        <time>2025-04-26T08:45:02.000Z</time>
      </trkpt>
      <trkpt lat="30.464614" lon="-98.021099">
        <ele>232.505888</ele>
        <time>2025-04-26T08:45:06.000Z</time>
      </trkpt>
      <trkpt lat="30.464827" lon="-98.021261">
        <ele>231.582147</ele>
        <time>2025-04-26T08:45:09.000Z</time>
      </trkpt>
      <trkpt lat="30.46501" lon="-98.021323">
        <ele>230.968477</ele>
        <time>2025-04-26T08:45:11.000Z</time>
      </trkpt>
      <trkpt lat="30.465103" lon="-98.021462">
        <ele>230.387572</ele>
        <time>2025-04-26T08:45:13.000Z</time>
      </trkpt>
      <trkpt lat="30.465228" lon="-98.021485">
        <ele>229.949305</ele>
        <time>2025-04-26T08:45:14.000Z</time>
      </trkpt>
      <trkpt lat="30.46551" lon="-98.021652">
        <ele>228.833002</ele>
        <time>2025-04-26T08:45:18.000Z</time>
      </trkpt>
      <trkpt lat="30.465488" lon="-98.021747">
        <ele>228.52695</ele>
        <time>2025-04-26T08:45:19.000Z</time>
      </trkpt>
      <trkpt lat="30.465431" lon="-98.021812">
        <ele>228.22515</ele>
        <time>2025-04-26T08:45:20.000Z</time>
      </trkpt>
      <trkpt lat="30.465386" lon="-98.021928">
        <ele>227.88949</ele>
        <time>2025-04-26T08:45:21.000Z</time>
      </trkpt>
      <trkpt lat="30.46538" lon="-98.022005">
        <ele>227.605848</ele>
        <time>2025-04-26T08:45:22.000Z</time>
      </trkpt>
      <trkpt lat="30.465464" lon="-98.02208">
        <ele>227.262443</ele>
        <time>2025-04-26T08:45:23.000Z</time>
      </trkpt>
      <trkpt lat="30.465579" lon="-98.022098">
        <ele>226.876569</ele>
        <time>2025-04-26T08:45:24.000Z</time>
      </trkpt>
      <trkpt lat="30.465654" lon="-98.022155">
        <ele>226.51769</ele>
        <time>2025-04-26T08:45:25.000Z</time>
      </trkpt>
      <trkpt lat="30.465773" lon="-98.022129">
        <ele>226.13753</ele>
        <time>2025-04-26T08:45:26.000Z</time>
      </trkpt>
      <trkpt lat="30.466055" lon="-98.022429">
        <ele>225.184786</ele>
        <time>2025-04-26T08:45:30.000Z</time>
      </trkpt>
      <trkpt lat="30.466084" lon="-98.022594">
        <ele>224.821064</ele>
        <time>2025-04-26T08:45:32.000Z</time>
      </trkpt>
      <trkpt lat="30.466385" lon="-98.02258">
        <ele>224.087484</ele>
        <time>2025-04-26T08:45:35.000Z</time>
      </trkpt>
      <trkpt lat="30.466685" lon="-98.022518">
        <ele>223.325944</ele>
        <time>2025-04-26T08:45:38.000Z</time>
      </trkpt>
      <trkpt lat="30.466905" lon="-98.022662">
        <ele>222.671371</ele>
        <time>2025-04-26T08:45:41.000Z</time>
      </trkpt>
      <trkpt lat="30.467013" lon="-98.022703">
        <ele>222.398388</ele>
        <time>2025-04-26T08:45:42.000Z</time>
      </trkpt>
      <trkpt lat="30.467181" lon="-98.022853">
        <ele>221.865217</ele>
        <time>2025-04-26T08:45:44.000Z</time>
      </trkpt>
      <trkpt lat="30.467466" lon="-98.022875">
        <ele>222.315508</ele>
        <time>2025-04-26T08:45:47.000Z</time>
      </trkpt>
      <trkpt lat="30.467353" lon="-98.022831">
        <ele>222.55298</ele>
        <time>2025-04-26T08:45:48.000Z</time>
      </trkpt>
      <trkpt lat="30.467323" lon="-98.02278">
        <ele>222.678146</ele>
        <time>2025-04-26T08:45:49.000Z</time>
      </trkpt>
      <trkpt lat="30.467306" lon="-98.022673">
        <ele>222.903128</ele>
        <time>2025-04-26T08:45:50.000Z</time>
      </trkpt>
      <trkpt lat="30.467379" lon="-98.022587">
        <ele>223.116084</ele>
        <time>2025-04-26T08:45:51.000Z</time>
      </trkpt>
      <trkpt lat="30.467456" lon="-98.022547">
        <ele>223.350523</ele>
        <time>2025-04-26T08:45:52.000Z</time>
      </trkpt>
      <trkpt lat="30.467536" lon="-98.022468">
        <ele>223.588207</ele>
        <time>2025-04-26T08:45:53.000Z</time>
      </trkpt>
      <trkpt lat="30.467617" lon="-98.022371">
        <ele>223.839639</ele>
        <time>2025-04-26T08:45:54.000Z</time>
      </trkpt>
      <trkpt lat="30.467665" lon="-98.022241">
        <ele>224.114844</ele>
        <time>2025-04-26T08:45:55.000Z</time>
      </trkpt>
      <trkpt lat="30.467678" lon="-98.022094">
        <ele>224.421353</ele>
        <time>2025-04-26T08:45:56.000Z</time>
      </trkpt>
      <trkpt lat="30.467637" lon="-98.022026">
        <ele>224.58948</ele>
        <time>2025-04-26T08:45:57.000Z</time>
      </trkpt>
      <trkpt lat="30.467622" lon="-98.021917">
        <ele>224.804876</ele>
        <time>2025-04-26T08:45:58.000Z</time>
      </trkpt>
      <trkpt lat="30.46766" lon="-98.021725">
        <ele>225.211948</ele>
        <time>2025-04-26T08:46:00.000Z</time>
      </trkpt>
      <trkpt lat="30.467614" lon="-98.021589">
        <ele>225.504866</ele>
        <time>2025-04-26T08:46:01.000Z</time>
      </trkpt>
      <trkpt lat="30.467653" lon="-98.021514">
        <ele>225.663953</ele>
        <time>2025-04-26T08:46:02.000Z</time>
      </trkpt>
      <trkpt lat="30.467673" lon="-98.021352">
        <ele>226.043645</ele>
        <time>2025-04-26T08:46:04.000Z</time>
      </trkpt>
      <trkpt lat="30.467671" lon="-98.021347">
        <ele>226.05999</ele>
        <time>2025-04-26T08:46:04.000Z</time>
      </trkpt>
      <trkpt lat="30.468019" lon="-98.021322">
        <ele>227.414246</ele>
        <time>2025-04-26T08:46:08.000Z</time>
      </trkpt>
      <trkpt lat="30.468088" lon="-98.021264">
        <ele>227.7232</ele>
        <time>2025-04-26T08:46:09.000Z</time>
      </trkpt>
      <trkpt lat="30.468101" lon="-98.021171">
        <ele>228.005815</ele>
        <time>2025-04-26T08:46:10.000Z</time>
      </trkpt>
      <trkpt lat="30.468082" lon="-98.021079">
        <ele>228.302339</ele>
        <time>2025-04-26T08:46:11.000Z</time>
      </trkpt>
      <trkpt lat="30.468031" lon="-98.021037">
        <ele>228.584225</ele>
        <time>2025-04-26T08:46:12.000Z</time>
      </trkpt>
      <trkpt lat="30.467903" lon="-98.021008">
        <ele>229.045788</ele>
        <time>2025-04-26T08:46:13.000Z</time>
      </trkpt>
      <trkpt lat="30.467711" lon="-98.020917">
        <ele>229.824951</ele>
        <time>2025-04-26T08:46:15.000Z</time>
      </trkpt>
      <trkpt lat="30.467664" lon="-98.020863">
        <ele>230.100975</ele>
        <time>2025-04-26T08:46:16.000Z</time>
      </trkpt>
      <trkpt lat="30.467653" lon="-98.020768">
        <ele>230.39982</ele>
        <time>2025-04-26T08:46:17.000Z</time>
      </trkpt>
      <trkpt lat="30.467615" lon="-98.02072">
        <ele>230.639898</ele>
        <time>2025-04-26T08:46:18.000Z</time>
      </trkpt>
      <trkpt lat="30.46757" lon="-98.020711">
        <ele>230.830453</ele>
        <time>2025-04-26T08:46:19.000Z</time>
      </trkpt>
      <trkpt lat="30.467548" lon="-98.020782">
        <ele>231.042007</ele>
        <time>2025-04-26T08:46:20.000Z</time>
      </trkpt>
      <trkpt lat="30.467482" lon="-98.02082">
        <ele>231.297887</ele>
        <time>2025-04-26T08:46:21.000Z</time>
      </trkpt>
      <trkpt lat="30.467428" lon="-98.020836">
        <ele>231.529936</ele>
        <time>2025-04-26T08:46:22.000Z</time>
      </trkpt>
      <trkpt lat="30.467372" lon="-98.020895">
        <ele>231.819496</ele>
        <time>2025-04-26T08:46:23.000Z</time>
      </trkpt>
      <trkpt lat="30.467333" lon="-98.02098">
        <ele>232.144331</ele>
        <time>2025-04-26T08:46:24.000Z</time>
      </trkpt>
      <trkpt lat="30.467315" lon="-98.021131">
        <ele>232.66076</ele>
        <time>2025-04-26T08:46:25.000Z</time>
      </trkpt>
      <trkpt lat="30.467309" lon="-98.021142">
        <ele>232.677263</ele>
        <time>2025-04-26T08:46:25.000Z</time>
      </trkpt>
      <trkpt lat="30.467264" lon="-98.021156">
        <ele>232.827982</ele>
        <time>2025-04-26T08:46:26.000Z</time>
      </trkpt>
      <trkpt lat="30.46719" lon="-98.02115">
        <ele>233.017281</ele>
        <time>2025-04-26T08:46:27.000Z</time>
      </trkpt>
      <trkpt lat="30.467019" lon="-98.021196">
        <ele>233.436439</ele>
        <time>2025-04-26T08:46:29.000Z</time>
      </trkpt>
      <trkpt lat="30.466953" lon="-98.021204">
        <ele>233.567077</ele>
        <time>2025-04-26T08:46:30.000Z</time>
      </trkpt>
      <trkpt lat="30.466909" lon="-98.021147">
        <ele>233.714793</ele>
        <time>2025-04-26T08:46:31.000Z</time>
      </trkpt>
      <trkpt lat="30.466854" lon="-98.021146">
        <ele>233.853097</ele>
        <time>2025-04-26T08:46:32.000Z</time>
      </trkpt>
      <trkpt lat="30.466767" lon="-98.021268">
        <ele>234.166788</ele>
        <time>2025-04-26T08:46:34.000Z</time>
      </trkpt>
      <trkpt lat="30.466548" lon="-98.021068">
        <ele>234.82559</ele>
        <time>2025-04-26T08:46:37.000Z</time>
      </trkpt>
      <trkpt lat="30.46661" lon="-98.020914">
        <ele>235.162724</ele>
        <time>2025-04-26T08:46:39.000Z</time>
      </trkpt>
      <trkpt lat="30.466566" lon="-98.020847">
        <ele>235.321717</ele>
        <time>2025-04-26T08:46:40.000Z</time>
      </trkpt>
      <trkpt lat="30.46645" lon="-98.02087">
        <ele>235.599171</ele>
        <time>2025-04-26T08:46:41.000Z</time>
      </trkpt>
      <trkpt lat="30.46632" lon="-98.02083">
        <ele>235.925897</ele>
        <time>2025-04-26T08:46:42.000Z</time>
      </trkpt>
      <trkpt lat="30.466265" lon="-98.020766">
        <ele>236.116681</ele>
        <time>2025-04-26T08:46:43.000Z</time>
      </trkpt>
      <trkpt lat="30.466189" lon="-98.020741">
        <ele>236.315233</ele>
        <time>2025-04-26T08:46:44.000Z</time>
      </trkpt>
      <trkpt lat="30.466105" lon="-98.020638">
        <ele>236.609542</ele>
        <time>2025-04-26T08:46:45.000Z</time>
      </trkpt>
      <trkpt lat="30.466016" lon="-98.020685">
        <ele>236.823787</ele>
        <time>2025-04-26T08:46:46.000Z</time>
      </trkpt>
      <trkpt lat="30.465994" lon="-98.020778">
        <ele>236.966843</ele>
        <time>2025-04-26T08:46:47.000Z</time>
      </trkpt>
      <trkpt lat="30.465939" lon="-98.020794">
        <ele>236.971296</ele>
        <time>2025-04-26T08:46:48.000Z</time>
      </trkpt>
      <trkpt lat="30.465801" lon="-98.02077">
        <ele>236.984113</ele>
        <time>2025-04-26T08:46:50.000Z</time>
      </trkpt>
      <trkpt lat="30.465728" lon="-98.020733">
        <ele>236.990543</ele>
        <time>2025-04-26T08:46:51.000Z</time>
      </trkpt>
      <trkpt lat="30.46568" lon="-98.020664">
        <ele>236.997051</ele>
        <time>2025-04-26T08:46:52.000Z</time>
      </trkpt>
      <trkpt lat="30.465693" lon="-98.020583">
        <ele>237.002434</ele>
        <time>2025-04-26T08:46:53.000Z</time>
      </trkpt>
      <trkpt lat="30.465823" lon="-98.020539">
        <ele>237.013799</ele>
        <time>2025-04-26T08:46:55.000Z</time>
      </trkpt>
      <trkpt lat="30.465926" lon="-98.020287">
        <ele>237.034236</ele>
        <time>2025-04-26T08:46:58.000Z</time>
      </trkpt>
      <trkpt lat="30.465877" lon="-98.020211">
        <ele>237.040478</ele>
        <time>2025-04-26T08:46:59.000Z</time>
      </trkpt>
      <trkpt lat="30.465817" lon="-98.020217">
        <ele>237.046234</ele>
        <time>2025-04-26T08:47:00.000Z</time>
      </trkpt>
      <trkpt lat="30.46575" lon="-98.020267">
        <ele>237.052803</ele>
        <time>2025-04-26T08:47:01.000Z</time>
      </trkpt>
      <trkpt lat="30.465709" lon="-98.020322">
        <ele>237.058816</ele>
        <time>2025-04-26T08:47:02.000Z</time>
      </trkpt>
      <trkpt lat="30.465652" lon="-98.020343">
        <ele>237.064278</ele>
        <time>2025-04-26T08:47:03.000Z</time>
      </trkpt>
      <trkpt lat="30.4656" lon="-98.020328">
        <ele>237.068997</ele>
        <time>2025-04-26T08:47:04.000Z</time>
      </trkpt>
      <trkpt lat="30.465547" lon="-98.02022">
        <ele>237.077899</ele>
        <time>2025-04-26T08:47:05.000Z</time>
      </trkpt>
      <trkpt lat="30.465485" lon="-98.020217">
        <ele>237.083238</ele>
        <time>2025-04-26T08:47:06.000Z</time>
      </trkpt>
      <trkpt lat="30.4654" lon="-98.020285">
        <ele>237.091892</ele>
        <time>2025-04-26T08:47:07.000Z</time>
      </trkpt>
      <trkpt lat="30.465102" lon="-98.020703">
        <ele>237.176194</ele>
        <time>2025-04-26T08:47:12.000Z</time>
      </trkpt>
      <trkpt lat="30.465038" lon="-98.020749">
        <ele>237.203768</ele>
        <time>2025-04-26T08:47:13.000Z</time>
      </trkpt>
      <trkpt lat="30.464952" lon="-98.020744">
        <ele>237.241515</ele>
        <time>2025-04-26T08:47:14.000Z</time>
      </trkpt>
      <trkpt lat="30.464893" lon="-98.020808">
        <ele>237.272265</ele>
        <time>2025-04-26T08:47:15.000Z</time>
      </trkpt>
      <trkpt lat="30.464864" lon="-98.020903">
        <ele>237.303697</ele>
        <time>2025-04-26T08:47:16.000Z</time>
      </trkpt>
      <trkpt lat="30.464946" lon="-98.020945">
        <ele>237.333459</ele>
        <time>2025-04-26T08:47:17.000Z</time>
      </trkpt>
      <trkpt lat="30.465097" lon="-98.020932">
        <ele>237.390172</ele>
        <time>2025-04-26T08:47:19.000Z</time>
      </trkpt>
      <trkpt lat="30.46512" lon="-98.020992">
        <ele>237.412997</ele>
        <time>2025-04-26T08:47:20.000Z</time>
      </trkpt>
      <trkpt lat="30.465052" lon="-98.02103">
        <ele>237.442363</ele>
        <time>2025-04-26T08:47:21.000Z</time>
      </trkpt>
      <trkpt lat="30.464932" lon="-98.021051">
        <ele>237.485406</ele>
        <time>2025-04-26T08:47:22.000Z</time>
      </trkpt>
      <trkpt lat="30.464835" lon="-98.021024">
        <ele>237.526649</ele>
        <time>2025-04-26T08:47:23.000Z</time>
      </trkpt>
      <trkpt lat="30.464632" lon="-98.020865">
        <ele>237.620783</ele>
        <time>2025-04-26T08:47:26.000Z</time>
      </trkpt>
      <trkpt lat="30.464618" lon="-98.020796">
        <ele>237.642981</ele>
        <time>2025-04-26T08:47:27.000Z</time>
      </trkpt>
      <trkpt lat="30.46458" lon="-98.020733">
        <ele>237.666694</ele>
        <time>2025-04-26T08:47:28.000Z</time>
      </trkpt>
      <trkpt lat="30.464564" lon="-98.020669">
        <ele>237.687496</ele>
        <time>2025-04-26T08:47:29.000Z</time>
      </trkpt>
      <trkpt lat="30.464685" lon="-98.020535">
        <ele>237.753873</ele>
        <time>2025-04-26T08:47:31.000Z</time>
      </trkpt>
      <trkpt lat="30.464851" lon="-98.020495">
        <ele>237.869137</ele>
        <time>2025-04-26T08:47:33.000Z</time>
      </trkpt>
      <trkpt lat="30.464866" lon="-98.020413">
        <ele>237.975481</ele>
        <time>2025-04-26T08:47:34.000Z</time>
      </trkpt>
      <trkpt lat="30.464841" lon="-98.020369">
        <ele>238.072421</ele>
        <time>2025-04-26T08:47:35.000Z</time>
      </trkpt>
      <trkpt lat="30.464841" lon="-98.020243">
        <ele>238.283475</ele>
        <time>2025-04-26T08:47:36.000Z</time>
      </trkpt>
      <trkpt lat="30.464784" lon="-98.020194">
        <ele>238.431569</ele>
        <time>2025-04-26T08:47:37.000Z</time>
      </trkpt>
      <trkpt lat="30.464695" lon="-98.020192">
        <ele>238.570885</ele>
        <time>2025-04-26T08:47:38.000Z</time>
      </trkpt>
      <trkpt lat="30.464661" lon="-98.020112">
        <ele>238.726505</ele>
        <time>2025-04-26T08:47:39.000Z</time>
      </trkpt>
      <trkpt lat="30.464664" lon="-98.019973">
        <ele>238.953891</ele>
        <time>2025-04-26T08:47:40.000Z</time>
      </trkpt>
      <trkpt lat="30.464743" lon="-98.019883">
        <ele>239.17901</ele>
        <time>2025-04-26T08:47:41.000Z</time>
      </trkpt>
      <trkpt lat="30.464722" lon="-98.019806">
        <ele>239.305292</ele>
        <time>2025-04-26T08:47:42.000Z</time>
      </trkpt>
      <trkpt lat="30.464799" lon="-98.019574">
        <ele>239.701916</ele>
        <time>2025-04-26T08:47:44.000Z</time>
      </trkpt>
      <trkpt lat="30.464878" lon="-98.019522">
        <ele>239.88324</ele>
        <time>2025-04-26T08:47:45.000Z</time>
      </trkpt>
      <trkpt lat="30.464996" lon="-98.019536">
        <ele>240.098475</ele>
        <time>2025-04-26T08:47:46.000Z</time>
      </trkpt>
      <trkpt lat="30.465379" lon="-98.019504">
        <ele>240.827333</ele>
        <time>2025-04-26T08:47:50.000Z</time>
      </trkpt>
      <trkpt lat="30.465456" lon="-98.019547">
        <ele>241.005584</ele>
        <time>2025-04-26T08:47:51.000Z</time>
      </trkpt>
      <trkpt lat="30.465489" lon="-98.019744">
        <ele>241.16684</ele>
        <time>2025-04-26T08:47:53.000Z</time>
      </trkpt>
      <trkpt lat="30.465519" lon="-98.019799">
        <ele>241.122504</ele>
        <time>2025-04-26T08:47:54.000Z</time>
      </trkpt>
      <trkpt lat="30.465605" lon="-98.019776">
        <ele>241.047149</ele>
        <time>2025-04-26T08:47:55.000Z</time>
      </trkpt>
      <trkpt lat="30.46564" lon="-98.019727">
        <ele>240.994706</ele>
        <time>2025-04-26T08:47:56.000Z</time>
      </trkpt>
      <trkpt lat="30.465836" lon="-98.019675">
        <ele>240.831321</ele>
        <time>2025-04-26T08:47:58.000Z</time>
      </trkpt>
      <trkpt lat="30.465854" lon="-98.019728">
        <ele>240.790092</ele>
        <time>2025-04-26T08:47:59.000Z</time>
      </trkpt>
      <trkpt lat="30.465956" lon="-98.019721">
        <ele>240.710118</ele>
        <time>2025-04-26T08:48:00.000Z</time>
      </trkpt>
      <trkpt lat="30.466027" lon="-98.019784">
        <ele>240.643977</ele>
        <time>2025-04-26T08:48:01.000Z</time>
      </trkpt>
      <trkpt lat="30.466252" lon="-98.019807">
        <ele>240.450808</ele>
        <time>2025-04-26T08:48:04.000Z</time>
      </trkpt>
      <trkpt lat="30.466339" lon="-98.019884">
        <ele>240.362678</ele>
        <time>2025-04-26T08:48:05.000Z</time>
      </trkpt>
      <trkpt lat="30.466384" lon="-98.020021">
        <ele>240.24364</ele>
        <time>2025-04-26T08:48:06.000Z</time>
      </trkpt>
      <trkpt lat="30.466435" lon="-98.020057">
        <ele>240.197009</ele>
        <time>2025-04-26T08:48:07.000Z</time>
      </trkpt>
      <trkpt lat="30.466473" lon="-98.020157">
        <ele>240.117046</ele>
        <time>2025-04-26T08:48:08.000Z</time>
      </trkpt>
      <trkpt lat="30.466587" lon="-98.020094">
        <ele>240.01839</ele>
        <time>2025-04-26T08:48:09.000Z</time>
      </trkpt>
      <trkpt lat="30.466685" lon="-98.020094">
        <ele>239.924093</ele>
        <time>2025-04-26T08:48:10.000Z</time>
      </trkpt>
      <trkpt lat="30.466758" lon="-98.020047">
        <ele>239.857293</ele>
        <time>2025-04-26T08:48:11.000Z</time>
      </trkpt>
      <trkpt lat="30.466839" lon="-98.01985">
        <ele>239.705102</ele>
        <time>2025-04-26T08:48:13.000Z</time>
      </trkpt>
      <trkpt lat="30.466908" lon="-98.019861">
        <ele>239.714414</ele>
        <time>2025-04-26T08:48:14.000Z</time>
      </trkpt>
      <trkpt lat="30.466941" lon="-98.019945">
        <ele>239.726602</ele>
        <time>2025-04-26T08:48:15.000Z</time>
      </trkpt>
      <trkpt lat="30.467001" lon="-98.019986">
        <ele>239.735248</ele>
        <time>2025-04-26T08:48:16.000Z</time>
      </trkpt>
      <trkpt lat="30.467104" lon="-98.020002">
        <ele>239.750681</ele>
        <time>2025-04-26T08:48:17.000Z</time>
      </trkpt>
      <trkpt lat="30.467157" lon="-98.019983">
        <ele>239.75898</ele>
        <time>2025-04-26T08:48:18.000Z</time>
      </trkpt>
      <trkpt lat="30.467176" lon="-98.019904">
        <ele>239.769398</ele>
        <time>2025-04-26T08:48:19.000Z</time>
      </trkpt>
      <trkpt lat="30.46726" lon="-98.019818">
        <ele>239.785588</ele>
        <time>2025-04-26T08:48:20.000Z</time>
      </trkpt>
      <trkpt lat="30.467218" lon="-98.019682">
        <ele>239.805161</ele>
        <time>2025-04-26T08:48:21.000Z</time>
      </trkpt>
      <trkpt lat="30.466944" lon="-98.019552">
        <ele>239.848647</ele>
        <time>2025-04-26T08:48:24.000Z</time>
      </trkpt>
      <trkpt lat="30.466901" lon="-98.019474">
        <ele>239.860445</ele>
        <time>2025-04-26T08:48:25.000Z</time>
      </trkpt>
      <trkpt lat="30.466935" lon="-98.01936">
        <ele>239.875992</ele>
        <time>2025-04-26T08:48:26.000Z</time>
      </trkpt>
      <trkpt lat="30.467034" lon="-98.019169">
        <ele>239.904794</ele>
        <time>2025-04-26T08:48:28.000Z</time>
      </trkpt>
      <trkpt lat="30.467053" lon="-98.019094">
        <ele>239.91482</ele>
        <time>2025-04-26T08:48:29.000Z</time>
      </trkpt>
      <trkpt lat="30.466946" lon="-98.018996">
        <ele>239.934927</ele>
        <time>2025-04-26T08:48:31.000Z</time>
      </trkpt>
      <trkpt lat="30.466916" lon="-98.01894">
        <ele>239.943412</ele>
        <time>2025-04-26T08:48:32.000Z</time>
      </trkpt>
      <trkpt lat="30.46701" lon="-98.018693">
        <ele>240.01403</ele>
        <time>2025-04-26T08:48:35.000Z</time>
      </trkpt>
      <trkpt lat="30.466963" lon="-98.018673">
        <ele>240.069003</ele>
        <time>2025-04-26T08:48:36.000Z</time>
      </trkpt>
      <trkpt lat="30.466847" lon="-98.018674">
        <ele>240.211084</ele>
        <time>2025-04-26T08:48:37.000Z</time>
      </trkpt>
      <trkpt lat="30.46678" lon="-98.018648">
        <ele>240.284649</ele>
        <time>2025-04-26T08:48:38.000Z</time>
      </trkpt>
      <trkpt lat="30.466775" lon="-98.018457">
        <ele>240.468284</ele>
        <time>2025-04-26T08:48:40.000Z</time>
      </trkpt>
      <trkpt lat="30.466316" lon="-98.018614">
        <ele>241.012795</ele>
        <time>2025-04-26T08:48:45.000Z</time>
      </trkpt>
      <trkpt lat="30.466299" lon="-98.01853">
        <ele>241.103912</ele>
        <time>2025-04-26T08:48:46.000Z</time>
      </trkpt>
      <trkpt lat="30.466197" lon="-98.018501">
        <ele>241.209258</ele>
        <time>2025-04-26T08:48:47.000Z</time>
      </trkpt>
      <trkpt lat="30.466092" lon="-98.018646">
        <ele>241.39503</ele>
        <time>2025-04-26T08:48:49.000Z</time>
      </trkpt>
      <trkpt lat="30.466017" lon="-98.018624">
        <ele>241.46931</ele>
        <time>2025-04-26T08:48:50.000Z</time>
      </trkpt>
      <trkpt lat="30.465906" lon="-98.018507">
        <ele>241.639935</ele>
        <time>2025-04-26T08:48:52.000Z</time>
      </trkpt>
      <trkpt lat="30.465924" lon="-98.018596">
        <ele>241.738329</ele>
        <time>2025-04-26T08:48:53.000Z</time>
      </trkpt>
      <trkpt lat="30.465879" lon="-98.018819">
        <ele>241.954935</ele>
        <time>2025-04-26T08:48:55.000Z</time>
      </trkpt>
      <trkpt lat="30.465558" lon="-98.019023">
        <ele>242.231103</ele>
        <time>2025-04-26T08:48:59.000Z</time>
      </trkpt>
      <trkpt lat="30.464888" lon="-98.019321">
        <ele>242.735602</ele>
        <time>2025-04-26T08:49:07.000Z</time>
      </trkpt>
      <trkpt lat="30.464771" lon="-98.019337">
        <ele>242.818744</ele>
        <time>2025-04-26T08:49:08.000Z</time>
      </trkpt>
      <trkpt lat="30.464496" lon="-98.019175">
        <ele>243.0302</ele>
        <time>2025-04-26T08:49:11.000Z</time>
      </trkpt>
      <trkpt lat="30.464212" lon="-98.019236">
        <ele>243.236275</ele>
        <time>2025-04-26T08:49:14.000Z</time>
      </trkpt>
      <trkpt lat="30.463875" lon="-98.019184">
        <ele>243.298613</ele>
        <time>2025-04-26T08:49:18.000Z</time>
      </trkpt>
      <trkpt lat="30.463743" lon="-98.019227">
        <ele>243.307989</ele>
        <time>2025-04-26T08:49:20.000Z</time>
      </trkpt>
      <trkpt lat="30.463566" lon="-98.019355">
        <ele>243.322069</ele>
        <time>2025-04-26T08:49:22.000Z</time>
      </trkpt>
      <trkpt lat="30.463466" lon="-98.01936">
        <ele>243.329817</ele>
        <time>2025-04-26T08:49:23.000Z</time>
      </trkpt>
      <trkpt lat="30.463049" lon="-98.019327">
        <ele>243.359473</ele>
        <time>2025-04-26T08:49:28.000Z</time>
      </trkpt>
      <trkpt lat="30.462921" lon="-98.019346">
        <ele>243.368518</ele>
        <time>2025-04-26T08:49:29.000Z</time>
      </trkpt>
      <trkpt lat="30.462741" lon="-98.019481">
        <ele>243.383194</ele>
        <time>2025-04-26T08:49:31.000Z</time>
      </trkpt>
      <trkpt lat="30.462626" lon="-98.019488">
        <ele>243.391937</ele>
        <time>2025-04-26T08:49:32.000Z</time>
      </trkpt>
      <trkpt lat="30.462529" lon="-98.019533">
        <ele>243.399785</ele>
        <time>2025-04-26T08:49:33.000Z</time>
      </trkpt>
      <trkpt lat="30.462407" lon="-98.019652">
        <ele>243.393014</ele>
        <time>2025-04-26T08:49:35.000Z</time>
      </trkpt>
      <trkpt lat="30.462385" lon="-98.019823">
        <ele>243.368996</ele>
        <time>2025-04-26T08:49:37.000Z</time>
      </trkpt>
      <trkpt lat="30.462374" lon="-98.019924">
        <ele>243.352205</ele>
        <time>2025-04-26T08:49:38.000Z</time>
      </trkpt>
      <trkpt lat="30.462481" lon="-98.02009">
        <ele>243.322401</ele>
        <time>2025-04-26T08:49:40.000Z</time>
      </trkpt>
      <trkpt lat="30.462501" lon="-98.020191">
        <ele>243.308995</ele>
        <time>2025-04-26T08:49:41.000Z</time>
      </trkpt>
      <trkpt lat="30.462465" lon="-98.020256">
        <ele>243.297198</ele>
        <time>2025-04-26T08:49:42.000Z</time>
      </trkpt>
      <trkpt lat="30.462277" lon="-98.020408">
        <ele>243.2576</ele>
        <time>2025-04-26T08:49:45.000Z</time>
      </trkpt>
      <trkpt lat="30.46201" lon="-98.020992">
        <ele>243.159243</ele>
        <time>2025-04-26T08:49:51.000Z</time>
      </trkpt>
      <trkpt lat="30.461976" lon="-98.021173">
        <ele>243.129668</ele>
        <time>2025-04-26T08:49:53.000Z</time>
      </trkpt>
      <trkpt lat="30.462036" lon="-98.021258">
        <ele>243.113891</ele>
        <time>2025-04-26T08:49:54.000Z</time>
      </trkpt>
      <trkpt lat="30.462183" lon="-98.021372">
        <ele>243.089134</ele>
        <time>2025-04-26T08:49:56.000Z</time>
      </trkpt>
      <trkpt lat="30.462229" lon="-98.021467">
        <ele>243.080888</ele>
        <time>2025-04-26T08:49:57.000Z</time>
      </trkpt>
      <trkpt lat="30.462453" lon="-98.021581">
        <ele>243.06127</ele>
        <time>2025-04-26T08:50:00.000Z</time>
      </trkpt>
      <trkpt lat="30.462486" lon="-98.021691">
        <ele>243.053335</ele>
        <time>2025-04-26T08:50:01.000Z</time>
      </trkpt>
      <trkpt lat="30.462478" lon="-98.021803">
        <ele>243.044158</ele>
        <time>2025-04-26T08:50:02.000Z</time>
      </trkpt>
      <trkpt lat="30.462487" lon="-98.021913">
        <ele>243.036294</ele>
        <time>2025-04-26T08:50:03.000Z</time>
      </trkpt>
      <trkpt lat="30.462619" lon="-98.022184">
        <ele>243.013959</ele>
        <time>2025-04-26T08:50:06.000Z</time>
      </trkpt>
      <trkpt lat="30.462742" lon="-98.022409">
        <ele>242.995717</ele>
        <time>2025-04-26T08:50:09.000Z</time>
      </trkpt>
      <trkpt lat="30.462904" lon="-98.022507">
        <ele>242.980122</ele>
        <time>2025-04-26T08:50:11.000Z</time>
      </trkpt>
      <trkpt lat="30.462923" lon="-98.022602">
        <ele>242.973074</ele>
        <time>2025-04-26T08:50:12.000Z</time>
      </trkpt>
      <trkpt lat="30.46303" lon="-98.02277">
        <ele>242.958115</ele>
        <time>2025-04-26T08:50:14.000Z</time>
      </trkpt>
      <trkpt lat="30.462797" lon="-98.022955">
        <ele>242.891018</ele>
        <time>2025-04-26T08:50:17.000Z</time>
      </trkpt>
      <trkpt lat="30.462677" lon="-98.022989">
        <ele>242.83479</ele>
        <time>2025-04-26T08:50:18.000Z</time>
      </trkpt>
      <trkpt lat="30.462433" lon="-98.022941">
        <ele>242.721006</ele>
        <time>2025-04-26T08:50:21.000Z</time>
      </trkpt>
      <trkpt lat="30.462168" lon="-98.023019">
        <ele>242.601616</ele>
        <time>2025-04-26T08:50:24.000Z</time>
      </trkpt>
      <trkpt lat="30.461956" lon="-98.023068">
        <ele>242.50033</ele>
        <time>2025-04-26T08:50:26.000Z</time>
      </trkpt>
      <trkpt lat="30.461838" lon="-98.023053">
        <ele>242.445432</ele>
        <time>2025-04-26T08:50:27.000Z</time>
      </trkpt>
      <trkpt lat="30.461606" lon="-98.022921">
        <ele>242.33085</ele>
        <time>2025-04-26T08:50:30.000Z</time>
      </trkpt>
      <trkpt lat="30.46134" lon="-98.022961">
        <ele>242.211425</ele>
        <time>2025-04-26T08:50:33.000Z</time>
      </trkpt>
      <trkpt lat="30.461206" lon="-98.022932">
        <ele>242.148574</ele>
        <time>2025-04-26T08:50:35.000Z</time>
      </trkpt>
      <trkpt lat="30.460919" lon="-98.022814">
        <ele>242.187462</ele>
        <time>2025-04-26T08:50:38.000Z</time>
      </trkpt>
      <trkpt lat="30.460803" lon="-98.022715">
        <ele>242.216479</ele>
        <time>2025-04-26T08:50:40.000Z</time>
      </trkpt>
      <trkpt lat="30.460733" lon="-98.022446">
        <ele>242.261145</ele>
        <time>2025-04-26T08:50:43.000Z</time>
      </trkpt>
      <trkpt lat="30.460656" lon="-98.022333">
        <ele>242.2835</ele>
        <time>2025-04-26T08:50:44.000Z</time>
      </trkpt>
      <trkpt lat="30.460583" lon="-98.022332">
        <ele>242.297805</ele>
        <time>2025-04-26T08:50:45.000Z</time>
      </trkpt>
      <trkpt lat="30.460441" lon="-98.022253">
        <ele>242.330376</ele>
        <time>2025-04-26T08:50:47.000Z</time>
      </trkpt>
      <trkpt lat="30.460322" lon="-98.022252">
        <ele>242.35026</ele>
        <time>2025-04-26T08:50:48.000Z</time>
      </trkpt>
      <trkpt lat="30.460246" lon="-98.022337">
        <ele>242.371938</ele>
        <time>2025-04-26T08:50:49.000Z</time>
      </trkpt>
      <trkpt lat="30.460002" lon="-98.022474">
        <ele>242.42443</ele>
        <time>2025-04-26T08:50:52.000Z</time>
      </trkpt>
      <trkpt lat="30.459853" lon="-98.02251">
        <ele>242.45184</ele>
        <time>2025-04-26T08:50:54.000Z</time>
      </trkpt>
      <trkpt lat="30.459733" lon="-98.022494">
        <ele>242.476487</ele>
        <time>2025-04-26T08:50:55.000Z</time>
      </trkpt>
      <trkpt lat="30.45928" lon="-98.02261">
        <ele>242.147143</ele>
        <time>2025-04-26T08:51:00.000Z</time>
      </trkpt>
      <trkpt lat="30.459285" lon="-98.022613">
        <ele>242.141527</ele>
        <time>2025-04-26T08:51:00.000Z</time>
      </trkpt>
      <trkpt lat="30.458989" lon="-98.022737">
        <ele>241.905458</ele>
        <time>2025-04-26T08:51:03.000Z</time>
      </trkpt>
      <trkpt lat="30.458802" lon="-98.022911">
        <ele>241.71673</ele>
        <time>2025-04-26T08:51:06.000Z</time>
      </trkpt>
      <trkpt lat="30.458684" lon="-98.022953">
        <ele>241.62024</ele>
        <time>2025-04-26T08:51:07.000Z</time>
      </trkpt>
      <trkpt lat="30.458407" lon="-98.022991">
        <ele>241.403325</ele>
        <time>2025-04-26T08:51:10.000Z</time>
      </trkpt>
      <trkpt lat="30.458281" lon="-98.022888">
        <ele>241.290957</ele>
        <time>2025-04-26T08:51:12.000Z</time>
      </trkpt>
      <trkpt lat="30.458216" lon="-98.022801">
        <ele>241.204101</ele>
        <time>2025-04-26T08:51:13.000Z</time>
      </trkpt>
      <trkpt lat="30.457963" lon="-98.022265">
        <ele>241.821781</ele>
        <time>2025-04-26T08:51:19.000Z</time>
      </trkpt>
      <trkpt lat="30.457955" lon="-98.022171">
        <ele>241.955936</ele>
        <time>2025-04-26T08:51:20.000Z</time>
      </trkpt>
      <trkpt lat="30.458048" lon="-98.022067">
        <ele>242.226899</ele>
        <time>2025-04-26T08:51:21.000Z</time>
      </trkpt>
      <trkpt lat="30.458071" lon="-98.021929">
        <ele>242.462661</ele>
        <time>2025-04-26T08:51:22.000Z</time>
      </trkpt>
      <trkpt lat="30.458214" lon="-98.021839">
        <ele>242.766468</ele>
        <time>2025-04-26T08:51:24.000Z</time>
      </trkpt>
      <trkpt lat="30.458245" lon="-98.021723">
        <ele>242.963245</ele>
        <time>2025-04-26T08:51:25.000Z</time>
      </trkpt>
      <trkpt lat="30.45829" lon="-98.021449">
        <ele>243.44028</ele>
        <time>2025-04-26T08:51:28.000Z</time>
      </trkpt>
      <trkpt lat="30.458239" lon="-98.021285">
        <ele>243.753086</ele>
        <time>2025-04-26T08:51:30.000Z</time>
      </trkpt>
      <trkpt lat="30.458231" lon="-98.021217">
        <ele>243.864944</ele>
        <time>2025-04-26T08:51:31.000Z</time>
      </trkpt>
      <trkpt lat="30.45827" lon="-98.021129">
        <ele>244.048221</ele>
        <time>2025-04-26T08:51:32.000Z</time>
      </trkpt>
      <trkpt lat="30.458361" lon="-98.02112">
        <ele>244.261867</ele>
        <time>2025-04-26T08:51:33.000Z</time>
      </trkpt>
      <trkpt lat="30.458449" lon="-98.020941">
        <ele>244.597587</ele>
        <time>2025-04-26T08:51:35.000Z</time>
      </trkpt>
      <trkpt lat="30.458398" lon="-98.020594">
        <ele>244.287663</ele>
        <time>2025-04-26T08:51:38.000Z</time>
      </trkpt>
      <trkpt lat="30.458391" lon="-98.019927">
        <ele>243.460833</ele>
        <time>2025-04-26T08:51:44.000Z</time>
      </trkpt>
      <trkpt lat="30.45842" lon="-98.019836">
        <ele>243.350179</ele>
        <time>2025-04-26T08:51:45.000Z</time>
      </trkpt>
      <trkpt lat="30.458408" lon="-98.019484">
        <ele>242.907882</ele>
        <time>2025-04-26T08:51:48.000Z</time>
      </trkpt>
      <trkpt lat="30.458433" lon="-98.019196">
        <ele>242.543408</ele>
        <time>2025-04-26T08:51:51.000Z</time>
      </trkpt>
      <trkpt lat="30.458443" lon="-98.019099">
        <ele>242.413864</ele>
        <time>2025-04-26T08:51:52.000Z</time>
      </trkpt>
      <trkpt lat="30.458571" lon="-98.019026">
        <ele>242.223492</ele>
        <time>2025-04-26T08:51:54.000Z</time>
      </trkpt>
      <trkpt lat="30.458608" lon="-98.018975">
        <ele>242.119617</ele>
        <time>2025-04-26T08:51:55.000Z</time>
      </trkpt>
      <trkpt lat="30.458687" lon="-98.018971">
        <ele>242.075813</ele>
        <time>2025-04-26T08:51:56.000Z</time>
      </trkpt>
      <trkpt lat="30.458754" lon="-98.018958">
        <ele>242.066499</ele>
        <time>2025-04-26T08:51:57.000Z</time>
      </trkpt>
      <trkpt lat="30.458887" lon="-98.018975">
        <ele>242.050207</ele>
        <time>2025-04-26T08:51:58.000Z</time>
      </trkpt>
      <trkpt lat="30.45895" lon="-98.018931">
        <ele>242.04337</ele>
        <time>2025-04-26T08:51:59.000Z</time>
      </trkpt>
      <trkpt lat="30.459245" lon="-98.01883">
        <ele>242.005417</ele>
        <time>2025-04-26T08:52:02.000Z</time>
      </trkpt>
      <trkpt lat="30.459341" lon="-98.018756">
        <ele>241.991881</ele>
        <time>2025-04-26T08:52:03.000Z</time>
      </trkpt>
      <trkpt lat="30.459429" lon="-98.018729">
        <ele>241.982509</ele>
        <time>2025-04-26T08:52:04.000Z</time>
      </trkpt>
      <trkpt lat="30.459485" lon="-98.018729">
        <ele>241.975266</ele>
        <time>2025-04-26T08:52:05.000Z</time>
      </trkpt>
      <trkpt lat="30.4597" lon="-98.018628">
        <ele>241.947872</ele>
        <time>2025-04-26T08:52:08.000Z</time>
      </trkpt>
      <trkpt lat="30.459943" lon="-98.018561">
        <ele>241.917752</ele>
        <time>2025-04-26T08:52:11.000Z</time>
      </trkpt>
      <trkpt lat="30.460012" lon="-98.018507">
        <ele>241.908599</ele>
        <time>2025-04-26T08:52:12.000Z</time>
      </trkpt>
      <trkpt lat="30.460117" lon="-98.018508">
        <ele>241.896395</ele>
        <time>2025-04-26T08:52:13.000Z</time>
      </trkpt>
      <trkpt lat="30.460505" lon="-98.018522">
        <ele>241.801994</ele>
        <time>2025-04-26T08:52:17.000Z</time>
      </trkpt>
      <trkpt lat="30.460803" lon="-98.018584">
        <ele>241.667173</ele>
        <time>2025-04-26T08:52:20.000Z</time>
      </trkpt>
      <trkpt lat="30.461135" lon="-98.018771">
        <ele>241.502921</ele>
        <time>2025-04-26T08:52:24.000Z</time>
      </trkpt>
      <trkpt lat="30.461446" lon="-98.018801">
        <ele>241.367948</ele>
        <time>2025-04-26T08:52:27.000Z</time>
      </trkpt>
      <trkpt lat="30.461536" lon="-98.018765">
        <ele>241.322904</ele>
        <time>2025-04-26T08:52:28.000Z</time>
      </trkpt>
      <trkpt lat="30.461651" lon="-98.01872">
        <ele>241.26991</ele>
        <time>2025-04-26T08:52:29.000Z</time>
      </trkpt>
      <trkpt lat="30.461737" lon="-98.018641">
        <ele>241.222888</ele>
        <time>2025-04-26T08:52:30.000Z</time>
      </trkpt>
      <trkpt lat="30.461869" lon="-98.018322">
        <ele>241.089561</ele>
        <time>2025-04-26T08:52:33.000Z</time>
      </trkpt>
      <trkpt lat="30.461898" lon="-98.018158">
        <ele>240.778612</ele>
        <time>2025-04-26T08:52:35.000Z</time>
      </trkpt>
      <trkpt lat="30.462021" lon="-98.01781">
        <ele>239.894864</ele>
        <time>2025-04-26T08:52:39.000Z</time>
      </trkpt>
      <trkpt lat="30.461997" lon="-98.017411">
        <ele>238.95447</ele>
        <time>2025-04-26T08:52:43.000Z</time>
      </trkpt>
      <trkpt lat="30.461982" lon="-98.017469">
        <ele>238.796865</ele>
        <time>2025-04-26T08:52:44.000Z</time>
      </trkpt>
      <trkpt lat="30.461585" lon="-98.017718">
        <ele>237.624139</ele>
        <time>2025-04-26T08:52:49.000Z</time>
      </trkpt>
      <trkpt lat="30.461445" lon="-98.017735">
        <ele>237.241229</ele>
        <time>2025-04-26T08:52:51.000Z</time>
      </trkpt>
      <trkpt lat="30.461294" lon="-98.017646">
        <ele>236.748374</ele>
        <time>2025-04-26T08:52:53.000Z</time>
      </trkpt>
      <trkpt lat="30.461056" lon="-98.017602">
        <ele>236.038841</ele>
        <time>2025-04-26T08:52:56.000Z</time>
      </trkpt>
      <trkpt lat="30.460863" lon="-98.017387">
        <ele>235.046093</ele>
        <time>2025-04-26T08:52:59.000Z</time>
      </trkpt>
      <trkpt lat="30.460806" lon="-98.017272">
        <ele>234.615876</ele>
        <time>2025-04-26T08:53:00.000Z</time>
      </trkpt>
      <trkpt lat="30.460757" lon="-98.017104">
        <ele>234.010381</ele>
        <time>2025-04-26T08:53:02.000Z</time>
      </trkpt>
      <trkpt lat="30.460661" lon="-98.017004">
        <ele>233.53507</ele>
        <time>2025-04-26T08:53:03.000Z</time>
      </trkpt>
      <trkpt lat="30.460508" lon="-98.016928">
        <ele>232.881838</ele>
        <time>2025-04-26T08:53:05.000Z</time>
      </trkpt>
      <trkpt lat="30.46019" lon="-98.016835">
        <ele>231.605649</ele>
        <time>2025-04-26T08:53:09.000Z</time>
      </trkpt>
      <trkpt lat="30.45995" lon="-98.016688">
        <ele>230.571683</ele>
        <time>2025-04-26T08:53:12.000Z</time>
      </trkpt>
      <trkpt lat="30.459705" lon="-98.016467">
        <ele>229.401341</ele>
        <time>2025-04-26T08:53:15.000Z</time>
      </trkpt>
      <trkpt lat="30.459584" lon="-98.016424">
        <ele>229.275814</ele>
        <time>2025-04-26T08:53:16.000Z</time>
      </trkpt>
      <trkpt lat="30.459551" lon="-98.016341">
        <ele>229.213685</ele>
        <time>2025-04-26T08:53:17.000Z</time>
      </trkpt>
      <trkpt lat="30.459568" lon="-98.015995">
        <ele>229.010685</ele>
        <time>2025-04-26T08:53:20.000Z</time>
      </trkpt>
      <trkpt lat="30.459487" lon="-98.015892">
        <ele>228.930046</ele>
        <time>2025-04-26T08:53:21.000Z</time>
      </trkpt>
      <trkpt lat="30.459285" lon="-98.015698">
        <ele>228.748015</ele>
        <time>2025-04-26T08:53:24.000Z</time>
      </trkpt>
      <trkpt lat="30.459227" lon="-98.015552">
        <ele>228.637111</ele>
        <time>2025-04-26T08:53:26.000Z</time>
      </trkpt>
      <trkpt lat="30.4592" lon="-98.015388">
        <ele>228.54525</ele>
        <time>2025-04-26T08:53:28.000Z</time>
      </trkpt>
      <trkpt lat="30.459122" lon="-98.015263">
        <ele>228.447637</ele>
        <time>2025-04-26T08:53:29.000Z</time>
      </trkpt>
      <trkpt lat="30.459102" lon="-98.015082">
        <ele>228.338335</ele>
        <time>2025-04-26T08:53:31.000Z</time>
      </trkpt>
      <trkpt lat="30.459207" lon="-98.014752">
        <ele>228.124632</ele>
        <time>2025-04-26T08:53:34.000Z</time>
      </trkpt>
      <trkpt lat="30.459179" lon="-98.014575">
        <ele>228.492192</ele>
        <time>2025-04-26T08:53:36.000Z</time>
      </trkpt>
      <trkpt lat="30.45906" lon="-98.014406">
        <ele>229.113983</ele>
        <time>2025-04-26T08:53:38.000Z</time>
      </trkpt>
      <trkpt lat="30.45944" lon="-98.014156">
        <ele>230.670899</ele>
        <time>2025-04-26T08:53:43.000Z</time>
      </trkpt>
      <trkpt lat="30.45955" lon="-98.014081">
        <ele>231.167739</ele>
        <time>2025-04-26T08:53:44.000Z</time>
      </trkpt>
      <trkpt lat="30.459643" lon="-98.014078">
        <ele>231.522887</ele>
        <time>2025-04-26T08:53:45.000Z</time>
      </trkpt>
      <trkpt lat="30.459992" lon="-98.014131">
        <ele>232.820118</ele>
        <time>2025-04-26T08:53:49.000Z</time>
      </trkpt>
      <trkpt lat="30.460689" lon="-98.014306">
        <ele>235.274968</ele>
        <time>2025-04-26T08:53:57.000Z</time>
      </trkpt>
      <trkpt lat="30.461511" lon="-98.014509">
        <ele>237.850913</ele>
        <time>2025-04-26T08:54:06.000Z</time>
      </trkpt>
      <trkpt lat="30.462327" lon="-98.014737">
        <ele>240.302786</ele>
        <time>2025-04-26T08:54:15.000Z</time>
      </trkpt>
      <trkpt lat="30.462459" lon="-98.014661">
        <ele>240.656677</ele>
        <time>2025-04-26T08:54:17.000Z</time>
      </trkpt>
      <trkpt lat="30.462629" lon="-98.014697">
        <ele>241.033539</ele>
        <time>2025-04-26T08:54:19.000Z</time>
      </trkpt>
      <trkpt lat="30.462794" lon="-98.014781">
        <ele>241.450837</ele>
        <time>2025-04-26T08:54:21.000Z</time>
      </trkpt>
      <trkpt lat="30.462953" lon="-98.015012">
        <ele>242.04828</ele>
        <time>2025-04-26T08:54:24.000Z</time>
      </trkpt>
      <trkpt lat="30.463073" lon="-98.014991">
        <ele>242.319542</ele>
        <time>2025-04-26T08:54:25.000Z</time>
      </trkpt>
      <trkpt lat="30.463184" lon="-98.014944">
        <ele>242.586391</ele>
        <time>2025-04-26T08:54:26.000Z</time>
      </trkpt>
      <trkpt lat="30.464564" lon="-98.015257">
        <ele>244.577731</ele>
        <time>2025-04-26T08:54:42.000Z</time>
      </trkpt>
      <trkpt lat="30.465361" lon="-98.015495">
        <ele>244.97494</ele>
        <time>2025-04-26T08:54:51.000Z</time>
      </trkpt>
      <trkpt lat="30.465234" lon="-98.015337">
        <ele>245.062255</ele>
        <time>2025-04-26T08:54:53.000Z</time>
      </trkpt>
      <trkpt lat="30.465114" lon="-98.015094">
        <ele>244.929942</ele>
        <time>2025-04-26T08:54:56.000Z</time>
      </trkpt>
      <trkpt lat="30.465027" lon="-98.014994">
        <ele>244.775732</ele>
        <time>2025-04-26T08:54:57.000Z</time>
      </trkpt>
      <trkpt lat="30.464907" lon="-98.014917">
        <ele>244.611364</ele>
        <time>2025-04-26T08:54:59.000Z</time>
      </trkpt>
      <trkpt lat="30.464567" lon="-98.014859">
        <ele>244.167177</ele>
        <time>2025-04-26T08:55:03.000Z</time>
      </trkpt>
      <trkpt lat="30.464488" lon="-98.014786">
        <ele>244.031146</ele>
        <time>2025-04-26T08:55:04.000Z</time>
      </trkpt>
      <trkpt lat="30.464309" lon="-98.01448">
        <ele>243.648754</ele>
        <time>2025-04-26T08:55:08.000Z</time>
      </trkpt>
      <trkpt lat="30.464088" lon="-98.014231">
        <ele>243.254544</ele>
        <time>2025-04-26T08:55:11.000Z</time>
      </trkpt>
      <trkpt lat="30.463926" lon="-98.014185">
        <ele>243.064319</ele>
        <time>2025-04-26T08:55:13.000Z</time>
      </trkpt>
      <trkpt lat="30.463812" lon="-98.014193">
        <ele>242.910529</ele>
        <time>2025-04-26T08:55:14.000Z</time>
      </trkpt>
      <trkpt lat="30.463665" lon="-98.014216">
        <ele>242.513971</ele>
        <time>2025-04-26T08:55:16.000Z</time>
      </trkpt>
      <trkpt lat="30.463484" lon="-98.014395">
        <ele>241.683305</ele>
        <time>2025-04-26T08:55:19.000Z</time>
      </trkpt>
      <trkpt lat="30.463154" lon="-98.014376">
        <ele>240.62388</ele>
        <time>2025-04-26T08:55:23.000Z</time>
      </trkpt>
      <trkpt lat="30.462883" lon="-98.014448">
        <ele>239.665724</ele>
        <time>2025-04-26T08:55:26.000Z</time>
      </trkpt>
      <trkpt lat="30.462789" lon="-98.014431">
        <ele>239.328162</ele>
        <time>2025-04-26T08:55:27.000Z</time>
      </trkpt>
      <trkpt lat="30.462731" lon="-98.014375">
        <ele>239.078002</ele>
        <time>2025-04-26T08:55:28.000Z</time>
      </trkpt>
      <trkpt lat="30.462744" lon="-98.014244">
        <ele>238.705147</ele>
        <time>2025-04-26T08:55:29.000Z</time>
      </trkpt>
      <trkpt lat="30.462862" lon="-98.014031">
        <ele>237.976311</ele>
        <time>2025-04-26T08:55:31.000Z</time>
      </trkpt>
      <trkpt lat="30.462911" lon="-98.013895">
        <ele>237.548092</ele>
        <time>2025-04-26T08:55:32.000Z</time>
      </trkpt>
      <trkpt lat="30.462877" lon="-98.013799">
        <ele>237.26356</ele>
        <time>2025-04-26T08:55:33.000Z</time>
      </trkpt>
      <trkpt lat="30.462842" lon="-98.01366">
        <ele>236.866483</ele>
        <time>2025-04-26T08:55:34.000Z</time>
      </trkpt>
      <trkpt lat="30.462748" lon="-98.013548">
        <ele>236.424168</ele>
        <time>2025-04-26T08:55:35.000Z</time>
      </trkpt>
      <trkpt lat="30.462579" lon="-98.013395">
        <ele>235.744024</ele>
        <time>2025-04-26T08:55:37.000Z</time>
      </trkpt>
      <trkpt lat="30.462462" lon="-98.013317">
        <ele>235.289515</ele>
        <time>2025-04-26T08:55:39.000Z</time>
      </trkpt>
      <trkpt lat="30.46222" lon="-98.013265">
        <ele>234.495101</ele>
        <time>2025-04-26T08:55:42.000Z</time>
      </trkpt>
      <trkpt lat="30.462116" lon="-98.013255">
        <ele>234.172583</ele>
        <time>2025-04-26T08:55:43.000Z</time>
      </trkpt>
      <trkpt lat="30.461997" lon="-98.013332">
        <ele>233.727603</ele>
        <time>2025-04-26T08:55:45.000Z</time>
      </trkpt>
      <trkpt lat="30.461945" lon="-98.013295">
        <ele>233.533179</ele>
        <time>2025-04-26T08:55:46.000Z</time>
      </trkpt>
      <trkpt lat="30.461773" lon="-98.012916">
        <ele>232.297332</ele>
        <time>2025-04-26T08:55:50.000Z</time>
      </trkpt>
      <trkpt lat="30.461806" lon="-98.012711">
        <ele>231.731818</ele>
        <time>2025-04-26T08:55:52.000Z</time>
      </trkpt>
      <trkpt lat="30.461801" lon="-98.012618">
        <ele>231.475026</ele>
        <time>2025-04-26T08:55:53.000Z</time>
      </trkpt>
      <trkpt lat="30.461742" lon="-98.012553">
        <ele>231.262309</ele>
        <time>2025-04-26T08:55:54.000Z</time>
      </trkpt>
      <trkpt lat="30.461493" lon="-98.012483">
        <ele>230.678712</ele>
        <time>2025-04-26T08:55:57.000Z</time>
      </trkpt>
      <trkpt lat="30.461431" lon="-98.012436">
        <ele>230.524946</ele>
        <time>2025-04-26T08:55:58.000Z</time>
      </trkpt>
      <trkpt lat="30.461335" lon="-98.012218">
        <ele>230.139584</ele>
        <time>2025-04-26T08:56:00.000Z</time>
      </trkpt>
      <trkpt lat="30.461339" lon="-98.011962">
        <ele>229.735371</ele>
        <time>2025-04-26T08:56:02.000Z</time>
      </trkpt>
      <trkpt lat="30.461305" lon="-98.011864">
        <ele>229.566094</ele>
        <time>2025-04-26T08:56:03.000Z</time>
      </trkpt>
      <trkpt lat="30.461228" lon="-98.01178">
        <ele>229.375953</ele>
        <time>2025-04-26T08:56:04.000Z</time>
      </trkpt>
      <trkpt lat="30.460925" lon="-98.011783">
        <ele>228.82947</ele>
        <time>2025-04-26T08:56:07.000Z</time>
      </trkpt>
      <trkpt lat="30.460856" lon="-98.011837">
        <ele>228.67191</ele>
        <time>2025-04-26T08:56:08.000Z</time>
      </trkpt>
      <trkpt lat="30.460758" lon="-98.011983">
        <ele>228.379992</ele>
        <time>2025-04-26T08:56:10.000Z</time>
      </trkpt>
      <trkpt lat="30.460586" lon="-98.012108">
        <ele>227.989687</ele>
        <time>2025-04-26T08:56:12.000Z</time>
      </trkpt>
      <trkpt lat="30.460502" lon="-98.012186">
        <ele>227.796441</ele>
        <time>2025-04-26T08:56:13.000Z</time>
      </trkpt>
      <trkpt lat="30.460439" lon="-98.012282">
        <ele>227.562801</ele>
        <time>2025-04-26T08:56:14.000Z</time>
      </trkpt>
      <trkpt lat="30.460364" lon="-98.01275">
        <ele>226.656245</ele>
        <time>2025-04-26T08:56:19.000Z</time>
      </trkpt>
      <trkpt lat="30.460284" lon="-98.012837">
        <ele>226.429441</ele>
        <time>2025-04-26T08:56:20.000Z</time>
      </trkpt>
      <trkpt lat="30.460225" lon="-98.012837">
        <ele>226.297202</ele>
        <time>2025-04-26T08:56:21.000Z</time>
      </trkpt>
      <trkpt lat="30.460135" lon="-98.012809">
        <ele>226.049452</ele>
        <time>2025-04-26T08:56:22.000Z</time>
      </trkpt>
      <trkpt lat="30.459824" lon="-98.012607">
        <ele>225.270959</ele>
        <time>2025-04-26T08:56:26.000Z</time>
      </trkpt>
      <trkpt lat="30.459757" lon="-98.012543">
        <ele>225.059899</ele>
        <time>2025-04-26T08:56:27.000Z</time>
      </trkpt>
      <trkpt lat="30.459715" lon="-98.012401">
        <ele>224.764939</ele>
        <time>2025-04-26T08:56:28.000Z</time>
      </trkpt>
      <trkpt lat="30.459408" lon="-98.012191">
        <ele>223.963201</ele>
        <time>2025-04-26T08:56:32.000Z</time>
      </trkpt>
      <trkpt lat="30.459059" lon="-98.012139">
        <ele>222.581229</ele>
        <time>2025-04-26T08:56:36.000Z</time>
      </trkpt>
      <trkpt lat="30.458967" lon="-98.012077">
        <ele>222.038568</ele>
        <time>2025-04-26T08:56:37.000Z</time>
      </trkpt>
      <trkpt lat="30.458698" lon="-98.011978">
        <ele>220.631215</ele>
        <time>2025-04-26T08:56:40.000Z</time>
      </trkpt>
      <trkpt lat="30.45855" lon="-98.011818">
        <ele>219.646873</ele>
        <time>2025-04-26T08:56:42.000Z</time>
      </trkpt>
      <trkpt lat="30.458515" lon="-98.011798">
        <ele>219.408837</ele>
        <time>2025-04-26T08:56:42.000Z</time>
      </trkpt>
      <trkpt lat="30.458624" lon="-98.011684">
        <ele>218.684273</ele>
        <time>2025-04-26T08:56:44.000Z</time>
      </trkpt>
      <trkpt lat="30.458703" lon="-98.011483">
        <ele>217.768932</ele>
        <time>2025-04-26T08:56:46.000Z</time>
      </trkpt>
      <trkpt lat="30.458778" lon="-98.01117">
        <ele>216.425245</ele>
        <time>2025-04-26T08:56:49.000Z</time>
      </trkpt>
      <trkpt lat="30.458746" lon="-98.011002">
        <ele>215.664529</ele>
        <time>2025-04-26T08:56:51.000Z</time>
      </trkpt>
      <trkpt lat="30.45881" lon="-98.010974">
        <ele>215.302423</ele>
        <time>2025-04-26T08:56:52.000Z</time>
      </trkpt>
      <trkpt lat="30.458733" lon="-98.010835">
        <ele>214.698173</ele>
        <time>2025-04-26T08:56:54.000Z</time>
      </trkpt>
      <trkpt lat="30.45858" lon="-98.010701">
        <ele>214.149731</ele>
        <time>2025-04-26T08:56:56.000Z</time>
      </trkpt>
      <trkpt lat="30.458081" lon="-98.010406">
        <ele>212.544234</ele>
        <time>2025-04-26T08:57:02.000Z</time>
      </trkpt>
      <trkpt lat="30.458054" lon="-98.010338">
        <ele>212.3453</ele>
        <time>2025-04-26T08:57:03.000Z</time>
      </trkpt>
      <trkpt lat="30.458014" lon="-98.01011">
        <ele>211.753868</ele>
        <time>2025-04-26T08:57:05.000Z</time>
      </trkpt>
      <trkpt lat="30.458013" lon="-98.009802">
        <ele>211.015782</ele>
        <time>2025-04-26T08:57:08.000Z</time>
      </trkpt>
      <trkpt lat="30.458175" lon="-98.009607">
        <ele>210.316961</ele>
        <time>2025-04-26T08:57:11.000Z</time>
      </trkpt>
      <trkpt lat="30.458448" lon="-98.009285">
        <ele>209.581129</ele>
        <time>2025-04-26T08:57:15.000Z</time>
      </trkpt>
      <trkpt lat="30.45851" lon="-98.009192">
        <ele>209.603651</ele>
        <time>2025-04-26T08:57:16.000Z</time>
      </trkpt>
      <trkpt lat="30.458532" lon="-98.009024">
        <ele>209.63304</ele>
        <time>2025-04-26T08:57:18.000Z</time>
      </trkpt>
      <trkpt lat="30.4585" lon="-98.008961">
        <ele>209.648282</ele>
        <time>2025-04-26T08:57:19.000Z</time>
      </trkpt>
      <trkpt lat="30.458402" lon="-98.008877">
        <ele>209.672812</ele>
        <time>2025-04-26T08:57:20.000Z</time>
      </trkpt>
      <trkpt lat="30.457853" lon="-98.00891">
        <ele>209.78993</ele>
        <time>2025-04-26T08:57:26.000Z</time>
      </trkpt>
      <trkpt lat="30.457669" lon="-98.00897">
        <ele>209.832251</ele>
        <time>2025-04-26T08:57:28.000Z</time>
      </trkpt>
      <trkpt lat="30.457449" lon="-98.009082">
        <ele>209.880172</ele>
        <time>2025-04-26T08:57:31.000Z</time>
      </trkpt>
      <trkpt lat="30.456832" lon="-98.009464">
        <ele>209.958801994</ele>
        <time>2025-04-26T08:57:39.000Z</time>
      </trkpt>
      <trkpt lat="30.456284" lon="-98.009763">
        <ele>210.026887881</ele>
        <time>2025-04-26T08:57:46.000Z</time>
      </trkpt>
      <trkpt lat="30.456167" lon="-98.009792">
        <ele>210.040339057</ele>
        <time>2025-04-26T08:57:47.000Z</time>
      </trkpt>
      <trkpt lat="30.456052" lon="-98.009773">
        <ele>210.053398938</ele>
        <time>2025-04-26T08:57:48.000Z</time>
      </trkpt>
      <trkpt lat="30.455948" lon="-98.009697">
        <ele>210.06721819</ele>
        <time>2025-04-26T08:57:49.000Z</time>
      </trkpt>
      <trkpt lat="30.455818" lon="-98.009552">
        <ele>210.087493974</ele>
        <time>2025-04-26T08:57:51.000Z</time>
      </trkpt>
      <trkpt lat="30.455542" lon="-98.008989">
        <ele>210.150264541</ele>
        <time>2025-04-26T08:57:57.000Z</time>
      </trkpt>
      <trkpt lat="30.455434" lon="-98.00893">
        <ele>210.163685967</ele>
        <time>2025-04-26T08:57:58.000Z</time>
      </trkpt>
      <trkpt lat="30.455363" lon="-98.008903">
        <ele>210.172086434</ele>
        <time>2025-04-26T08:57:59.000Z</time>
      </trkpt>
      <trkpt lat="30.455239" lon="-98.008928">
        <ele>210.186236693</ele>
        <time>2025-04-26T08:58:00.000Z</time>
      </trkpt>
    </trkseg>
  </trk>
</gpx>

<!--
Performance optimized by W3 Total Cache. Learn more: https://www.boldgrid.com/w3-total-cache/?utm_source=w3tc&utm_medium=footer_comment&utm_campaign=free_plugin

Page Caching using Disk: Enhanced{w3tc_pagecache_reject_reason} 

Served from: www.aquabike.world @ 2026-05-10 22:59:59 by W3 Total Cache
-->